SIA31 KSFO-WSSS
Flight info
| Callsign | SIA31 |
|---|---|
| Flight time | 15h 57m |
| Altitude | 34000 |
| Route | GNNRR3 AMAKR DCT REDWD DCT TRYSH DCT 44N140W 45N145W/N0487F360 47N150W 50N160W 50N170W 49N180E/N0498F380 45N170E 36N160E 30N150E/N0482F400 24N140E DCT KEITH DCT 19N130E DCT OMDOB DCT JOM M767 TODAM/N0479F430 M767 TOMAN KARTO2A |
| Aircraft | A359/H-SDE2E3GHIJ3J4J5LM1ORWXY/LB1D1 |
Departure
| Time | 2026-05-03 21:12 |
|---|---|
| Airport | San Francisco International Airport (KSFO) |
Arrival
| Time | 2026-05-04 13:09 |
|---|---|
| Airport | Singapore Changi Airport (WSSS) |
| Time | Latitude | Longitude | Altitude | Speed | Heading |
|---|---|---|---|---|---|
| 2026-05-03 20:49 | 37.61867 | -122.39175 | 23 ft | 0 kts | 206° |
| 2026-05-03 20:51 | 37.61878 | -122.39168 | 28 ft | 2 kts | 214° |
| 2026-05-03 20:51 | 37.61891 | -122.39155 | 27 ft | 2 kts | 224° |
| 2026-05-03 20:51 | 37.61902 | -122.39139 | 27 ft | 2 kts | 240° |
| 2026-05-03 20:52 | 37.61908 | -122.39120 | 26 ft | 2 kts | 259° |
| 2026-05-03 20:52 | 37.61909 | -122.39099 | 27 ft | 2 kts | 276° |
| 2026-05-03 20:52 | 37.61906 | -122.39079 | 27 ft | 2 kts | 288° |
| 2026-05-03 20:52 | 37.61901 | -122.39062 | 27 ft | 1 kts | 295° |
| 2026-05-03 20:53 | 37.61899 | -122.39057 | 23 ft | 0 kts | 297° |
| 2026-05-03 20:56 | 37.61899 | -122.39058 | 23 ft | 1 kts | 297° |
| 2026-05-03 20:56 | 37.61911 | -122.39088 | 24 ft | 5 kts | 297° |
| 2026-05-03 20:57 | 37.61928 | -122.39129 | 24 ft | 6 kts | 297° |
| 2026-05-03 20:57 | 37.61948 | -122.39176 | 23 ft | 6 kts | 297° |
| 2026-05-03 20:57 | 37.61968 | -122.39223 | 26 ft | 6 kts | 301° |
| 2026-05-03 20:57 | 37.61994 | -122.39244 | 28 ft | 4 kts | 352° |
| 2026-05-03 20:58 | 37.62023 | -122.39237 | 23 ft | 5 kts | 16° |
| 2026-05-03 20:58 | 37.62061 | -122.39215 | 22 ft | 7 kts | 26° |
| 2026-05-03 20:58 | 37.62112 | -122.39181 | 22 ft | 9 kts | 28° |
| 2026-05-03 20:58 | 37.62166 | -122.39145 | 22 ft | 6 kts | 28° |
| 2026-05-03 20:59 | 37.62204 | -122.39119 | 24 ft | 7 kts | 32° |
| 2026-05-03 20:59 | 37.62233 | -122.39072 | 22 ft | 7 kts | 67° |
| 2026-05-03 20:59 | 37.62249 | -122.39009 | 22 ft | 8 kts | 72° |
| 2026-05-03 20:59 | 37.62264 | -122.38931 | 21 ft | 10 kts | 91° |
| 2026-05-03 21:00 | 37.62248 | -122.38875 | 20 ft | 11 kts | 116° |
| 2026-05-03 21:00 | 37.62223 | -122.38816 | 20 ft | 12 kts | 117° |
| 2026-05-03 21:00 | 37.62174 | -122.38696 | 22 ft | 11 kts | 117° |
| 2026-05-03 21:00 | 37.62141 | -122.38618 | 29 ft | 10 kts | 118° |
| 2026-05-03 21:01 | 37.62110 | -122.38545 | 27 ft | 10 kts | 118° |
| 2026-05-03 21:01 | 37.62078 | -122.38470 | 30 ft | 10 kts | 118° |
| 2026-05-03 21:01 | 37.62048 | -122.38399 | 26 ft | 8 kts | 117° |
| 2026-05-03 21:01 | 37.62023 | -122.38340 | 28 ft | 7 kts | 117° |
| 2026-05-03 21:02 | 37.61999 | -122.38280 | 29 ft | 8 kts | 117° |
| 2026-05-03 21:02 | 37.61971 | -122.38215 | 28 ft | 9 kts | 118° |
| 2026-05-03 21:02 | 37.61937 | -122.38134 | 27 ft | 11 kts | 118° |
| 2026-05-03 21:02 | 37.61900 | -122.38046 | 27 ft | 12 kts | 118° |
| 2026-05-03 21:03 | 37.61862 | -122.37956 | 27 ft | 12 kts | 117° |
| 2026-05-03 21:03 | 37.61822 | -122.37845 | 27 ft | 15 kts | 112° |
| 2026-05-03 21:03 | 37.61785 | -122.37725 | 27 ft | 15 kts | 111° |
| 2026-05-03 21:03 | 37.61750 | -122.37611 | 29 ft | 13 kts | 111° |
| 2026-05-03 21:04 | 37.61714 | -122.37501 | 28 ft | 14 kts | 116° |
| 2026-05-03 21:04 | 37.61670 | -122.37395 | 27 ft | 13 kts | 118° |
| 2026-05-03 21:04 | 37.61631 | -122.37303 | 29 ft | 11 kts | 118° |
| 2026-05-03 21:04 | 37.61593 | -122.37213 | 29 ft | 12 kts | 117° |
| 2026-05-03 21:05 | 37.61553 | -122.37116 | 28 ft | 13 kts | 117° |
| 2026-05-03 21:05 | 37.61511 | -122.37016 | 29 ft | 13 kts | 118° |
| 2026-05-03 21:05 | 37.61461 | -122.36921 | 27 ft | 14 kts | 129° |
| 2026-05-03 21:05 | 37.61393 | -122.36822 | 30 ft | 16 kts | 129° |
| 2026-05-03 21:06 | 37.61333 | -122.36704 | 28 ft | 16 kts | 118° |
| 2026-05-03 21:06 | 37.61279 | -122.36574 | 22 ft | 16 kts | 118° |
| 2026-05-03 21:06 | 37.61236 | -122.36471 | 22 ft | 11 kts | 118° |
| 2026-05-03 21:06 | 37.61201 | -122.36388 | 27 ft | 10 kts | 118° |
| 2026-05-03 21:07 | 37.61168 | -122.36310 | 27 ft | 10 kts | 118° |
| 2026-05-03 21:07 | 37.61133 | -122.36227 | 23 ft | 11 kts | 118° |
| 2026-05-03 21:07 | 37.61098 | -122.36142 | 28 ft | 10 kts | 118° |
| 2026-05-03 21:07 | 37.61067 | -122.36068 | 29 ft | 8 kts | 114° |
| 2026-05-03 21:08 | 37.61055 | -122.36023 | 29 ft | 1 kts | 104° |
| 2026-05-03 21:08 | 37.61055 | -122.36022 | 29 ft | 0 kts | 104° |
| 2026-05-03 21:09 | 37.61052 | -122.35999 | 26 ft | 5 kts | 93° |
| 2026-05-03 21:09 | 37.61063 | -122.35948 | 28 ft | 7 kts | 62° |
| 2026-05-03 21:10 | 37.61099 | -122.35908 | 29 ft | 7 kts | 36° |
| 2026-05-03 21:10 | 37.61144 | -122.35880 | 29 ft | 7 kts | 18° |
| 2026-05-03 21:10 | 37.61174 | -122.35880 | 30 ft | 3 kts | 346° |
| 2026-05-03 21:10 | 37.61182 | -122.35885 | 28 ft | 2 kts | 333° |
| 2026-05-03 21:11 | 37.61205 | -122.35924 | 28 ft | 0 kts | 298° |
| 2026-05-03 21:11 | 37.61265 | -122.36064 | 21 ft | 53 kts | 297° |
| 2026-05-03 21:11 | 37.61557 | -122.36759 | 26 ft | 124 kts | 297° |
| 2026-05-03 21:12 | 37.62070 | -122.37966 | 64 ft | 181 kts | 295° |
| 2026-05-03 21:12 | 37.62663 | -122.39288 | 1036 ft | 167 kts | 299° |
| 2026-05-03 21:12 | 37.63244 | -122.40516 | 1844 ft | 160 kts | 299° |
| 2026-05-03 21:12 | 37.63787 | -122.41787 | 2118 ft | 172 kts | 296° |
| 2026-05-03 21:13 | 37.64368 | -122.43190 | 2372 ft | 187 kts | 296° |
| 2026-05-03 21:13 | 37.65006 | -122.44699 | 2615 ft | 203 kts | 296° |
| 2026-05-03 21:13 | 37.65713 | -122.46336 | 2804 ft | 223 kts | 297° |
| 2026-05-03 21:13 | 37.66493 | -122.48113 | 3052 ft | 240 kts | 297° |
| 2026-05-03 21:14 | 37.67332 | -122.49982 | 3376 ft | 254 kts | 300° |
| 2026-05-03 21:14 | 37.68350 | -122.51849 | 3854 ft | 261 kts | 304° |
| 2026-05-03 21:14 | 37.69460 | -122.53730 | 4393 ft | 265 kts | 305° |
| 2026-05-03 21:14 | 37.70562 | -122.55587 | 4906 ft | 270 kts | 305° |
| 2026-05-03 21:15 | 37.71692 | -122.57499 | 5451 ft | 273 kts | 305° |
| 2026-05-03 21:15 | 37.72839 | -122.59441 | 6006 ft | 278 kts | 305° |
| 2026-05-03 21:15 | 37.74002 | -122.61413 | 6546 ft | 282 kts | 305° |
| 2026-05-03 21:15 | 37.75183 | -122.63421 | 7089 ft | 286 kts | 305° |
| 2026-05-03 21:16 | 37.76379 | -122.65454 | 7662 ft | 290 kts | 305° |
| 2026-05-03 21:16 | 37.77587 | -122.67510 | 8251 ft | 293 kts | 305° |
| 2026-05-03 21:16 | 37.78810 | -122.69594 | 8845 ft | 296 kts | 305° |
| 2026-05-03 21:16 | 37.80048 | -122.71703 | 9443 ft | 300 kts | 306° |
| 2026-05-03 21:17 | 37.81303 | -122.73838 | 10024 ft | 304 kts | 306° |
| 2026-05-03 21:17 | 37.82205 | -122.75216 | 10273 ft | 312 kts | 313° |
| 2026-05-03 21:17 | 37.84535 | -122.77541 | 10631 ft | 332 kts | 327° |
| 2026-05-03 21:17 | 37.86515 | -122.79158 | 10920 ft | 346 kts | 327° |
| 2026-05-03 21:18 | 37.88580 | -122.80842 | 11195 ft | 359 kts | 327° |
| 2026-05-03 21:18 | 37.90711 | -122.82595 | 11468 ft | 372 kts | 327° |
| 2026-05-03 21:18 | 37.92909 | -122.84412 | 11778 ft | 383 kts | 327° |
| 2026-05-03 21:18 | 37.95159 | -122.86277 | 12247 ft | 388 kts | 327° |
| 2026-05-03 21:19 | 37.97431 | -122.88165 | 12759 ft | 392 kts | 327° |
| 2026-05-03 21:19 | 37.99720 | -122.90068 | 13294 ft | 395 kts | 327° |
| 2026-05-03 21:19 | 38.02030 | -122.91992 | 13837 ft | 398 kts | 327° |
| 2026-05-03 21:19 | 38.04357 | -122.93931 | 14316 ft | 402 kts | 327° |
| 2026-05-03 21:20 | 38.06699 | -122.95885 | 14813 ft | 405 kts | 327° |
| 2026-05-03 21:20 | 38.09061 | -122.97857 | 15302 ft | 408 kts | 327° |
| 2026-05-03 21:20 | 38.11437 | -122.99842 | 15795 ft | 411 kts | 327° |
| 2026-05-03 21:20 | 38.13832 | -123.01845 | 16268 ft | 414 kts | 327° |
| 2026-05-03 21:21 | 38.16245 | -123.03864 | 16772 ft | 416 kts | 327° |
| 2026-05-03 21:21 | 38.18674 | -123.05898 | 17246 ft | 419 kts | 327° |
| 2026-05-03 21:21 | 38.21118 | -123.07947 | 17730 ft | 422 kts | 327° |
| 2026-05-03 21:21 | 38.23579 | -123.10012 | 18212 ft | 425 kts | 327° |
| 2026-05-03 21:22 | 38.26056 | -123.12091 | 18640 ft | 429 kts | 328° |
| 2026-05-03 21:22 | 38.28553 | -123.14189 | 19060 ft | 431 kts | 328° |
| 2026-05-03 21:22 | 38.31068 | -123.16305 | 19502 ft | 434 kts | 328° |
| 2026-05-03 21:22 | 38.33599 | -123.18435 | 19948 ft | 437 kts | 328° |
| 2026-05-03 21:23 | 38.36147 | -123.20581 | 20404 ft | 440 kts | 328° |
| 2026-05-03 21:23 | 38.38682 | -123.22718 | 20845 ft | 443 kts | 328° |
| 2026-05-03 21:23 | 38.41268 | -123.24900 | 21295 ft | 446 kts | 328° |
| 2026-05-03 21:23 | 38.43860 | -123.27090 | 21744 ft | 449 kts | 328° |
| 2026-05-03 21:24 | 38.46468 | -123.29295 | 22185 ft | 451 kts | 328° |
| 2026-05-03 21:24 | 38.49097 | -123.31519 | 22619 ft | 454 kts | 328° |
| 2026-05-03 21:24 | 38.51737 | -123.33755 | 23064 ft | 457 kts | 328° |
| 2026-05-03 21:24 | 38.54399 | -123.36011 | 23478 ft | 460 kts | 328° |
| 2026-05-03 21:25 | 38.57079 | -123.38285 | 23860 ft | 463 kts | 329° |
| 2026-05-03 21:25 | 38.59761 | -123.40563 | 24209 ft | 466 kts | 329° |
| 2026-05-03 21:25 | 38.62473 | -123.42867 | 24576 ft | 468 kts | 329° |
| 2026-05-03 21:25 | 38.65197 | -123.45186 | 24938 ft | 471 kts | 329° |
| 2026-05-03 21:26 | 38.67931 | -123.47513 | 25293 ft | 473 kts | 329° |
| 2026-05-03 21:26 | 38.70686 | -123.49861 | 25663 ft | 476 kts | 330° |
| 2026-05-03 21:26 | 38.73444 | -123.52214 | 26020 ft | 478 kts | 330° |
| 2026-05-03 21:26 | 38.76218 | -123.54583 | 26375 ft | 480 kts | 330° |
| 2026-05-03 21:27 | 38.78971 | -123.56936 | 26727 ft | 483 kts | 330° |
| 2026-05-03 21:27 | 38.81809 | -123.59364 | 27081 ft | 485 kts | 330° |
| 2026-05-03 21:27 | 38.84624 | -123.61775 | 27397 ft | 488 kts | 330° |
| 2026-05-03 21:27 | 38.87414 | -123.64167 | 27740 ft | 490 kts | 330° |
| 2026-05-03 21:28 | 38.90293 | -123.66638 | 28084 ft | 492 kts | 331° |
| 2026-05-03 21:28 | 38.93102 | -123.69051 | 28407 ft | 494 kts | 331° |
| 2026-05-03 21:28 | 38.95947 | -123.71560 | 28737 ft | 498 kts | 328° |
| 2026-05-03 21:28 | 38.98596 | -123.74490 | 29042 ft | 506 kts | 318° |
| 2026-05-03 21:29 | 39.00872 | -123.77993 | 29329 ft | 514 kts | 308° |
| 2026-05-03 21:29 | 39.02711 | -123.81970 | 29624 ft | 520 kts | 301° |
| 2026-05-03 21:29 | 39.04370 | -123.86129 | 29887 ft | 523 kts | 299° |
| 2026-05-03 21:29 | 39.05968 | -123.90351 | 30151 ft | 526 kts | 298° |
| 2026-05-03 21:30 | 39.07544 | -123.94607 | 30396 ft | 527 kts | 298° |
| 2026-05-03 21:30 | 39.09123 | -123.98887 | 30625 ft | 529 kts | 298° |
| 2026-05-03 21:30 | 39.10712 | -124.03173 | 30843 ft | 531 kts | 298° |
| 2026-05-03 21:30 | 39.12312 | -124.07462 | 31055 ft | 533 kts | 298° |
| 2026-05-03 21:31 | 39.13920 | -124.11757 | 31325 ft | 532 kts | 298° |
| 2026-05-03 21:31 | 39.15531 | -124.16049 | 31629 ft | 531 kts | 298° |
| 2026-05-03 21:31 | 39.17141 | -124.20338 | 31938 ft | 531 kts | 298° |
| 2026-05-03 21:31 | 39.18746 | -124.24617 | 32213 ft | 531 kts | 298° |
| 2026-05-03 21:32 | 39.20333 | -124.28853 | 32465 ft | 530 kts | 298° |
| 2026-05-03 21:32 | 39.21932 | -124.33128 | 32721 ft | 530 kts | 298° |
| 2026-05-03 21:32 | 39.23531 | -124.37414 | 32997 ft | 530 kts | 298° |
| 2026-05-03 21:32 | 39.25128 | -124.41698 | 33271 ft | 529 kts | 298° |
| 2026-05-03 21:33 | 39.26719 | -124.45972 | 33504 ft | 529 kts | 298° |
| 2026-05-03 21:33 | 39.28310 | -124.50255 | 33746 ft | 529 kts | 298° |
| 2026-05-03 21:33 | 39.29897 | -124.54532 | 33944 ft | 529 kts | 297° |
| 2026-05-03 21:33 | 39.31495 | -124.58844 | 33976 ft | 533 kts | 297° |
| 2026-05-03 21:34 | 39.34699 | -124.67511 | 33974 ft | 533 kts | 297° |
| 2026-05-03 21:34 | 39.37887 | -124.76164 | 33977 ft | 533 kts | 297° |
| 2026-05-03 21:35 | 39.41046 | -124.84761 | 33974 ft | 533 kts | 297° |
| 2026-05-03 21:35 | 39.44218 | -124.93417 | 33973 ft | 532 kts | 297° |
| 2026-05-03 21:36 | 39.47380 | -125.02069 | 33973 ft | 532 kts | 297° |
| 2026-05-03 21:36 | 39.50539 | -125.10739 | 33972 ft | 531 kts | 297° |
| 2026-05-03 21:37 | 39.53685 | -125.19400 | 33971 ft | 531 kts | 297° |
| 2026-05-03 21:37 | 39.56803 | -125.28007 | 33974 ft | 530 kts | 297° |
| 2026-05-03 21:38 | 39.59929 | -125.36664 | 33969 ft | 530 kts | 297° |
| 2026-05-03 21:38 | 39.63046 | -125.45319 | 33980 ft | 529 kts | 297° |
| 2026-05-03 21:39 | 39.66153 | -125.53975 | 33962 ft | 529 kts | 297° |
| 2026-05-03 21:39 | 39.69248 | -125.62623 | 33970 ft | 528 kts | 297° |
| 2026-05-03 21:40 | 39.72334 | -125.71269 | 33954 ft | 527 kts | 297° |
| 2026-05-03 21:40 | 39.75410 | -125.79913 | 33972 ft | 526 kts | 297° |
| 2026-05-03 21:41 | 39.78481 | -125.88570 | 33971 ft | 526 kts | 297° |
| 2026-05-03 21:41 | 39.81537 | -125.97211 | 33966 ft | 526 kts | 297° |
| 2026-05-03 21:42 | 39.84569 | -126.05809 | 33971 ft | 526 kts | 297° |
| 2026-05-03 21:42 | 39.87613 | -126.14466 | 33968 ft | 526 kts | 297° |
| 2026-05-03 21:43 | 39.90649 | -126.23127 | 33970 ft | 525 kts | 297° |
| 2026-05-03 21:43 | 39.93678 | -126.31794 | 33966 ft | 525 kts | 297° |
| 2026-05-03 21:44 | 39.96692 | -126.40446 | 33968 ft | 524 kts | 296° |
| 2026-05-03 21:44 | 39.99698 | -126.49100 | 33970 ft | 523 kts | 296° |
| 2026-05-03 21:45 | 40.02537 | -126.57759 | 33975 ft | 523 kts | 294° |
| 2026-05-03 21:45 | 40.05156 | -126.66613 | 33972 ft | 523 kts | 293° |
| 2026-05-03 21:46 | 40.07773 | -126.75472 | 33972 ft | 522 kts | 293° |
| 2026-05-03 21:46 | 40.10420 | -126.84300 | 33975 ft | 522 kts | 294° |
| 2026-05-03 21:47 | 40.12632 | -126.91642 | 33973 ft | 521 kts | 294° |
| 2026-05-03 21:47 | 40.15286 | -127.00462 | 33974 ft | 521 kts | 293° |
| 2026-05-03 21:48 | 40.18258 | -127.09083 | 33975 ft | 519 kts | 299° |
| 2026-05-03 21:48 | 40.21535 | -127.17494 | 33975 ft | 519 kts | 299° |
| 2026-05-03 21:49 | 40.24773 | -127.25940 | 33976 ft | 519 kts | 298° |
| 2026-05-03 21:49 | 40.27919 | -127.34383 | 33976 ft | 519 kts | 298° |
| 2026-05-03 21:50 | 40.31053 | -127.42901 | 33978 ft | 519 kts | 298° |
| 2026-05-03 21:50 | 40.34183 | -127.51442 | 33977 ft | 519 kts | 298° |
| 2026-05-03 21:51 | 40.37312 | -127.59992 | 33976 ft | 519 kts | 297° |
| 2026-05-03 21:51 | 40.40414 | -127.68489 | 33976 ft | 519 kts | 297° |
| 2026-05-03 21:52 | 40.43528 | -127.77044 | 33978 ft | 519 kts | 297° |
| 2026-05-03 21:52 | 40.46639 | -127.85613 | 33978 ft | 520 kts | 297° |
| 2026-05-03 21:53 | 40.49744 | -127.94196 | 33979 ft | 519 kts | 297° |
| 2026-05-03 21:53 | 40.52836 | -128.02765 | 33981 ft | 518 kts | 297° |
| 2026-05-03 21:54 | 40.55916 | -128.11327 | 33980 ft | 518 kts | 297° |
| 2026-05-03 21:54 | 40.58968 | -128.19837 | 33979 ft | 517 kts | 297° |
| 2026-05-03 21:55 | 40.62026 | -128.28388 | 33981 ft | 515 kts | 297° |
| 2026-05-03 21:55 | 40.65065 | -128.36911 | 33981 ft | 513 kts | 297° |
| 2026-05-03 21:56 | 40.68091 | -128.45423 | 33983 ft | 512 kts | 297° |
| 2026-05-03 21:56 | 40.71097 | -128.53905 | 33985 ft | 510 kts | 297° |
| 2026-05-03 21:57 | 40.74074 | -128.62331 | 33984 ft | 509 kts | 297° |
| 2026-05-03 21:57 | 40.77057 | -128.70797 | 33992 ft | 508 kts | 297° |
| 2026-05-03 21:58 | 40.80037 | -128.79281 | 33993 ft | 508 kts | 297° |
| 2026-05-03 21:58 | 40.83001 | -128.87744 | 33994 ft | 507 kts | 297° |
| 2026-05-03 21:59 | 40.85933 | -128.96144 | 33989 ft | 505 kts | 297° |
| 2026-05-03 21:59 | 40.88867 | -129.04570 | 33994 ft | 504 kts | 297° |
| 2026-05-03 22:00 | 40.91790 | -129.12991 | 33993 ft | 503 kts | 297° |
| 2026-05-03 22:00 | 40.94704 | -129.21412 | 33989 ft | 503 kts | 297° |
| 2026-05-03 22:01 | 40.97613 | -129.29841 | 34008 ft | 502 kts | 297° |
| 2026-05-03 22:01 | 41.00487 | -129.38197 | 33996 ft | 502 kts | 297° |
| 2026-05-03 22:02 | 41.03378 | -129.46624 | 34000 ft | 502 kts | 297° |
| 2026-05-03 22:02 | 41.06259 | -129.55047 | 33998 ft | 503 kts | 297° |
| 2026-05-03 22:03 | 41.09140 | -129.63499 | 33999 ft | 503 kts | 297° |
| 2026-05-03 22:03 | 41.12018 | -129.71965 | 34002 ft | 503 kts | 297° |
| 2026-05-03 22:04 | 41.14895 | -129.80459 | 34007 ft | 504 kts | 297° |
| 2026-05-03 22:04 | 41.17766 | -129.88953 | 34019 ft | 505 kts | 297° |
| 2026-05-03 22:05 | 41.20637 | -129.97476 | 34012 ft | 506 kts | 297° |
| 2026-05-03 22:05 | 41.23492 | -130.05978 | 34018 ft | 507 kts | 298° |
| 2026-05-03 22:06 | 41.26358 | -130.14540 | 34014 ft | 507 kts | 298° |
| 2026-05-03 22:06 | 41.29225 | -130.23133 | 34021 ft | 507 kts | 298° |
| 2026-05-03 22:07 | 41.32080 | -130.31717 | 34023 ft | 508 kts | 298° |
| 2026-05-03 22:07 | 41.34936 | -130.40330 | 34028 ft | 508 kts | 298° |
| 2026-05-03 22:08 | 41.37783 | -130.48944 | 34030 ft | 508 kts | 298° |
| 2026-05-03 22:08 | 41.40625 | -130.57566 | 34037 ft | 509 kts | 299° |
| 2026-05-03 22:09 | 41.43464 | -130.66209 | 34034 ft | 509 kts | 299° |
| 2026-05-03 22:10 | 41.47698 | -130.79145 | 34033 ft | 510 kts | 300° |
| 2026-05-03 22:10 | 41.50530 | -130.87833 | 34037 ft | 511 kts | 300° |
| 2026-05-03 22:11 | 41.53357 | -130.96538 | 34038 ft | 511 kts | 300° |
| 2026-05-03 22:11 | 41.56186 | -131.05271 | 34044 ft | 512 kts | 301° |
| 2026-05-03 22:12 | 41.59006 | -131.14004 | 34060 ft | 511 kts | 301° |
| 2026-05-03 22:12 | 41.61799 | -131.22683 | 34040 ft | 511 kts | 301° |
| 2026-05-03 22:13 | 41.64605 | -131.31430 | 34057 ft | 511 kts | 301° |
| 2026-05-03 22:13 | 41.67404 | -131.40183 | 34052 ft | 511 kts | 301° |
| 2026-05-03 22:14 | 41.70190 | -131.48923 | 34055 ft | 511 kts | 301° |
| 2026-05-03 22:14 | 41.72977 | -131.57694 | 34059 ft | 511 kts | 301° |
| 2026-05-03 22:15 | 41.75751 | -131.66456 | 34064 ft | 511 kts | 301° |
| 2026-05-03 22:15 | 41.78501 | -131.75170 | 34067 ft | 511 kts | 301° |
| 2026-05-03 22:16 | 41.81259 | -131.83939 | 34070 ft | 510 kts | 301° |
| 2026-05-03 22:16 | 41.84010 | -131.92711 | 34068 ft | 510 kts | 301° |
| 2026-05-03 22:17 | 41.86758 | -132.01509 | 34077 ft | 510 kts | 301° |
| 2026-05-03 22:17 | 41.89492 | -132.10286 | 34081 ft | 510 kts | 301° |
| 2026-05-03 22:18 | 41.92202 | -132.19014 | 34084 ft | 509 kts | 301° |
| 2026-05-03 22:18 | 41.94923 | -132.27808 | 34085 ft | 509 kts | 301° |
| 2026-05-03 22:19 | 41.97633 | -132.36593 | 34090 ft | 509 kts | 301° |
| 2026-05-03 22:19 | 42.00338 | -132.45393 | 34087 ft | 509 kts | 301° |
| 2026-05-03 22:20 | 42.03034 | -132.54193 | 34089 ft | 508 kts | 301° |
| 2026-05-03 22:20 | 42.05721 | -132.62994 | 34096 ft | 508 kts | 301° |
| 2026-05-03 22:21 | 42.08395 | -132.71780 | 34109 ft | 507 kts | 301° |
| 2026-05-03 22:21 | 42.11062 | -132.80570 | 34100 ft | 507 kts | 301° |
| 2026-05-03 22:22 | 42.13707 | -132.89320 | 34100 ft | 506 kts | 301° |
| 2026-05-03 22:22 | 42.16361 | -132.98130 | 34104 ft | 506 kts | 301° |
| 2026-05-03 22:23 | 42.18998 | -133.06914 | 34109 ft | 505 kts | 301° |
| 2026-05-03 22:23 | 42.21631 | -133.15713 | 34114 ft | 505 kts | 301° |
| 2026-05-03 22:24 | 42.24252 | -133.24502 | 34113 ft | 505 kts | 301° |
| 2026-05-03 22:24 | 42.26869 | -133.33304 | 34118 ft | 505 kts | 301° |
| 2026-05-03 22:25 | 42.29457 | -133.42043 | 34133 ft | 504 kts | 301° |
| 2026-05-03 22:25 | 42.32057 | -133.50849 | 34131 ft | 504 kts | 301° |
| 2026-05-03 22:26 | 42.34647 | -133.59655 | 34131 ft | 504 kts | 301° |
| 2026-05-03 22:26 | 42.37230 | -133.68465 | 34136 ft | 503 kts | 301° |
| 2026-05-03 22:27 | 42.39804 | -133.77271 | 34134 ft | 503 kts | 301° |
| 2026-05-03 22:27 | 42.42364 | -133.86066 | 34138 ft | 502 kts | 300° |
| 2026-05-03 22:28 | 42.44899 | -133.94803 | 34140 ft | 501 kts | 300° |
| 2026-05-03 22:28 | 42.47441 | -134.03591 | 34146 ft | 500 kts | 300° |
| 2026-05-03 22:29 | 42.49969 | -134.12364 | 34146 ft | 499 kts | 300° |
| 2026-05-03 22:29 | 42.52484 | -134.21120 | 34149 ft | 498 kts | 300° |
| 2026-05-03 22:30 | 42.54993 | -134.29884 | 34156 ft | 498 kts | 300° |
| 2026-05-03 22:30 | 42.57492 | -134.38646 | 34158 ft | 497 kts | 299° |
| 2026-05-03 22:31 | 42.59964 | -134.47341 | 34160 ft | 497 kts | 299° |
| 2026-05-03 22:31 | 42.62445 | -134.56101 | 34162 ft | 496 kts | 299° |
| 2026-05-03 22:32 | 42.64921 | -134.64873 | 34165 ft | 496 kts | 299° |
| 2026-05-03 22:32 | 42.67370 | -134.73580 | 34171 ft | 496 kts | 298° |
| 2026-05-03 22:33 | 42.69840 | -134.82394 | 34170 ft | 495 kts | 298° |
| 2026-05-03 22:33 | 42.72270 | -134.91092 | 34187 ft | 495 kts | 298° |
| 2026-05-03 22:34 | 42.74710 | -134.99860 | 34174 ft | 494 kts | 298° |
| 2026-05-03 22:34 | 42.76730 | -135.07140 | 34177 ft | 494 kts | 298° |
| 2026-05-03 22:35 | 42.79151 | -135.15897 | 34180 ft | 493 kts | 298° |
| 2026-05-03 22:35 | 42.81560 | -135.24639 | 34187 ft | 493 kts | 297° |
| 2026-05-03 22:36 | 42.83965 | -135.33396 | 34192 ft | 492 kts | 297° |
| 2026-05-03 22:36 | 42.86356 | -135.42135 | 34189 ft | 492 kts | 297° |
| 2026-05-03 22:37 | 42.88740 | -135.50882 | 34189 ft | 492 kts | 297° |
| 2026-05-03 22:37 | 42.91114 | -135.59619 | 34191 ft | 491 kts | 297° |
| 2026-05-03 22:38 | 42.93479 | -135.68356 | 34197 ft | 491 kts | 296° |
| 2026-05-03 22:38 | 42.95823 | -135.77046 | 34197 ft | 490 kts | 296° |
| 2026-05-03 22:39 | 42.98174 | -135.85795 | 34208 ft | 490 kts | 296° |
| 2026-05-03 22:39 | 43.00514 | -135.94531 | 34203 ft | 490 kts | 296° |
| 2026-05-03 22:40 | 43.02848 | -136.03278 | 34214 ft | 489 kts | 296° |
| 2026-05-03 22:40 | 43.05169 | -136.12010 | 34214 ft | 489 kts | 296° |
| 2026-05-03 22:41 | 43.07485 | -136.20751 | 34216 ft | 488 kts | 295° |
| 2026-05-03 22:41 | 43.09794 | -136.29498 | 34217 ft | 488 kts | 295° |
| 2026-05-03 22:42 | 43.12094 | -136.38243 | 34220 ft | 488 kts | 295° |
| 2026-05-03 22:42 | 43.14367 | -136.46919 | 34221 ft | 487 kts | 295° |
| 2026-05-03 22:43 | 43.16652 | -136.55667 | 34205 ft | 487 kts | 293° |
| 2026-05-03 22:43 | 43.18949 | -136.64470 | 34226 ft | 492 kts | 293° |
| 2026-05-03 22:44 | 43.21239 | -136.73320 | 34228 ft | 493 kts | 293° |
| 2026-05-03 22:44 | 43.23525 | -136.82183 | 34234 ft | 492 kts | 292° |
| 2026-05-03 22:45 | 43.25799 | -136.91031 | 34238 ft | 492 kts | 292° |
| 2026-05-03 22:45 | 43.28069 | -136.99887 | 34235 ft | 492 kts | 292° |
| 2026-05-03 22:46 | 43.30331 | -137.08746 | 34239 ft | 491 kts | 292° |
| 2026-05-03 22:46 | 43.32583 | -137.17602 | 34240 ft | 491 kts | 292° |
| 2026-05-03 22:47 | 43.34826 | -137.26451 | 34242 ft | 491 kts | 291° |
| 2026-05-03 22:47 | 43.37048 | -137.35254 | 34248 ft | 490 kts | 291° |
| 2026-05-03 22:48 | 43.39277 | -137.44120 | 34249 ft | 490 kts | 291° |
| 2026-05-03 22:48 | 43.41494 | -137.52971 | 34248 ft | 490 kts | 291° |
| 2026-05-03 22:49 | 43.43707 | -137.61835 | 34254 ft | 489 kts | 291° |
| 2026-05-03 22:49 | 43.45908 | -137.70692 | 34256 ft | 489 kts | 290° |
| 2026-05-03 22:50 | 43.48106 | -137.79567 | 34255 ft | 489 kts | 290° |
| 2026-05-03 22:50 | 43.50295 | -137.88440 | 34261 ft | 489 kts | 290° |
| 2026-05-03 22:51 | 43.52475 | -137.97308 | 34262 ft | 489 kts | 290° |
| 2026-05-03 22:51 | 43.54638 | -138.06146 | 34260 ft | 489 kts | 290° |
| 2026-05-03 22:52 | 43.56812 | -138.15059 | 34262 ft | 489 kts | 290° |
| 2026-05-03 22:52 | 43.58973 | -138.23958 | 34267 ft | 489 kts | 290° |
| 2026-05-03 22:53 | 43.61131 | -138.32876 | 34267 ft | 489 kts | 289° |
| 2026-05-03 22:53 | 43.63269 | -138.41747 | 34266 ft | 490 kts | 289° |
| 2026-05-03 22:54 | 43.65411 | -138.50671 | 34270 ft | 490 kts | 289° |
| 2026-05-03 22:54 | 43.67552 | -138.59624 | 34270 ft | 490 kts | 289° |
| 2026-05-03 22:55 | 43.69683 | -138.68573 | 34268 ft | 490 kts | 289° |
| 2026-05-03 22:55 | 43.71811 | -138.77544 | 34272 ft | 491 kts | 289° |
| 2026-05-03 22:56 | 43.73930 | -138.86515 | 34275 ft | 491 kts | 289° |
| 2026-05-03 22:56 | 43.76045 | -138.95501 | 34280 ft | 491 kts | 288° |
| 2026-05-03 22:57 | 43.78139 | -139.04438 | 34273 ft | 491 kts | 288° |
| 2026-05-03 22:57 | 43.80239 | -139.13435 | 34276 ft | 491 kts | 288° |
| 2026-05-03 22:58 | 43.82330 | -139.22433 | 34279 ft | 491 kts | 288° |
| 2026-05-03 22:58 | 43.84418 | -139.31448 | 34281 ft | 491 kts | 288° |
| 2026-05-03 22:59 | 43.86500 | -139.40477 | 34282 ft | 491 kts | 288° |
| 2026-05-03 22:59 | 43.88574 | -139.49508 | 34283 ft | 491 kts | 288° |
| 2026-05-03 23:00 | 43.90639 | -139.58537 | 34278 ft | 491 kts | 288° |
| 2026-05-03 23:00 | 43.92700 | -139.67590 | 34277 ft | 491 kts | 287° |
| 2026-05-03 23:01 | 43.94751 | -139.76634 | 34286 ft | 491 kts | 287° |
| 2026-05-03 23:01 | 43.96793 | -139.85674 | 34283 ft | 490 kts | 287° |
| 2026-05-03 23:02 | 43.98811 | -139.94647 | 34283 ft | 490 kts | 287° |
| 2026-05-03 23:02 | 44.00835 | -140.03681 | 34286 ft | 490 kts | 287° |
| 2026-05-03 23:03 | 44.02862 | -140.12703 | 34331 ft | 489 kts | 287° |
| 2026-05-03 23:03 | 44.03876 | -140.17224 | 34536 ft | 488 kts | 287° |
| 2026-05-03 23:03 | 44.04884 | -140.21727 | 34789 ft | 487 kts | 287° |
| 2026-05-03 23:03 | 44.05887 | -140.26218 | 35007 ft | 486 kts | 287° |
| 2026-05-03 23:04 | 44.06887 | -140.30711 | 35215 ft | 486 kts | 287° |
| 2026-05-03 23:04 | 44.07885 | -140.35202 | 35421 ft | 486 kts | 287° |
| 2026-05-03 23:04 | 44.08880 | -140.39692 | 35604 ft | 485 kts | 287° |
| 2026-05-03 23:04 | 44.09874 | -140.44187 | 35797 ft | 485 kts | 286° |
| 2026-05-03 23:05 | 44.10865 | -140.48676 | 35961 ft | 485 kts | 286° |
| 2026-05-03 23:05 | 44.11839 | -140.53102 | 36142 ft | 485 kts | 286° |
| 2026-05-03 23:05 | 44.12827 | -140.57595 | 36270 ft | 486 kts | 286° |
| 2026-05-03 23:06 | 44.14816 | -140.66678 | 36291 ft | 492 kts | 286° |
| 2026-05-03 23:06 | 44.16803 | -140.75786 | 36289 ft | 491 kts | 286° |
| 2026-05-03 23:07 | 44.18783 | -140.84901 | 36287 ft | 491 kts | 285° |
| 2026-05-03 23:07 | 44.20754 | -140.94017 | 36289 ft | 491 kts | 285° |
| 2026-05-03 23:08 | 44.22703 | -141.03067 | 36289 ft | 491 kts | 285° |
| 2026-05-03 23:08 | 44.24659 | -141.12191 | 36288 ft | 491 kts | 285° |
| 2026-05-03 23:09 | 44.26607 | -141.21319 | 36287 ft | 491 kts | 285° |
| 2026-05-03 23:09 | 44.28549 | -141.30459 | 36288 ft | 491 kts | 284° |
| 2026-05-03 23:10 | 44.30485 | -141.39609 | 36290 ft | 491 kts | 284° |
| 2026-05-03 23:10 | 44.32413 | -141.48761 | 36291 ft | 491 kts | 284° |
| 2026-05-03 23:11 | 44.34337 | -141.57936 | 36288 ft | 492 kts | 284° |
| 2026-05-03 23:11 | 44.36243 | -141.67068 | 36287 ft | 492 kts | 284° |
| 2026-05-03 23:12 | 44.38152 | -141.76254 | 36286 ft | 493 kts | 283° |
| 2026-05-03 23:12 | 44.40059 | -141.85473 | 36282 ft | 493 kts | 283° |
| 2026-05-03 23:13 | 44.41956 | -141.94684 | 36282 ft | 493 kts | 283° |
| 2026-05-03 23:13 | 44.43849 | -142.03921 | 36284 ft | 494 kts | 283° |
| 2026-05-03 23:14 | 44.45738 | -142.13175 | 36278 ft | 495 kts | 283° |
| 2026-05-03 23:14 | 44.47619 | -142.22438 | 36277 ft | 495 kts | 282° |
| 2026-05-03 23:15 | 44.49496 | -142.31721 | 36277 ft | 495 kts | 282° |
| 2026-05-03 23:15 | 44.51366 | -142.41010 | 36271 ft | 496 kts | 282° |
| 2026-05-03 23:16 | 44.53224 | -142.50287 | 36274 ft | 496 kts | 282° |
| 2026-05-03 23:16 | 44.55081 | -142.59604 | 36270 ft | 496 kts | 282° |
| 2026-05-03 23:17 | 44.56933 | -142.68934 | 36267 ft | 496 kts | 281° |
| 2026-05-03 23:17 | 44.58773 | -142.78253 | 36265 ft | 496 kts | 281° |
| 2026-05-03 23:18 | 44.60607 | -142.87580 | 36265 ft | 496 kts | 281° |
| 2026-05-03 23:18 | 44.62432 | -142.96914 | 36265 ft | 496 kts | 281° |
| 2026-05-03 23:19 | 44.64251 | -143.06257 | 36260 ft | 495 kts | 280° |
| 2026-05-03 23:19 | 44.66045 | -143.15517 | 36256 ft | 495 kts | 280° |
| 2026-05-03 23:20 | 44.67846 | -143.24858 | 36259 ft | 495 kts | 280° |
| 2026-05-03 23:20 | 44.69637 | -143.34192 | 36249 ft | 495 kts | 280° |
| 2026-05-03 23:21 | 44.71422 | -143.43538 | 36250 ft | 495 kts | 279° |
| 2026-05-03 23:21 | 44.73199 | -143.52890 | 36251 ft | 495 kts | 279° |
| 2026-05-03 23:22 | 44.75551 | -143.65342 | 36251 ft | 495 kts | 279° |
| 2026-05-03 23:22 | 44.77309 | -143.74705 | 36253 ft | 495 kts | 279° |
| 2026-05-03 23:23 | 44.79063 | -143.84086 | 36245 ft | 495 kts | 279° |
| 2026-05-03 23:23 | 44.80807 | -143.93468 | 36242 ft | 495 kts | 278° |
| 2026-05-03 23:24 | 44.82535 | -144.02804 | 36244 ft | 495 kts | 278° |
| 2026-05-03 23:24 | 44.84265 | -144.12198 | 36240 ft | 495 kts | 278° |
| 2026-05-03 23:25 | 44.85986 | -144.21594 | 36240 ft | 495 kts | 278° |
| 2026-05-03 23:25 | 44.87701 | -144.31005 | 36230 ft | 496 kts | 278° |
| 2026-05-03 23:26 | 44.89411 | -144.40435 | 36228 ft | 496 kts | 277° |
| 2026-05-03 23:26 | 44.91113 | -144.49868 | 36227 ft | 496 kts | 277° |
| 2026-05-03 23:27 | 44.92806 | -144.59305 | 36219 ft | 496 kts | 277° |
| 2026-05-03 23:27 | 44.94493 | -144.68753 | 36220 ft | 496 kts | 277° |
| 2026-05-03 23:28 | 44.96174 | -144.78217 | 36221 ft | 496 kts | 277° |
| 2026-05-03 23:28 | 44.97839 | -144.87641 | 36214 ft | 496 kts | 277° |
| 2026-05-03 23:29 | 44.99581 | -144.97089 | 36210 ft | 501 kts | 281° |
| 2026-05-03 23:29 | 45.02638 | -145.06102 | 36209 ft | 514 kts | 293° |
| 2026-05-03 23:30 | 45.06352 | -145.14782 | 36202 ft | 517 kts | 295° |
| 2026-05-03 23:30 | 45.10168 | -145.23433 | 36204 ft | 518 kts | 295° |
| 2026-05-03 23:31 | 45.13962 | -145.32110 | 36199 ft | 518 kts | 294° |
| 2026-05-03 23:31 | 45.17707 | -145.40770 | 36192 ft | 518 kts | 294° |
| 2026-05-03 23:32 | 45.21466 | -145.49513 | 36191 ft | 519 kts | 294° |
| 2026-05-03 23:32 | 45.25215 | -145.58263 | 36181 ft | 519 kts | 294° |
| 2026-05-03 23:33 | 45.28971 | -145.67053 | 36182 ft | 520 kts | 294° |
| 2026-05-03 23:33 | 45.32722 | -145.75857 | 36184 ft | 521 kts | 294° |
| 2026-05-03 23:34 | 45.36475 | -145.84691 | 36178 ft | 521 kts | 293° |
| 2026-05-03 23:34 | 45.40195 | -145.93477 | 36173 ft | 522 kts | 293° |
| 2026-05-03 23:35 | 45.43946 | -146.02364 | 36163 ft | 523 kts | 293° |
| 2026-05-03 23:35 | 45.47684 | -146.11247 | 36167 ft | 523 kts | 293° |
| 2026-05-03 23:36 | 45.51423 | -146.20162 | 36158 ft | 524 kts | 292° |
| 2026-05-03 23:36 | 45.55158 | -146.29096 | 36154 ft | 525 kts | 292° |
| 2026-05-03 23:37 | 45.58892 | -146.38054 | 36149 ft | 526 kts | 292° |
| 2026-05-03 23:37 | 45.62607 | -146.46997 | 36146 ft | 526 kts | 292° |
| 2026-05-03 23:38 | 45.66339 | -146.56009 | 36141 ft | 527 kts | 292° |
| 2026-05-03 23:38 | 45.70066 | -146.65039 | 36122 ft | 527 kts | 292° |
| 2026-05-03 23:39 | 45.73789 | -146.74090 | 36129 ft | 528 kts | 291° |
| 2026-05-03 23:39 | 45.77517 | -146.83179 | 36124 ft | 529 kts | 291° |
| 2026-05-03 23:40 | 45.81239 | -146.92286 | 36120 ft | 529 kts | 291° |
| 2026-05-03 23:40 | 45.84958 | -147.01412 | 36114 ft | 530 kts | 291° |
| 2026-05-03 23:41 | 45.88647 | -147.10498 | 36103 ft | 531 kts | 291° |
| 2026-05-03 23:41 | 45.92382 | -147.19726 | 36105 ft | 531 kts | 291° |
| 2026-05-03 23:42 | 45.96089 | -147.28917 | 36098 ft | 532 kts | 291° |
| 2026-05-03 23:42 | 45.99790 | -147.38124 | 36089 ft | 533 kts | 290° |
| 2026-05-03 23:43 | 46.03475 | -147.47320 | 36088 ft | 534 kts | 290° |
| 2026-05-03 23:43 | 46.07178 | -147.56593 | 36081 ft | 535 kts | 290° |
| 2026-05-03 23:44 | 46.10880 | -147.65894 | 36073 ft | 535 kts | 290° |
| 2026-05-03 23:44 | 46.14582 | -147.75226 | 36067 ft | 536 kts | 290° |
| 2026-05-03 23:45 | 46.18283 | -147.84589 | 36064 ft | 537 kts | 290° |
| 2026-05-03 23:45 | 46.21983 | -147.93979 | 36061 ft | 538 kts | 290° |
| 2026-05-03 23:46 | 46.25678 | -148.03391 | 36040 ft | 539 kts | 290° |
| 2026-05-03 23:46 | 46.29376 | -148.12843 | 36036 ft | 540 kts | 290° |
| 2026-05-03 23:47 | 46.33050 | -148.22264 | 36032 ft | 541 kts | 290° |
| 2026-05-03 23:47 | 46.36741 | -148.31764 | 36025 ft | 542 kts | 289° |
| 2026-05-03 23:48 | 46.40437 | -148.41309 | 36023 ft | 543 kts | 289° |
| 2026-05-03 23:48 | 46.44125 | -148.50866 | 36013 ft | 544 kts | 289° |
| 2026-05-03 23:49 | 46.47812 | -148.60454 | 36008 ft | 544 kts | 289° |
| 2026-05-03 23:49 | 46.51498 | -148.70075 | 36000 ft | 545 kts | 289° |
| 2026-05-03 23:50 | 46.54553 | -148.78073 | 35996 ft | 545 kts | 289° |
| 2026-05-03 23:50 | 46.58826 | -148.89301 | 35994 ft | 546 kts | 289° |
| 2026-05-03 23:51 | 46.62493 | -148.98974 | 35986 ft | 546 kts | 289° |
| 2026-05-03 23:51 | 46.66158 | -149.08677 | 35980 ft | 547 kts | 289° |
| 2026-05-03 23:52 | 46.69817 | -149.18400 | 35969 ft | 547 kts | 289° |
| 2026-05-03 23:52 | 46.73470 | -149.28139 | 35967 ft | 548 kts | 289° |
| 2026-05-03 23:53 | 46.77123 | -149.37915 | 35961 ft | 548 kts | 289° |
| 2026-05-03 23:53 | 46.80765 | -149.47698 | 35954 ft | 549 kts | 289° |
| 2026-05-03 23:54 | 46.84401 | -149.57498 | 35939 ft | 549 kts | 288° |
| 2026-05-03 23:54 | 46.88011 | -149.67267 | 35939 ft | 549 kts | 288° |
| 2026-05-03 23:55 | 46.91635 | -149.77105 | 35930 ft | 550 kts | 288° |
| 2026-05-03 23:55 | 46.95255 | -149.86973 | 35924 ft | 550 kts | 289° |
| 2026-05-03 23:56 | 46.98859 | -149.96831 | 35915 ft | 550 kts | 289° |
| 2026-05-03 23:56 | 47.02464 | -150.06734 | 35910 ft | 550 kts | 288° |
| 2026-05-03 23:57 | 47.06046 | -150.16639 | 35903 ft | 550 kts | 288° |
| 2026-05-03 23:57 | 47.09626 | -150.26576 | 35902 ft | 550 kts | 288° |
| 2026-05-03 23:58 | 47.13172 | -150.36451 | 35894 ft | 550 kts | 289° |
| 2026-05-03 23:58 | 47.16734 | -150.46407 | 35887 ft | 550 kts | 289° |
| 2026-05-03 23:59 | 47.20283 | -150.56363 | 35884 ft | 550 kts | 289° |
| 2026-05-03 23:59 | 47.23824 | -150.66335 | 35881 ft | 550 kts | 289° |
| 2026-05-04 00:00 | 47.27360 | -150.76331 | 35870 ft | 550 kts | 289° |
| 2026-05-04 00:00 | 47.30881 | -150.86319 | 35862 ft | 550 kts | 289° |
| 2026-05-04 00:01 | 47.34381 | -150.96288 | 35859 ft | 550 kts | 289° |
| 2026-05-04 00:01 | 47.37885 | -151.06306 | 35853 ft | 550 kts | 289° |
| 2026-05-04 00:02 | 47.41382 | -151.16343 | 35845 ft | 550 kts | 289° |
| 2026-05-04 00:02 | 47.44869 | -151.26389 | 35844 ft | 550 kts | 289° |
| 2026-05-04 00:03 | 47.48349 | -151.36454 | 35837 ft | 550 kts | 289° |
| 2026-05-04 00:03 | 47.51819 | -151.46530 | 35827 ft | 550 kts | 289° |
| 2026-05-04 00:04 | 47.55279 | -151.56616 | 35829 ft | 550 kts | 289° |
| 2026-05-04 00:04 | 47.58737 | -151.66734 | 35825 ft | 550 kts | 289° |
| 2026-05-04 00:05 | 47.62184 | -151.76858 | 35811 ft | 550 kts | 289° |
| 2026-05-04 00:05 | 47.65600 | -151.86932 | 35808 ft | 550 kts | 289° |
| 2026-05-04 00:06 | 47.69031 | -151.97089 | 35805 ft | 550 kts | 289° |
| 2026-05-04 00:06 | 47.72450 | -152.07251 | 35799 ft | 550 kts | 289° |
| 2026-05-04 00:07 | 47.75859 | -152.17422 | 35793 ft | 550 kts | 289° |
| 2026-05-04 00:07 | 47.79268 | -152.27634 | 35795 ft | 550 kts | 289° |
| 2026-05-04 00:08 | 47.82661 | -152.37842 | 35783 ft | 550 kts | 289° |
| 2026-05-04 00:08 | 47.86025 | -152.48002 | 35784 ft | 550 kts | 289° |
| 2026-05-04 00:09 | 47.89397 | -152.58221 | 35782 ft | 550 kts | 289° |
| 2026-05-04 00:09 | 47.92201 | -152.66754 | 35781 ft | 550 kts | 289° |
| 2026-05-04 00:10 | 47.95581 | -152.77077 | 35765 ft | 550 kts | 289° |
| 2026-05-04 00:10 | 47.98906 | -152.87270 | 35757 ft | 550 kts | 289° |
| 2026-05-04 00:11 | 48.02246 | -152.97552 | 35760 ft | 550 kts | 289° |
| 2026-05-04 00:11 | 48.05576 | -153.07845 | 35758 ft | 550 kts | 289° |
| 2026-05-04 00:12 | 48.08898 | -153.18159 | 35754 ft | 550 kts | 289° |
| 2026-05-04 00:12 | 48.12210 | -153.28483 | 35751 ft | 550 kts | 289° |
| 2026-05-04 00:13 | 48.15505 | -153.38799 | 35748 ft | 550 kts | 289° |
| 2026-05-04 00:13 | 48.18800 | -153.49150 | 35750 ft | 550 kts | 289° |
| 2026-05-04 00:14 | 48.22078 | -153.59492 | 35740 ft | 549 kts | 289° |
| 2026-05-04 00:14 | 48.25350 | -153.69858 | 35745 ft | 549 kts | 289° |
| 2026-05-04 00:15 | 48.28589 | -153.80160 | 35734 ft | 549 kts | 289° |
| 2026-05-04 00:15 | 48.31839 | -153.90539 | 35734 ft | 549 kts | 289° |
| 2026-05-04 00:16 | 48.35080 | -154.00938 | 35731 ft | 549 kts | 289° |
| 2026-05-04 00:16 | 48.38311 | -154.11344 | 35731 ft | 548 kts | 289° |
| 2026-05-04 00:17 | 48.41527 | -154.21745 | 35727 ft | 548 kts | 289° |
| 2026-05-04 00:17 | 48.44734 | -154.32161 | 35721 ft | 548 kts | 289° |
| 2026-05-04 00:18 | 48.47930 | -154.42586 | 35727 ft | 548 kts | 289° |
| 2026-05-04 00:18 | 48.51113 | -154.53011 | 35720 ft | 547 kts | 289° |
| 2026-05-04 00:19 | 48.54287 | -154.63454 | 35714 ft | 547 kts | 289° |
| 2026-05-04 00:19 | 48.57426 | -154.73821 | 35715 ft | 546 kts | 289° |
| 2026-05-04 00:20 | 48.60573 | -154.84261 | 35712 ft | 546 kts | 289° |
| 2026-05-04 00:20 | 48.63711 | -154.94714 | 35707 ft | 545 kts | 289° |
| 2026-05-04 00:21 | 48.66833 | -155.05157 | 35715 ft | 545 kts | 289° |
| 2026-05-04 00:21 | 48.69944 | -155.15610 | 35710 ft | 544 kts | 289° |
| 2026-05-04 00:22 | 48.73043 | -155.26069 | 35707 ft | 543 kts | 289° |
| 2026-05-04 00:22 | 48.76125 | -155.36511 | 35705 ft | 542 kts | 288° |
| 2026-05-04 00:23 | 48.79195 | -155.46959 | 35704 ft | 541 kts | 288° |
| 2026-05-04 00:23 | 48.82229 | -155.57330 | 35705 ft | 541 kts | 288° |
| 2026-05-04 00:24 | 48.85270 | -155.67767 | 35707 ft | 540 kts | 288° |
| 2026-05-04 00:24 | 48.88300 | -155.78214 | 35708 ft | 539 kts | 288° |
| 2026-05-04 00:25 | 48.91311 | -155.88640 | 35706 ft | 538 kts | 288° |
| 2026-05-04 00:25 | 48.94311 | -155.99074 | 35712 ft | 538 kts | 288° |
| 2026-05-04 00:26 | 48.97276 | -156.09429 | 35711 ft | 537 kts | 288° |
| 2026-05-04 00:26 | 49.00251 | -156.19867 | 35716 ft | 537 kts | 288° |
| 2026-05-04 00:27 | 49.03213 | -156.30300 | 35718 ft | 536 kts | 288° |
| 2026-05-04 00:27 | 49.06165 | -156.40749 | 35718 ft | 536 kts | 288° |
| 2026-05-04 00:28 | 49.09085 | -156.51124 | 35726 ft | 535 kts | 288° |
| 2026-05-04 00:28 | 49.12006 | -156.61552 | 35732 ft | 534 kts | 288° |
| 2026-05-04 00:29 | 49.14918 | -156.71994 | 35741 ft | 533 kts | 288° |
| 2026-05-04 00:29 | 49.17813 | -156.82417 | 35732 ft | 533 kts | 288° |
| 2026-05-04 00:30 | 49.20696 | -156.92849 | 35736 ft | 532 kts | 288° |
| 2026-05-04 00:30 | 49.23564 | -157.03269 | 35741 ft | 531 kts | 288° |
| 2026-05-04 00:31 | 49.26424 | -157.13705 | 35750 ft | 531 kts | 288° |
| 2026-05-04 00:31 | 49.29253 | -157.24077 | 35758 ft | 530 kts | 288° |
| 2026-05-04 00:32 | 49.32084 | -157.34500 | 35762 ft | 529 kts | 288° |
| 2026-05-04 00:32 | 49.34906 | -157.44935 | 35767 ft | 529 kts | 288° |
| 2026-05-04 00:33 | 49.39114 | -157.60585 | 35773 ft | 528 kts | 288° |
| 2026-05-04 00:34 | 49.41899 | -157.71004 | 35778 ft | 528 kts | 288° |
| 2026-05-04 00:34 | 49.44674 | -157.81429 | 35777 ft | 526 kts | 288° |
| 2026-05-04 00:35 | 49.47434 | -157.91843 | 35788 ft | 525 kts | 287° |
| 2026-05-04 00:35 | 49.50158 | -158.02168 | 35786 ft | 524 kts | 287° |
| 2026-05-04 00:36 | 49.52882 | -158.12542 | 35793 ft | 522 kts | 287° |
| 2026-05-04 00:36 | 49.55589 | -158.22901 | 35798 ft | 521 kts | 287° |
| 2026-05-04 00:37 | 49.58282 | -158.33248 | 35801 ft | 519 kts | 287° |
| 2026-05-04 00:37 | 49.60956 | -158.43572 | 35809 ft | 517 kts | 288° |
| 2026-05-04 00:38 | 49.63590 | -158.53788 | 35810 ft | 515 kts | 288° |
| 2026-05-04 00:38 | 49.66226 | -158.64056 | 35817 ft | 514 kts | 288° |
| 2026-05-04 00:39 | 49.68849 | -158.74322 | 35821 ft | 513 kts | 288° |
| 2026-05-04 00:39 | 49.71461 | -158.84591 | 35825 ft | 513 kts | 288° |
| 2026-05-04 00:40 | 49.74066 | -158.94876 | 35831 ft | 513 kts | 288° |
| 2026-05-04 00:40 | 49.76657 | -159.05156 | 35836 ft | 513 kts | 288° |
| 2026-05-04 00:41 | 49.79225 | -159.15387 | 35834 ft | 513 kts | 288° |
| 2026-05-04 00:41 | 49.81800 | -159.25695 | 35839 ft | 514 kts | 288° |
| 2026-05-04 00:42 | 49.84369 | -159.36027 | 35844 ft | 514 kts | 288° |
| 2026-05-04 00:42 | 49.86935 | -159.46395 | 35848 ft | 515 kts | 288° |
| 2026-05-04 00:43 | 49.89489 | -159.56762 | 35853 ft | 515 kts | 288° |
| 2026-05-04 00:43 | 49.92037 | -159.67151 | 35856 ft | 515 kts | 288° |
| 2026-05-04 00:44 | 49.94576 | -159.77552 | 35860 ft | 515 kts | 287° |
| 2026-05-04 00:44 | 49.97103 | -159.87956 | 35850 ft | 515 kts | 287° |
| 2026-05-04 00:45 | 49.99462 | -159.98381 | 35873 ft | 512 kts | 280° |
| 2026-05-04 00:45 | 50.00436 | -160.09251 | 35866 ft | 506 kts | 271° |
| 2026-05-04 00:46 | 50.00921 | -160.20158 | 35870 ft | 505 kts | 270° |
| 2026-05-04 00:46 | 50.01329 | -160.31064 | 35877 ft | 505 kts | 269° |
| 2026-05-04 00:47 | 50.01743 | -160.41958 | 35875 ft | 505 kts | 270° |
| 2026-05-04 00:47 | 50.02163 | -160.52848 | 35881 ft | 504 kts | 270° |
| 2026-05-04 00:48 | 50.02575 | -160.63657 | 35884 ft | 503 kts | 270° |
| 2026-05-04 00:48 | 50.02982 | -160.74567 | 35889 ft | 502 kts | 270° |
| 2026-05-04 00:49 | 50.03371 | -160.85329 | 35894 ft | 501 kts | 270° |
| 2026-05-04 00:49 | 50.03752 | -160.96135 | 35898 ft | 500 kts | 270° |
| 2026-05-04 00:50 | 50.04122 | -161.06948 | 35898 ft | 499 kts | 270° |
| 2026-05-04 00:50 | 50.04481 | -161.17736 | 35905 ft | 499 kts | 270° |
| 2026-05-04 00:51 | 50.04828 | -161.28437 | 35910 ft | 499 kts | 270° |
| 2026-05-04 00:51 | 50.05167 | -161.39205 | 35912 ft | 498 kts | 270° |
| 2026-05-04 00:52 | 50.05497 | -161.49980 | 35914 ft | 498 kts | 270° |
| 2026-05-04 00:52 | 50.05815 | -161.60750 | 35923 ft | 498 kts | 270° |
| 2026-05-04 00:53 | 50.06124 | -161.71521 | 35926 ft | 497 kts | 270° |
| 2026-05-04 00:53 | 50.06423 | -161.82284 | 35928 ft | 497 kts | 270° |
| 2026-05-04 00:54 | 50.06712 | -161.93025 | 35931 ft | 496 kts | 270° |
| 2026-05-04 00:54 | 50.06989 | -162.03699 | 35937 ft | 496 kts | 270° |
| 2026-05-04 00:55 | 50.07257 | -162.14429 | 35937 ft | 495 kts | 270° |
| 2026-05-04 00:55 | 50.07514 | -162.25124 | 35939 ft | 494 kts | 270° |
| 2026-05-04 00:56 | 50.07762 | -162.35808 | 35939 ft | 493 kts | 270° |
| 2026-05-04 00:56 | 50.08000 | -162.46478 | 35938 ft | 492 kts | 270° |
| 2026-05-04 00:57 | 50.08225 | -162.57039 | 35944 ft | 491 kts | 270° |
| 2026-05-04 00:57 | 50.08440 | -162.67649 | 35948 ft | 490 kts | 270° |
| 2026-05-04 00:58 | 50.08647 | -162.78253 | 35954 ft | 489 kts | 270° |
| 2026-05-04 00:58 | 50.08844 | -162.88827 | 35962 ft | 488 kts | 271° |
| 2026-05-04 00:59 | 50.09030 | -162.99390 | 35963 ft | 487 kts | 271° |
| 2026-05-04 00:59 | 50.09178 | -163.08172 | 35960 ft | 487 kts | 271° |
| 2026-05-04 01:00 | 50.09374 | -163.20411 | 35959 ft | 486 kts | 271° |
| 2026-05-04 01:00 | 50.09506 | -163.29220 | 35958 ft | 486 kts | 271° |
| 2026-05-04 01:01 | 50.09655 | -163.39739 | 35962 ft | 485 kts | 271° |
| 2026-05-04 01:01 | 50.09795 | -163.50257 | 35968 ft | 485 kts | 271° |
| 2026-05-04 01:02 | 50.09925 | -163.60691 | 35974 ft | 485 kts | 271° |
| 2026-05-04 01:02 | 50.10046 | -163.71186 | 35973 ft | 485 kts | 271° |
| 2026-05-04 01:03 | 50.10157 | -163.81692 | 35975 ft | 485 kts | 271° |
| 2026-05-04 01:03 | 50.10259 | -163.92203 | 35974 ft | 485 kts | 271° |
| 2026-05-04 01:04 | 50.10351 | -164.02690 | 35984 ft | 484 kts | 271° |
| 2026-05-04 01:04 | 50.10434 | -164.13167 | 35982 ft | 484 kts | 271° |
| 2026-05-04 01:05 | 50.10507 | -164.23634 | 35991 ft | 483 kts | 271° |
| 2026-05-04 01:05 | 50.10571 | -164.34103 | 35993 ft | 482 kts | 271° |
| 2026-05-04 01:06 | 50.10625 | -164.44543 | 35995 ft | 481 kts | 272° |
| 2026-05-04 01:06 | 50.10669 | -164.54894 | 36000 ft | 481 kts | 272° |
| 2026-05-04 01:07 | 50.10705 | -164.65302 | 36004 ft | 479 kts | 272° |
| 2026-05-04 01:07 | 50.10731 | -164.75702 | 35992 ft | 479 kts | 272° |
| 2026-05-04 01:08 | 50.10748 | -164.86069 | 36000 ft | 478 kts | 272° |
| 2026-05-04 01:08 | 50.10756 | -164.96414 | 36004 ft | 477 kts | 272° |
| 2026-05-04 01:09 | 50.10754 | -165.06737 | 36004 ft | 476 kts | 272° |
| 2026-05-04 01:09 | 50.10743 | -165.16981 | 36008 ft | 475 kts | 272° |
| 2026-05-04 01:10 | 50.10724 | -165.27257 | 36005 ft | 474 kts | 272° |
| 2026-05-04 01:10 | 50.10695 | -165.37525 | 36012 ft | 473 kts | 272° |
| 2026-05-04 01:11 | 50.10657 | -165.47775 | 36017 ft | 472 kts | 272° |
| 2026-05-04 01:11 | 50.10610 | -165.57987 | 36014 ft | 471 kts | 272° |
| 2026-05-04 01:12 | 50.10555 | -165.68161 | 36017 ft | 470 kts | 272° |
| 2026-05-04 01:12 | 50.10491 | -165.78352 | 36021 ft | 469 kts | 272° |
| 2026-05-04 01:13 | 50.10418 | -165.88519 | 36025 ft | 468 kts | 272° |
| 2026-05-04 01:13 | 50.10337 | -165.98657 | 36024 ft | 468 kts | 272° |
| 2026-05-04 01:14 | 50.10247 | -166.08730 | 36030 ft | 467 kts | 272° |
| 2026-05-04 01:14 | 50.10148 | -166.18839 | 36031 ft | 466 kts | 272° |
| 2026-05-04 01:15 | 50.10041 | -166.28941 | 36031 ft | 466 kts | 272° |
| 2026-05-04 01:15 | 50.09925 | -166.39021 | 36033 ft | 465 kts | 272° |
| 2026-05-04 01:16 | 50.09800 | -166.49105 | 36036 ft | 465 kts | 272° |
| 2026-05-04 01:16 | 50.09667 | -166.59117 | 36035 ft | 465 kts | 272° |
| 2026-05-04 01:17 | 50.09525 | -166.69182 | 36035 ft | 464 kts | 272° |
| 2026-05-04 01:17 | 50.09375 | -166.79238 | 36040 ft | 464 kts | 272° |
| 2026-05-04 01:18 | 50.09216 | -166.89279 | 36045 ft | 464 kts | 271° |
| 2026-05-04 01:18 | 50.09049 | -166.99310 | 36039 ft | 463 kts | 271° |
| 2026-05-04 01:19 | 50.08873 | -167.09341 | 36048 ft | 463 kts | 271° |
| 2026-05-04 01:19 | 50.08688 | -167.19355 | 36041 ft | 463 kts | 271° |
| 2026-05-04 01:20 | 50.08497 | -167.29310 | 36059 ft | 462 kts | 271° |
| 2026-05-04 01:20 | 50.08295 | -167.39308 | 36056 ft | 462 kts | 271° |
| 2026-05-04 01:21 | 50.08086 | -167.49306 | 36061 ft | 462 kts | 271° |
| 2026-05-04 01:21 | 50.07867 | -167.59302 | 36060 ft | 462 kts | 271° |
| 2026-05-04 01:22 | 50.07641 | -167.69291 | 36060 ft | 461 kts | 271° |
| 2026-05-04 01:22 | 50.07405 | -167.79287 | 36063 ft | 461 kts | 271° |
| 2026-05-04 01:23 | 50.07162 | -167.89258 | 36065 ft | 461 kts | 271° |
| 2026-05-04 01:23 | 50.06911 | -167.99183 | 36067 ft | 461 kts | 270° |
| 2026-05-04 01:24 | 50.06651 | -168.09160 | 36072 ft | 461 kts | 270° |
| 2026-05-04 01:24 | 50.06382 | -168.19130 | 36075 ft | 461 kts | 270° |
| 2026-05-04 01:25 | 50.06104 | -168.29107 | 36077 ft | 461 kts | 270° |
| 2026-05-04 01:25 | 50.05816 | -168.39101 | 36077 ft | 461 kts | 270° |
| 2026-05-04 01:26 | 50.05523 | -168.49016 | 36079 ft | 461 kts | 270° |
| 2026-05-04 01:26 | 50.05218 | -168.58991 | 36083 ft | 461 kts | 270° |
| 2026-05-04 01:27 | 50.04906 | -168.68964 | 36085 ft | 461 kts | 270° |
| 2026-05-04 01:27 | 50.04585 | -168.78935 | 36085 ft | 461 kts | 270° |
| 2026-05-04 01:28 | 50.04255 | -168.88898 | 36083 ft | 461 kts | 269° |
| 2026-05-04 01:28 | 50.03917 | -168.98871 | 36088 ft | 461 kts | 269° |
| 2026-05-04 01:29 | 50.03571 | -169.08838 | 36091 ft | 461 kts | 269° |
| 2026-05-04 01:29 | 50.03216 | -169.18801 | 36088 ft | 461 kts | 269° |
| 2026-05-04 01:30 | 50.02855 | -169.28698 | 36093 ft | 461 kts | 269° |
| 2026-05-04 01:30 | 50.02484 | -169.38644 | 36094 ft | 461 kts | 269° |
| 2026-05-04 01:31 | 50.02104 | -169.48591 | 36095 ft | 461 kts | 269° |
| 2026-05-04 01:31 | 50.01716 | -169.58536 | 36091 ft | 461 kts | 269° |
| 2026-05-04 01:32 | 50.01319 | -169.68490 | 36097 ft | 460 kts | 268° |
| 2026-05-04 01:32 | 50.00914 | -169.78426 | 36095 ft | 460 kts | 268° |
| 2026-05-04 01:33 | 50.00502 | -169.88314 | 36099 ft | 460 kts | 268° |
| 2026-05-04 01:33 | 50.00080 | -169.98250 | 36100 ft | 460 kts | 268° |
| 2026-05-04 01:34 | 49.99604 | -170.08173 | 36100 ft | 460 kts | 267° |
| 2026-05-04 01:34 | 49.99018 | -170.18102 | 36101 ft | 461 kts | 266° |
| 2026-05-04 01:35 | 49.98424 | -170.28016 | 36102 ft | 461 kts | 266° |
| 2026-05-04 01:35 | 49.97839 | -170.37932 | 36102 ft | 461 kts | 266° |
| 2026-05-04 01:36 | 49.97257 | -170.47777 | 36104 ft | 461 kts | 266° |
| 2026-05-04 01:36 | 49.96662 | -170.57710 | 36102 ft | 461 kts | 266° |
| 2026-05-04 01:37 | 49.96059 | -170.67625 | 36104 ft | 462 kts | 265° |
| 2026-05-04 01:37 | 49.95446 | -170.77564 | 36110 ft | 462 kts | 265° |
| 2026-05-04 01:38 | 49.94825 | -170.87491 | 36110 ft | 462 kts | 265° |
| 2026-05-04 01:38 | 49.94193 | -170.97440 | 36245 ft | 462 kts | 265° |
| 2026-05-04 01:38 | 49.93875 | -171.02392 | 36543 ft | 459 kts | 265° |
| 2026-05-04 01:39 | 49.93558 | -171.07315 | 36764 ft | 459 kts | 265° |
| 2026-05-04 01:39 | 49.93237 | -171.12255 | 36939 ft | 459 kts | 265° |
| 2026-05-04 01:39 | 49.92918 | -171.17124 | 37115 ft | 459 kts | 265° |
| 2026-05-04 01:39 | 49.92593 | -171.22057 | 37291 ft | 459 kts | 264° |
| 2026-05-04 01:40 | 49.92266 | -171.26990 | 37457 ft | 460 kts | 264° |
| 2026-05-04 01:40 | 49.91936 | -171.31933 | 37620 ft | 460 kts | 264° |
| 2026-05-04 01:40 | 49.91605 | -171.36866 | 37776 ft | 460 kts | 264° |
| 2026-05-04 01:40 | 49.91271 | -171.41804 | 37942 ft | 460 kts | 264° |
| 2026-05-04 01:41 | 49.90934 | -171.46762 | 38072 ft | 461 kts | 264° |
| 2026-05-04 01:41 | 49.90251 | -171.56706 | 38105 ft | 466 kts | 264° |
| 2026-05-04 01:42 | 49.89558 | -171.66670 | 38105 ft | 467 kts | 264° |
| 2026-05-04 01:42 | 49.88854 | -171.76676 | 38105 ft | 467 kts | 264° |
| 2026-05-04 01:43 | 49.88139 | -171.86690 | 38108 ft | 466 kts | 264° |
| 2026-05-04 01:43 | 49.87418 | -171.96686 | 38105 ft | 467 kts | 264° |
| 2026-05-04 01:44 | 49.86687 | -172.06683 | 38108 ft | 467 kts | 264° |
| 2026-05-04 01:44 | 49.85948 | -172.16679 | 38108 ft | 467 kts | 263° |
| 2026-05-04 01:45 | 49.85201 | -172.26658 | 38107 ft | 467 kts | 263° |
| 2026-05-04 01:45 | 49.84062 | -172.41664 | 38106 ft | 467 kts | 263° |
| 2026-05-04 01:46 | 49.83296 | -172.51606 | 38100 ft | 467 kts | 263° |
| 2026-05-04 01:46 | 49.82517 | -172.61597 | 38101 ft | 467 kts | 263° |
| 2026-05-04 01:47 | 49.81729 | -172.71603 | 38094 ft | 467 kts | 263° |
| 2026-05-04 01:47 | 49.81067 | -172.79909 | 38098 ft | 467 kts | 263° |
| 2026-05-04 01:48 | 49.80132 | -172.91527 | 38099 ft | 468 kts | 263° |
| 2026-05-04 01:48 | 49.79450 | -172.99897 | 38097 ft | 467 kts | 263° |
| 2026-05-04 01:49 | 49.78629 | -173.09889 | 38098 ft | 467 kts | 263° |
| 2026-05-04 01:49 | 49.77805 | -173.19803 | 38092 ft | 467 kts | 263° |
| 2026-05-04 01:50 | 49.76968 | -173.29764 | 38093 ft | 467 kts | 263° |
| 2026-05-04 01:50 | 49.76122 | -173.39732 | 38089 ft | 467 kts | 262° |
| 2026-05-04 01:51 | 49.75266 | -173.49717 | 38081 ft | 467 kts | 262° |
| 2026-05-04 01:51 | 49.74403 | -173.59673 | 38074 ft | 467 kts | 262° |
| 2026-05-04 01:52 | 49.73537 | -173.69563 | 38075 ft | 467 kts | 262° |
| 2026-05-04 01:52 | 49.72659 | -173.79500 | 38076 ft | 467 kts | 262° |
| 2026-05-04 01:53 | 49.71769 | -173.89460 | 38072 ft | 467 kts | 262° |
| 2026-05-04 01:53 | 49.70873 | -173.99396 | 38069 ft | 467 kts | 262° |
| 2026-05-04 01:54 | 49.69972 | -174.09282 | 38068 ft | 467 kts | 262° |
| 2026-05-04 01:54 | 49.69056 | -174.19240 | 38067 ft | 468 kts | 261° |
| 2026-05-04 01:55 | 49.68132 | -174.29196 | 38066 ft | 468 kts | 261° |
| 2026-05-04 01:55 | 49.67199 | -174.39145 | 38056 ft | 468 kts | 261° |
| 2026-05-04 01:56 | 49.66256 | -174.49114 | 38055 ft | 469 kts | 261° |
| 2026-05-04 01:56 | 49.65308 | -174.59034 | 38055 ft | 470 kts | 261° |
| 2026-05-04 01:57 | 49.64345 | -174.69018 | 38031 ft | 471 kts | 261° |
| 2026-05-04 01:57 | 49.63370 | -174.79035 | 38046 ft | 471 kts | 261° |
| 2026-05-04 01:58 | 49.62388 | -174.89036 | 38031 ft | 471 kts | 261° |
| 2026-05-04 01:58 | 49.61398 | -174.99026 | 38033 ft | 472 kts | 261° |
| 2026-05-04 01:59 | 49.60398 | -175.09016 | 38027 ft | 472 kts | 260° |
| 2026-05-04 01:59 | 49.59395 | -175.18959 | 38028 ft | 472 kts | 260° |
| 2026-05-04 02:00 | 49.58379 | -175.28929 | 38023 ft | 472 kts | 260° |
| 2026-05-04 02:00 | 49.57353 | -175.38922 | 38015 ft | 472 kts | 260° |
| 2026-05-04 02:01 | 49.56316 | -175.48921 | 38018 ft | 471 kts | 260° |
| 2026-05-04 02:01 | 49.55274 | -175.58888 | 38007 ft | 471 kts | 259° |
| 2026-05-04 02:02 | 49.54224 | -175.68846 | 38005 ft | 471 kts | 259° |
| 2026-05-04 02:02 | 49.53166 | -175.78796 | 38003 ft | 470 kts | 259° |
| 2026-05-04 02:03 | 49.52108 | -175.88666 | 37998 ft | 470 kts | 259° |
| 2026-05-04 02:03 | 49.51032 | -175.98613 | 37985 ft | 470 kts | 259° |
| 2026-05-04 02:04 | 49.49950 | -176.08536 | 37989 ft | 469 kts | 259° |
| 2026-05-04 02:04 | 49.48867 | -176.18380 | 37990 ft | 470 kts | 258° |
| 2026-05-04 02:05 | 49.47768 | -176.28285 | 37976 ft | 470 kts | 258° |
| 2026-05-04 02:05 | 49.46661 | -176.38191 | 37970 ft | 470 kts | 258° |
| 2026-05-04 02:06 | 49.45546 | -176.48096 | 37958 ft | 470 kts | 258° |
| 2026-05-04 02:06 | 49.44419 | -176.58024 | 37959 ft | 471 kts | 258° |
| 2026-05-04 02:07 | 49.43284 | -176.67933 | 37951 ft | 471 kts | 258° |
| 2026-05-04 02:07 | 49.42140 | -176.77844 | 37944 ft | 471 kts | 257° |
| 2026-05-04 02:08 | 49.40995 | -176.87682 | 37934 ft | 471 kts | 257° |
| 2026-05-04 02:08 | 49.39834 | -176.97587 | 37930 ft | 471 kts | 257° |
| 2026-05-04 02:09 | 49.38665 | -177.07488 | 37922 ft | 471 kts | 257° |
| 2026-05-04 02:09 | 49.37485 | -177.17406 | 37916 ft | 472 kts | 257° |
| 2026-05-04 02:10 | 49.36298 | -177.27305 | 37905 ft | 472 kts | 257° |
| 2026-05-04 02:10 | 49.35100 | -177.37202 | 37900 ft | 472 kts | 257° |
| 2026-05-04 02:11 | 49.33899 | -177.47071 | 37894 ft | 473 kts | 257° |
| 2026-05-04 02:11 | 49.32684 | -177.56984 | 37886 ft | 473 kts | 256° |
| 2026-05-04 02:12 | 49.31460 | -177.66880 | 37876 ft | 473 kts | 256° |
| 2026-05-04 02:12 | 49.30225 | -177.76786 | 37870 ft | 473 kts | 256° |
| 2026-05-04 02:13 | 49.28985 | -177.86680 | 37861 ft | 473 kts | 256° |
| 2026-05-04 02:13 | 49.27737 | -177.96571 | 37855 ft | 473 kts | 256° |
| 2026-05-04 02:14 | 49.26477 | -178.06452 | 37847 ft | 473 kts | 256° |
| 2026-05-04 02:14 | 49.25207 | -178.16351 | 37842 ft | 473 kts | 256° |
| 2026-05-04 02:15 | 49.23943 | -178.26158 | 37834 ft | 473 kts | 256° |
| 2026-05-04 02:15 | 49.22657 | -178.36037 | 37827 ft | 473 kts | 256° |
| 2026-05-04 02:16 | 49.21366 | -178.45906 | 37823 ft | 473 kts | 256° |
| 2026-05-04 02:16 | 49.20064 | -178.55779 | 37808 ft | 473 kts | 256° |
| 2026-05-04 02:17 | 49.18754 | -178.65632 | 37805 ft | 473 kts | 256° |
| 2026-05-04 02:17 | 49.17437 | -178.75492 | 37803 ft | 473 kts | 256° |
| 2026-05-04 02:18 | 49.16110 | -178.85351 | 37793 ft | 474 kts | 256° |
| 2026-05-04 02:18 | 49.14776 | -178.95203 | 37788 ft | 474 kts | 255° |
| 2026-05-04 02:19 | 49.13429 | -179.05075 | 37769 ft | 474 kts | 255° |
| 2026-05-04 02:19 | 49.12083 | -179.14855 | 37773 ft | 474 kts | 256° |
| 2026-05-04 02:20 | 49.10719 | -179.24711 | 37765 ft | 474 kts | 255° |
| 2026-05-04 02:20 | 49.09350 | -179.34558 | 37756 ft | 474 kts | 255° |
| 2026-05-04 02:21 | 49.07971 | -179.44395 | 37747 ft | 474 kts | 255° |
| 2026-05-04 02:21 | 49.06587 | -179.54219 | 37744 ft | 474 kts | 255° |
| 2026-05-04 02:22 | 49.05187 | -179.64064 | 37744 ft | 474 kts | 255° |
| 2026-05-04 02:22 | 49.03792 | -179.73824 | 37737 ft | 474 kts | 255° |
| 2026-05-04 02:23 | 49.02379 | -179.83657 | 37719 ft | 474 kts | 255° |
| 2026-05-04 02:23 | 49.00954 | -179.93472 | 37715 ft | 475 kts | 255° |
| 2026-05-04 02:24 | 48.98948 | 179.96999 | 37729 ft | 471 kts | 243° |
| 2026-05-04 02:24 | 48.96098 | 179.88002 | 37706 ft | 472 kts | 242° |
| 2026-05-04 02:25 | 48.93136 | 179.79143 | 37700 ft | 473 kts | 242° |
| 2026-05-04 02:25 | 48.90133 | 179.70206 | 37701 ft | 474 kts | 242° |
| 2026-05-04 02:26 | 48.87137 | 179.61256 | 37696 ft | 476 kts | 242° |
| 2026-05-04 02:26 | 48.84126 | 179.52266 | 37697 ft | 477 kts | 242° |
| 2026-05-04 02:27 | 48.81124 | 179.43334 | 37693 ft | 479 kts | 242° |
| 2026-05-04 02:27 | 48.78090 | 179.34339 | 37691 ft | 480 kts | 242° |
| 2026-05-04 02:28 | 48.75040 | 179.25330 | 37688 ft | 480 kts | 242° |
| 2026-05-04 02:28 | 48.71975 | 179.16310 | 37688 ft | 481 kts | 242° |
| 2026-05-04 02:29 | 48.68929 | 179.07377 | 37686 ft | 481 kts | 242° |
| 2026-05-04 02:29 | 48.65849 | 178.98374 | 37685 ft | 481 kts | 242° |
| 2026-05-04 02:30 | 48.62765 | 178.89394 | 37684 ft | 481 kts | 242° |
| 2026-05-04 02:30 | 48.59679 | 178.80435 | 37682 ft | 480 kts | 242° |
| 2026-05-04 02:31 | 48.56587 | 178.71493 | 37684 ft | 480 kts | 243° |
| 2026-05-04 02:31 | 48.53486 | 178.62556 | 37678 ft | 480 kts | 243° |
| 2026-05-04 02:32 | 48.50382 | 178.53642 | 37677 ft | 480 kts | 243° |
| 2026-05-04 02:32 | 48.47290 | 178.44790 | 37677 ft | 480 kts | 243° |
| 2026-05-04 02:33 | 48.44176 | 178.35907 | 37678 ft | 480 kts | 243° |
| 2026-05-04 02:33 | 48.41052 | 178.27027 | 37679 ft | 479 kts | 243° |
| 2026-05-04 02:34 | 48.37925 | 178.18167 | 37668 ft | 479 kts | 243° |
| 2026-05-04 02:34 | 48.34795 | 178.09327 | 37672 ft | 479 kts | 243° |
| 2026-05-04 02:35 | 48.31658 | 178.00500 | 37673 ft | 478 kts | 243° |
| 2026-05-04 02:35 | 48.28532 | 177.91735 | 37670 ft | 478 kts | 243° |
| 2026-05-04 02:36 | 48.25387 | 177.82944 | 37670 ft | 478 kts | 243° |
| 2026-05-04 02:36 | 48.22237 | 177.74167 | 37672 ft | 478 kts | 243° |
| 2026-05-04 02:37 | 48.19608 | 177.66865 | 37669 ft | 478 kts | 243° |
| 2026-05-04 02:37 | 48.15929 | 177.56681 | 37669 ft | 477 kts | 243° |
| 2026-05-04 02:38 | 48.13272 | 177.49353 | 37667 ft | 477 kts | 243° |
| 2026-05-04 02:38 | 48.10102 | 177.40632 | 37667 ft | 477 kts | 243° |
| 2026-05-04 02:39 | 48.06945 | 177.31977 | 37667 ft | 477 kts | 243° |
| 2026-05-04 02:39 | 48.03758 | 177.23270 | 37667 ft | 476 kts | 243° |
| 2026-05-04 02:40 | 48.00569 | 177.14584 | 37658 ft | 476 kts | 243° |
| 2026-05-04 02:40 | 47.97382 | 177.05932 | 37669 ft | 476 kts | 243° |
| 2026-05-04 02:41 | 47.94208 | 176.97344 | 37650 ft | 475 kts | 243° |
| 2026-05-04 02:41 | 47.91009 | 176.88720 | 37667 ft | 475 kts | 243° |
| 2026-05-04 02:42 | 47.87804 | 176.80104 | 37648 ft | 474 kts | 243° |
| 2026-05-04 02:42 | 47.84600 | 176.71518 | 37656 ft | 474 kts | 243° |
| 2026-05-04 02:43 | 47.81394 | 176.62957 | 37655 ft | 473 kts | 243° |
| 2026-05-04 02:43 | 47.78198 | 176.54449 | 37649 ft | 473 kts | 243° |
| 2026-05-04 02:44 | 47.74983 | 176.45915 | 37652 ft | 472 kts | 243° |
| 2026-05-04 02:44 | 47.71766 | 176.37405 | 37646 ft | 472 kts | 243° |
| 2026-05-04 02:45 | 47.68544 | 176.28911 | 37655 ft | 472 kts | 243° |
| 2026-05-04 02:45 | 47.65337 | 176.20482 | 37652 ft | 471 kts | 243° |
| 2026-05-04 02:46 | 47.62111 | 176.12028 | 37652 ft | 471 kts | 243° |
| 2026-05-04 02:46 | 47.58878 | 176.03585 | 37649 ft | 471 kts | 243° |
| 2026-05-04 02:47 | 47.55669 | 175.95229 | 37644 ft | 470 kts | 243° |
| 2026-05-04 02:47 | 47.52427 | 175.86813 | 37643 ft | 470 kts | 243° |
| 2026-05-04 02:48 | 47.49180 | 175.78412 | 37645 ft | 470 kts | 243° |
| 2026-05-04 02:48 | 47.45948 | 175.70075 | 37639 ft | 469 kts | 243° |
| 2026-05-04 02:49 | 47.42695 | 175.61711 | 37639 ft | 469 kts | 243° |
| 2026-05-04 02:49 | 47.39442 | 175.53373 | 37641 ft | 469 kts | 243° |
| 2026-05-04 02:50 | 47.36178 | 175.45030 | 37642 ft | 468 kts | 243° |
| 2026-05-04 02:50 | 47.32914 | 175.36714 | 37639 ft | 468 kts | 243° |
| 2026-05-04 02:51 | 47.29670 | 175.28473 | 37641 ft | 467 kts | 243° |
| 2026-05-04 02:51 | 47.26399 | 175.20191 | 37638 ft | 467 kts | 243° |
| 2026-05-04 02:52 | 47.23131 | 175.11941 | 37635 ft | 466 kts | 243° |
| 2026-05-04 02:52 | 47.19853 | 175.03692 | 37640 ft | 466 kts | 243° |
| 2026-05-04 02:53 | 47.16607 | 174.95550 | 37638 ft | 465 kts | 243° |
| 2026-05-04 02:53 | 47.13329 | 174.87349 | 37636 ft | 465 kts | 243° |
| 2026-05-04 02:54 | 47.10050 | 174.79169 | 37637 ft | 465 kts | 243° |
| 2026-05-04 02:54 | 47.06766 | 174.71003 | 37637 ft | 464 kts | 243° |
| 2026-05-04 02:55 | 47.01832 | 174.58782 | 37629 ft | 463 kts | 243° |
| 2026-05-04 02:56 | 46.98544 | 174.50666 | 37632 ft | 463 kts | 243° |
| 2026-05-04 02:56 | 46.95245 | 174.42547 | 37630 ft | 463 kts | 243° |
| 2026-05-04 02:57 | 46.91967 | 174.34504 | 37635 ft | 463 kts | 243° |
| 2026-05-04 02:57 | 46.88666 | 174.26428 | 37636 ft | 463 kts | 243° |
| 2026-05-04 02:58 | 46.85356 | 174.18356 | 37636 ft | 462 kts | 243° |
| 2026-05-04 02:58 | 46.82041 | 174.10293 | 37636 ft | 462 kts | 243° |
| 2026-05-04 02:59 | 46.78725 | 174.02252 | 37636 ft | 462 kts | 243° |
| 2026-05-04 02:59 | 46.75407 | 173.94229 | 37637 ft | 462 kts | 243° |
| 2026-05-04 03:00 | 46.72103 | 173.86265 | 37643 ft | 462 kts | 243° |
| 2026-05-04 03:00 | 46.68769 | 173.78252 | 37644 ft | 461 kts | 243° |
| 2026-05-04 03:01 | 46.65437 | 173.70266 | 37640 ft | 461 kts | 243° |
| 2026-05-04 03:01 | 46.62102 | 173.62294 | 37644 ft | 461 kts | 243° |
| 2026-05-04 03:02 | 46.58763 | 173.54340 | 37644 ft | 461 kts | 243° |
| 2026-05-04 03:02 | 46.55414 | 173.46383 | 37653 ft | 461 kts | 243° |
| 2026-05-04 03:03 | 46.52067 | 173.38451 | 37646 ft | 460 kts | 243° |
| 2026-05-04 03:03 | 46.48714 | 173.30532 | 37651 ft | 460 kts | 243° |
| 2026-05-04 03:04 | 46.45374 | 173.22665 | 37655 ft | 460 kts | 243° |
| 2026-05-04 03:04 | 46.42016 | 173.14776 | 37650 ft | 460 kts | 243° |
| 2026-05-04 03:05 | 46.38651 | 173.06891 | 37656 ft | 460 kts | 243° |
| 2026-05-04 03:05 | 46.35282 | 172.99022 | 37651 ft | 460 kts | 243° |
| 2026-05-04 03:06 | 46.31908 | 172.91164 | 37655 ft | 459 kts | 243° |
| 2026-05-04 03:06 | 46.28552 | 172.83372 | 37658 ft | 459 kts | 244° |
| 2026-05-04 03:07 | 46.25172 | 172.75544 | 37661 ft | 458 kts | 244° |
| 2026-05-04 03:07 | 46.21793 | 172.67741 | 37666 ft | 458 kts | 244° |
| 2026-05-04 03:08 | 46.18406 | 172.59941 | 37661 ft | 457 kts | 244° |
| 2026-05-04 03:08 | 46.15025 | 172.52176 | 37677 ft | 457 kts | 244° |
| 2026-05-04 03:09 | 46.11642 | 172.44428 | 37690 ft | 456 kts | 244° |
| 2026-05-04 03:09 | 46.08286 | 172.36762 | 37683 ft | 455 kts | 244° |
| 2026-05-04 03:10 | 46.04901 | 172.29054 | 37680 ft | 454 kts | 244° |
| 2026-05-04 03:10 | 46.01520 | 172.21373 | 37684 ft | 454 kts | 244° |
| 2026-05-04 03:11 | 45.98141 | 172.13718 | 37688 ft | 453 kts | 244° |
| 2026-05-04 03:11 | 45.94760 | 172.06081 | 37697 ft | 452 kts | 244° |
| 2026-05-04 03:12 | 45.91379 | 171.98464 | 37697 ft | 451 kts | 244° |
| 2026-05-04 03:12 | 45.88019 | 171.90916 | 37700 ft | 450 kts | 244° |
| 2026-05-04 03:13 | 45.84642 | 171.83350 | 37704 ft | 450 kts | 245° |
| 2026-05-04 03:13 | 45.81268 | 171.75810 | 37706 ft | 449 kts | 245° |
| 2026-05-04 03:14 | 45.77892 | 171.68286 | 37708 ft | 448 kts | 245° |
| 2026-05-04 03:14 | 45.74519 | 171.60787 | 37716 ft | 447 kts | 245° |
| 2026-05-04 03:15 | 45.71147 | 171.53310 | 37716 ft | 447 kts | 245° |
| 2026-05-04 03:15 | 45.67774 | 171.45853 | 37724 ft | 446 kts | 245° |
| 2026-05-04 03:16 | 45.64418 | 171.38452 | 37728 ft | 445 kts | 245° |
| 2026-05-04 03:16 | 45.61046 | 171.31035 | 37729 ft | 445 kts | 245° |
| 2026-05-04 03:17 | 45.57675 | 171.23641 | 37735 ft | 444 kts | 245° |
| 2026-05-04 03:17 | 45.54301 | 171.16259 | 37741 ft | 443 kts | 245° |
| 2026-05-04 03:18 | 45.50932 | 171.08907 | 37744 ft | 443 kts | 245° |
| 2026-05-04 03:18 | 45.47554 | 171.01555 | 37742 ft | 442 kts | 245° |
| 2026-05-04 03:19 | 45.44178 | 170.94225 | 37758 ft | 442 kts | 245° |
| 2026-05-04 03:19 | 45.40803 | 170.86917 | 37753 ft | 441 kts | 245° |
| 2026-05-04 03:20 | 45.37448 | 170.79672 | 37757 ft | 441 kts | 246° |
| 2026-05-04 03:20 | 45.34075 | 170.72407 | 37764 ft | 440 kts | 246° |
| 2026-05-04 03:21 | 45.30699 | 170.65151 | 37769 ft | 439 kts | 246° |
| 2026-05-04 03:21 | 45.27327 | 170.57925 | 37775 ft | 438 kts | 246° |
| 2026-05-04 03:22 | 45.23953 | 170.50713 | 37781 ft | 438 kts | 246° |
| 2026-05-04 03:22 | 45.20579 | 170.43518 | 37796 ft | 437 kts | 246° |
| 2026-05-04 03:23 | 45.17213 | 170.36359 | 37786 ft | 436 kts | 246° |
| 2026-05-04 03:23 | 45.13843 | 170.29207 | 37795 ft | 435 kts | 246° |
| 2026-05-04 03:24 | 45.10498 | 170.22129 | 37803 ft | 435 kts | 246° |
| 2026-05-04 03:24 | 45.07131 | 170.15021 | 37799 ft | 434 kts | 247° |
| 2026-05-04 03:25 | 45.03765 | 170.07932 | 37806 ft | 433 kts | 247° |
| 2026-05-04 03:25 | 45.00314 | 170.00932 | 37811 ft | 439 kts | 242° |
| 2026-05-04 03:26 | 44.96055 | 169.94623 | 37816 ft | 450 kts | 237° |
| 2026-05-04 03:26 | 44.91508 | 169.88525 | 37824 ft | 451 kts | 236° |
| 2026-05-04 03:27 | 44.87710 | 169.83505 | 37828 ft | 450 kts | 236° |
| 2026-05-04 03:27 | 44.83151 | 169.77457 | 37834 ft | 449 kts | 236° |
| 2026-05-04 03:28 | 44.78625 | 169.71434 | 37842 ft | 447 kts | 237° |
| 2026-05-04 03:28 | 44.74108 | 169.65433 | 37845 ft | 446 kts | 237° |
| 2026-05-04 03:29 | 44.69599 | 169.59458 | 37846 ft | 444 kts | 237° |
| 2026-05-04 03:29 | 44.65137 | 169.53555 | 37855 ft | 442 kts | 237° |
| 2026-05-04 03:30 | 44.60668 | 169.47655 | 37861 ft | 440 kts | 238° |
| 2026-05-04 03:30 | 44.56212 | 169.41785 | 37866 ft | 439 kts | 238° |
| 2026-05-04 03:31 | 44.51768 | 169.35942 | 37873 ft | 437 kts | 238° |
| 2026-05-04 03:31 | 44.47332 | 169.30125 | 37875 ft | 436 kts | 238° |
| 2026-05-04 03:32 | 44.42895 | 169.24319 | 37888 ft | 435 kts | 238° |
| 2026-05-04 03:32 | 44.38505 | 169.18587 | 37884 ft | 434 kts | 238° |
| 2026-05-04 03:33 | 44.34094 | 169.12838 | 37891 ft | 433 kts | 238° |
| 2026-05-04 03:33 | 44.29682 | 169.07101 | 37901 ft | 433 kts | 239° |
| 2026-05-04 03:34 | 44.25270 | 169.01375 | 37910 ft | 433 kts | 239° |
| 2026-05-04 03:34 | 44.20844 | 168.95643 | 37911 ft | 434 kts | 239° |
| 2026-05-04 03:35 | 44.16411 | 168.89914 | 37913 ft | 435 kts | 239° |
| 2026-05-04 03:35 | 44.11959 | 168.84174 | 37922 ft | 436 kts | 239° |
| 2026-05-04 03:36 | 44.07492 | 168.78429 | 37920 ft | 437 kts | 239° |
| 2026-05-04 03:36 | 44.03020 | 168.72690 | 37936 ft | 438 kts | 239° |
| 2026-05-04 03:37 | 43.98532 | 168.66944 | 37936 ft | 439 kts | 239° |
| 2026-05-04 03:37 | 43.94060 | 168.61229 | 37943 ft | 440 kts | 238° |
| 2026-05-04 03:38 | 43.89547 | 168.55475 | 37947 ft | 441 kts | 238° |
| 2026-05-04 03:38 | 43.85029 | 168.49727 | 37953 ft | 441 kts | 238° |
| 2026-05-04 03:39 | 43.80505 | 168.43985 | 37960 ft | 442 kts | 238° |
| 2026-05-04 03:39 | 43.75968 | 168.38238 | 37967 ft | 442 kts | 238° |
| 2026-05-04 03:40 | 43.71422 | 168.32491 | 37967 ft | 442 kts | 238° |
| 2026-05-04 03:40 | 43.66877 | 168.26759 | 37977 ft | 443 kts | 238° |
| 2026-05-04 03:41 | 43.62322 | 168.21026 | 37970 ft | 443 kts | 238° |
| 2026-05-04 03:41 | 43.57769 | 168.15308 | 37983 ft | 443 kts | 238° |
| 2026-05-04 03:42 | 43.53241 | 168.09633 | 37988 ft | 443 kts | 238° |
| 2026-05-04 03:42 | 43.48667 | 168.03913 | 37990 ft | 443 kts | 238° |
| 2026-05-04 03:43 | 43.44095 | 167.98207 | 37996 ft | 443 kts | 238° |
| 2026-05-04 03:43 | 43.39523 | 167.92514 | 37996 ft | 443 kts | 238° |
| 2026-05-04 03:44 | 43.34970 | 167.86856 | 38006 ft | 443 kts | 238° |
| 2026-05-04 03:44 | 43.30396 | 167.81183 | 38012 ft | 443 kts | 238° |
| 2026-05-04 03:45 | 43.25811 | 167.75509 | 38015 ft | 443 kts | 238° |
| 2026-05-04 03:45 | 43.21223 | 167.69844 | 38013 ft | 444 kts | 238° |
| 2026-05-04 03:46 | 43.16628 | 167.64182 | 38028 ft | 444 kts | 238° |
| 2026-05-04 03:46 | 43.12027 | 167.58525 | 38029 ft | 444 kts | 238° |
| 2026-05-04 03:47 | 43.07455 | 167.52915 | 38037 ft | 445 kts | 238° |
| 2026-05-04 03:47 | 43.02843 | 167.47268 | 38041 ft | 445 kts | 237° |
| 2026-05-04 03:48 | 42.98224 | 167.41624 | 38046 ft | 445 kts | 237° |
| 2026-05-04 03:48 | 42.93604 | 167.35991 | 38048 ft | 445 kts | 237° |
| 2026-05-04 03:49 | 42.88983 | 167.30369 | 38045 ft | 445 kts | 237° |
| 2026-05-04 03:49 | 42.84346 | 167.24740 | 38056 ft | 445 kts | 237° |
| 2026-05-04 03:50 | 42.79715 | 167.19129 | 38062 ft | 445 kts | 237° |
| 2026-05-04 03:50 | 42.75080 | 167.13525 | 38064 ft | 445 kts | 237° |
| 2026-05-04 03:51 | 42.70475 | 167.07968 | 38068 ft | 445 kts | 237° |
| 2026-05-04 03:51 | 42.65837 | 167.02384 | 38076 ft | 445 kts | 237° |
| 2026-05-04 03:52 | 42.61202 | 166.96814 | 38076 ft | 445 kts | 237° |
| 2026-05-04 03:52 | 42.56565 | 166.91255 | 38080 ft | 444 kts | 237° |
| 2026-05-04 03:53 | 42.51933 | 166.85711 | 38080 ft | 444 kts | 237° |
| 2026-05-04 03:53 | 42.47302 | 166.80181 | 38088 ft | 443 kts | 237° |
| 2026-05-04 03:54 | 42.42673 | 166.74664 | 38090 ft | 443 kts | 237° |
| 2026-05-04 03:54 | 42.38051 | 166.69167 | 38096 ft | 443 kts | 237° |
| 2026-05-04 03:55 | 42.33420 | 166.63671 | 38098 ft | 442 kts | 237° |
| 2026-05-04 03:55 | 42.28824 | 166.58226 | 38101 ft | 442 kts | 237° |
| 2026-05-04 03:56 | 42.24200 | 166.52760 | 38114 ft | 442 kts | 237° |
| 2026-05-04 03:56 | 42.19573 | 166.47301 | 38103 ft | 441 kts | 236° |
| 2026-05-04 03:57 | 42.14948 | 166.41856 | 38102 ft | 441 kts | 236° |
| 2026-05-04 03:57 | 42.10323 | 166.36422 | 38110 ft | 441 kts | 236° |
| 2026-05-04 03:58 | 42.03378 | 166.28282 | 38114 ft | 441 kts | 236° |
| 2026-05-04 03:58 | 41.98744 | 166.22864 | 38117 ft | 441 kts | 236° |
| 2026-05-04 03:59 | 41.94106 | 166.17452 | 38119 ft | 441 kts | 236° |
| 2026-05-04 03:59 | 41.89492 | 166.12079 | 38125 ft | 441 kts | 236° |
| 2026-05-04 04:00 | 41.84849 | 166.06683 | 38134 ft | 442 kts | 236° |
| 2026-05-04 04:00 | 41.80194 | 166.01284 | 38134 ft | 442 kts | 236° |
| 2026-05-04 04:01 | 41.75561 | 165.95921 | 38136 ft | 443 kts | 235° |
| 2026-05-04 04:01 | 41.70890 | 165.90527 | 38140 ft | 443 kts | 235° |
| 2026-05-04 04:02 | 41.66216 | 165.85139 | 38143 ft | 444 kts | 235° |
| 2026-05-04 04:02 | 41.61532 | 165.79750 | 38146 ft | 444 kts | 235° |
| 2026-05-04 04:03 | 41.56837 | 165.74358 | 38150 ft | 445 kts | 235° |
| 2026-05-04 04:03 | 41.52136 | 165.68971 | 38140 ft | 445 kts | 235° |
| 2026-05-04 04:04 | 41.47462 | 165.63625 | 38155 ft | 446 kts | 234° |
| 2026-05-04 04:04 | 41.42741 | 165.58237 | 38168 ft | 447 kts | 234° |
| 2026-05-04 04:05 | 41.38020 | 165.52859 | 38158 ft | 447 kts | 234° |
| 2026-05-04 04:05 | 41.33292 | 165.47485 | 38166 ft | 447 kts | 234° |
| 2026-05-04 04:06 | 41.28562 | 165.42119 | 38166 ft | 447 kts | 234° |
| 2026-05-04 04:06 | 41.23832 | 165.36762 | 38172 ft | 447 kts | 234° |
| 2026-05-04 04:07 | 41.19095 | 165.31409 | 38168 ft | 447 kts | 233° |
| 2026-05-04 04:07 | 41.14389 | 165.26101 | 38182 ft | 447 kts | 233° |
| 2026-05-04 04:08 | 41.09647 | 165.20764 | 38181 ft | 447 kts | 233° |
| 2026-05-04 04:08 | 41.04902 | 165.15433 | 38186 ft | 447 kts | 233° |
| 2026-05-04 04:09 | 41.00151 | 165.10106 | 38181 ft | 447 kts | 233° |
| 2026-05-04 04:09 | 40.95398 | 165.04785 | 38195 ft | 447 kts | 233° |
| 2026-05-04 04:10 | 40.90646 | 164.99477 | 38188 ft | 447 kts | 233° |
| 2026-05-04 04:10 | 40.85884 | 164.94166 | 38197 ft | 448 kts | 233° |
| 2026-05-04 04:11 | 40.81111 | 164.88855 | 38193 ft | 448 kts | 232° |
| 2026-05-04 04:11 | 40.76377 | 164.83597 | 38194 ft | 448 kts | 232° |
| 2026-05-04 04:12 | 40.71602 | 164.78305 | 38191 ft | 448 kts | 232° |
| 2026-05-04 04:12 | 40.66825 | 164.73021 | 38194 ft | 448 kts | 232° |
| 2026-05-04 04:13 | 40.62849 | 164.68631 | 38206 ft | 448 kts | 232° |
| 2026-05-04 04:13 | 40.58061 | 164.63354 | 38218 ft | 449 kts | 232° |
| 2026-05-04 04:14 | 40.52496 | 164.57233 | 38201 ft | 449 kts | 232° |
| 2026-05-04 04:14 | 40.48481 | 164.52826 | 38219 ft | 449 kts | 232° |
| 2026-05-04 04:15 | 40.43711 | 164.47598 | 38214 ft | 449 kts | 231° |
| 2026-05-04 04:15 | 40.38913 | 164.42351 | 38216 ft | 449 kts | 231° |
| 2026-05-04 04:16 | 40.34110 | 164.37107 | 38213 ft | 449 kts | 231° |
| 2026-05-04 04:16 | 40.29300 | 164.31866 | 38222 ft | 449 kts | 231° |
| 2026-05-04 04:17 | 40.24487 | 164.26631 | 38215 ft | 450 kts | 231° |
| 2026-05-04 04:17 | 40.19669 | 164.21401 | 38229 ft | 450 kts | 231° |
| 2026-05-04 04:18 | 40.14847 | 164.16177 | 38221 ft | 450 kts | 231° |
| 2026-05-04 04:18 | 40.10044 | 164.10984 | 38228 ft | 451 kts | 230° |
| 2026-05-04 04:19 | 40.05206 | 164.05762 | 38221 ft | 451 kts | 230° |
| 2026-05-04 04:19 | 40.00362 | 164.00545 | 38236 ft | 451 kts | 230° |
| 2026-05-04 04:20 | 39.95518 | 163.95337 | 38226 ft | 451 kts | 230° |
| 2026-05-04 04:20 | 39.90671 | 163.90136 | 38237 ft | 451 kts | 230° |
| 2026-05-04 04:21 | 39.85852 | 163.84974 | 38232 ft | 451 kts | 230° |
| 2026-05-04 04:21 | 39.81000 | 163.79787 | 38236 ft | 451 kts | 230° |
| 2026-05-04 04:22 | 39.76152 | 163.74614 | 38230 ft | 451 kts | 230° |
| 2026-05-04 04:22 | 39.71294 | 163.69440 | 38240 ft | 451 kts | 229° |
| 2026-05-04 04:23 | 39.66443 | 163.64283 | 38229 ft | 450 kts | 229° |
| 2026-05-04 04:23 | 39.61591 | 163.59135 | 38248 ft | 450 kts | 229° |
| 2026-05-04 04:24 | 39.56742 | 163.53999 | 38224 ft | 450 kts | 229° |
| 2026-05-04 04:24 | 39.51890 | 163.48871 | 38226 ft | 450 kts | 229° |
| 2026-05-04 04:25 | 39.47036 | 163.43749 | 38236 ft | 450 kts | 229° |
| 2026-05-04 04:25 | 39.42206 | 163.38661 | 38242 ft | 450 kts | 229° |
| 2026-05-04 04:26 | 39.37349 | 163.33556 | 38233 ft | 449 kts | 229° |
| 2026-05-04 04:26 | 39.32489 | 163.28456 | 38242 ft | 450 kts | 229° |
| 2026-05-04 04:27 | 39.27657 | 163.23395 | 38230 ft | 449 kts | 229° |
| 2026-05-04 04:27 | 39.22794 | 163.18311 | 38239 ft | 449 kts | 229° |
| 2026-05-04 04:28 | 39.17938 | 163.13244 | 38231 ft | 449 kts | 228° |
| 2026-05-04 04:28 | 39.13071 | 163.08173 | 38243 ft | 450 kts | 228° |
| 2026-05-04 04:29 | 39.08205 | 163.03114 | 38231 ft | 449 kts | 228° |
| 2026-05-04 04:29 | 39.03552 | 162.98285 | 38241 ft | 450 kts | 228° |
| 2026-05-04 04:30 | 38.98676 | 162.93233 | 38238 ft | 450 kts | 228° |
| 2026-05-04 04:30 | 38.93826 | 162.88216 | 38240 ft | 450 kts | 228° |
| 2026-05-04 04:31 | 38.88948 | 162.83182 | 38235 ft | 450 kts | 227° |
| 2026-05-04 04:31 | 38.84065 | 162.78150 | 38240 ft | 450 kts | 227° |
| 2026-05-04 04:32 | 38.79178 | 162.73126 | 38234 ft | 450 kts | 227° |
| 2026-05-04 04:32 | 38.74295 | 162.68111 | 38242 ft | 450 kts | 227° |
| 2026-05-04 04:33 | 38.69406 | 162.63102 | 38234 ft | 450 kts | 227° |
| 2026-05-04 04:33 | 38.64509 | 162.58092 | 38238 ft | 450 kts | 227° |
| 2026-05-04 04:34 | 38.59617 | 162.53096 | 38235 ft | 450 kts | 227° |
| 2026-05-04 04:34 | 38.54715 | 162.48100 | 38240 ft | 450 kts | 227° |
| 2026-05-04 04:35 | 38.49814 | 162.43113 | 38234 ft | 450 kts | 227° |
| 2026-05-04 04:35 | 38.44947 | 162.38171 | 38240 ft | 450 kts | 227° |
| 2026-05-04 04:36 | 38.40048 | 162.33203 | 38239 ft | 450 kts | 227° |
| 2026-05-04 04:36 | 38.35137 | 162.28233 | 38238 ft | 450 kts | 227° |
| 2026-05-04 04:37 | 38.25313 | 162.18317 | 38238 ft | 451 kts | 226° |
| 2026-05-04 04:38 | 38.20395 | 162.13366 | 38235 ft | 451 kts | 226° |
| 2026-05-04 04:38 | 38.15496 | 162.08443 | 38237 ft | 451 kts | 226° |
| 2026-05-04 04:39 | 38.10567 | 162.03500 | 38233 ft | 451 kts | 226° |
| 2026-05-04 04:39 | 38.05631 | 161.98557 | 38240 ft | 451 kts | 226° |
| 2026-05-04 04:40 | 38.00700 | 161.93629 | 38232 ft | 451 kts | 226° |
| 2026-05-04 04:40 | 37.95768 | 161.88708 | 38237 ft | 451 kts | 226° |
| 2026-05-04 04:41 | 37.90839 | 161.83798 | 38230 ft | 451 kts | 226° |
| 2026-05-04 04:41 | 37.85929 | 161.78916 | 38237 ft | 451 kts | 226° |
| 2026-05-04 04:42 | 37.80989 | 161.74013 | 38228 ft | 451 kts | 226° |
| 2026-05-04 04:42 | 37.76042 | 161.69112 | 38240 ft | 451 kts | 225° |
| 2026-05-04 04:43 | 37.71100 | 161.64224 | 38235 ft | 451 kts | 225° |
| 2026-05-04 04:43 | 37.66148 | 161.59333 | 38236 ft | 451 kts | 225° |
| 2026-05-04 04:44 | 37.61200 | 161.54457 | 38030 ft | 451 kts | 225° |
| 2026-05-04 04:44 | 37.58720 | 161.52017 | 38217 ft | 452 kts | 225° |
| 2026-05-04 04:44 | 37.56233 | 161.49567 | 38234 ft | 457 kts | 225° |
| 2026-05-04 04:45 | 37.51175 | 161.44587 | 38230 ft | 466 kts | 225° |
| 2026-05-04 04:47 | 37.33157 | 161.26974 | 38227 ft | 470 kts | 225° |
| 2026-05-04 04:47 | 37.27987 | 161.21937 | 38224 ft | 470 kts | 225° |
| 2026-05-04 04:48 | 37.22810 | 161.16902 | 38226 ft | 471 kts | 225° |
| 2026-05-04 04:49 | 37.09832 | 161.04317 | 38219 ft | 472 kts | 224° |
| 2026-05-04 04:49 | 37.04669 | 160.99327 | 38224 ft | 472 kts | 224° |
| 2026-05-04 04:50 | 36.99460 | 160.94302 | 38221 ft | 473 kts | 224° |
| 2026-05-04 04:50 | 36.94250 | 160.89284 | 38226 ft | 473 kts | 224° |
| 2026-05-04 04:51 | 36.89030 | 160.84265 | 38235 ft | 474 kts | 224° |
| 2026-05-04 04:51 | 36.83799 | 160.79244 | 38216 ft | 474 kts | 224° |
| 2026-05-04 04:52 | 36.78566 | 160.74231 | 38225 ft | 474 kts | 223° |
| 2026-05-04 04:52 | 36.73314 | 160.69208 | 38221 ft | 475 kts | 223° |
| 2026-05-04 04:53 | 36.68099 | 160.64229 | 38224 ft | 475 kts | 223° |
| 2026-05-04 04:53 | 36.62845 | 160.59224 | 38224 ft | 475 kts | 223° |
| 2026-05-04 04:54 | 36.57587 | 160.54221 | 38224 ft | 476 kts | 223° |
| 2026-05-04 04:54 | 36.52329 | 160.49228 | 38224 ft | 476 kts | 223° |
| 2026-05-04 04:55 | 36.47060 | 160.44233 | 38226 ft | 476 kts | 223° |
| 2026-05-04 04:55 | 36.41783 | 160.39239 | 38226 ft | 477 kts | 223° |
| 2026-05-04 04:56 | 36.36539 | 160.34285 | 38223 ft | 477 kts | 222° |
| 2026-05-04 04:56 | 36.31251 | 160.29298 | 38224 ft | 478 kts | 222° |
| 2026-05-04 04:57 | 36.25952 | 160.24311 | 38224 ft | 478 kts | 222° |
| 2026-05-04 04:57 | 36.20651 | 160.19330 | 38219 ft | 478 kts | 222° |
| 2026-05-04 04:58 | 36.15341 | 160.14348 | 38225 ft | 479 kts | 222° |
| 2026-05-04 04:58 | 36.10017 | 160.09363 | 38217 ft | 479 kts | 221° |
| 2026-05-04 04:59 | 36.04732 | 160.04422 | 38220 ft | 480 kts | 221° |
| 2026-05-04 04:59 | 35.99778 | 159.98986 | 38219 ft | 472 kts | 234° |
| 2026-05-04 05:00 | 35.95979 | 159.92439 | 38300 ft | 468 kts | 240° |
| 2026-05-04 05:00 | 35.92469 | 159.85702 | 38771 ft | 466 kts | 241° |
| 2026-05-04 05:01 | 35.90730 | 159.82328 | 38952 ft | 466 kts | 241° |
| 2026-05-04 05:01 | 35.88985 | 159.78955 | 39135 ft | 465 kts | 241° |
| 2026-05-04 05:01 | 35.87239 | 159.75600 | 39316 ft | 465 kts | 241° |
| 2026-05-04 05:01 | 35.86077 | 159.73374 | 39433 ft | 464 kts | 241° |
| 2026-05-04 05:02 | 35.83737 | 159.68912 | 39666 ft | 463 kts | 241° |
| 2026-05-04 05:02 | 35.82577 | 159.66704 | 39774 ft | 463 kts | 241° |
| 2026-05-04 05:02 | 35.80825 | 159.63375 | 39932 ft | 462 kts | 240° |
| 2026-05-04 05:02 | 35.78507 | 159.58976 | 40130 ft | 462 kts | 240° |
| 2026-05-04 05:03 | 35.76757 | 159.55657 | 40198 ft | 463 kts | 240° |
| 2026-05-04 05:04 | 35.70312 | 159.43461 | 40208 ft | 464 kts | 240° |
| 2026-05-04 05:04 | 35.66785 | 159.36805 | 40208 ft | 464 kts | 240° |
| 2026-05-04 05:06 | 35.52631 | 159.10219 | 40204 ft | 465 kts | 240° |
| 2026-05-04 05:07 | 35.49097 | 159.03613 | 40204 ft | 465 kts | 240° |
| 2026-05-04 05:07 | 35.45541 | 158.96978 | 40197 ft | 465 kts | 240° |
| 2026-05-04 05:09 | 35.29468 | 158.67144 | 40194 ft | 467 kts | 240° |
| 2026-05-04 05:10 | 35.25876 | 158.60514 | 40195 ft | 467 kts | 240° |
| 2026-05-04 05:10 | 35.22305 | 158.53932 | 40196 ft | 467 kts | 240° |
| 2026-05-04 05:11 | 35.18702 | 158.47305 | 40194 ft | 467 kts | 240° |
| 2026-05-04 05:11 | 35.15096 | 158.40684 | 40191 ft | 468 kts | 239° |
| 2026-05-04 05:12 | 35.11484 | 158.34064 | 40194 ft | 468 kts | 239° |
| 2026-05-04 05:12 | 35.07866 | 158.27447 | 40189 ft | 468 kts | 239° |
| 2026-05-04 05:13 | 35.04246 | 158.20838 | 40191 ft | 468 kts | 239° |
| 2026-05-04 05:13 | 35.00644 | 158.14274 | 40187 ft | 469 kts | 239° |
| 2026-05-04 05:14 | 34.97010 | 158.07666 | 40194 ft | 469 kts | 239° |
| 2026-05-04 05:14 | 34.93369 | 158.01055 | 40185 ft | 469 kts | 239° |
| 2026-05-04 05:15 | 34.89721 | 157.94444 | 40186 ft | 470 kts | 239° |
| 2026-05-04 05:15 | 34.86066 | 157.87833 | 40182 ft | 470 kts | 239° |
| 2026-05-04 05:16 | 34.82409 | 157.81231 | 40184 ft | 471 kts | 239° |
| 2026-05-04 05:16 | 34.78740 | 157.74621 | 40181 ft | 471 kts | 239° |
| 2026-05-04 05:17 | 34.75089 | 157.68053 | 40183 ft | 471 kts | 239° |
| 2026-05-04 05:17 | 34.71412 | 157.61452 | 40181 ft | 472 kts | 239° |
| 2026-05-04 05:18 | 34.67725 | 157.54846 | 40180 ft | 472 kts | 239° |
| 2026-05-04 05:18 | 34.64032 | 157.48241 | 40181 ft | 472 kts | 239° |
| 2026-05-04 05:19 | 34.60331 | 157.41633 | 40182 ft | 473 kts | 239° |
| 2026-05-04 05:19 | 34.56648 | 157.35071 | 40179 ft | 473 kts | 239° |
| 2026-05-04 05:20 | 34.52938 | 157.28473 | 40178 ft | 473 kts | 238° |
| 2026-05-04 05:20 | 34.49226 | 157.21881 | 40176 ft | 473 kts | 238° |
| 2026-05-04 05:21 | 34.45503 | 157.15284 | 40173 ft | 473 kts | 238° |
| 2026-05-04 05:21 | 34.41780 | 157.08698 | 40173 ft | 474 kts | 238° |
| 2026-05-04 05:22 | 34.38069 | 157.02147 | 40173 ft | 474 kts | 238° |
| 2026-05-04 05:22 | 34.34338 | 156.95571 | 40175 ft | 474 kts | 238° |
| 2026-05-04 05:23 | 34.30607 | 156.89007 | 40170 ft | 474 kts | 238° |
| 2026-05-04 05:23 | 34.26863 | 156.82433 | 40173 ft | 474 kts | 238° |
| 2026-05-04 05:24 | 34.23120 | 156.75873 | 40171 ft | 474 kts | 238° |
| 2026-05-04 05:24 | 34.19374 | 156.69318 | 40169 ft | 474 kts | 238° |
| 2026-05-04 05:25 | 34.15618 | 156.62759 | 40168 ft | 474 kts | 238° |
| 2026-05-04 05:25 | 34.11863 | 156.56212 | 40167 ft | 474 kts | 238° |
| 2026-05-04 05:26 | 34.08127 | 156.49713 | 40170 ft | 475 kts | 238° |
| 2026-05-04 05:26 | 34.04363 | 156.43175 | 40173 ft | 475 kts | 238° |
| 2026-05-04 05:28 | 33.89253 | 156.17046 | 40170 ft | 475 kts | 238° |
| 2026-05-04 05:29 | 33.85464 | 156.10525 | 40169 ft | 475 kts | 238° |
| 2026-05-04 05:29 | 33.81672 | 156.04009 | 40169 ft | 475 kts | 238° |
| 2026-05-04 05:31 | 33.66481 | 155.78023 | 40169 ft | 476 kts | 237° |
| 2026-05-04 05:32 | 33.62693 | 155.71572 | 40167 ft | 476 kts | 237° |
| 2026-05-04 05:33 | 33.56965 | 155.61838 | 40172 ft | 476 kts | 237° |
| 2026-05-04 05:33 | 33.53133 | 155.55342 | 40173 ft | 476 kts | 237° |
| 2026-05-04 05:34 | 33.49303 | 155.48858 | 40168 ft | 477 kts | 237° |
| 2026-05-04 05:34 | 33.45467 | 155.42378 | 40171 ft | 477 kts | 237° |
| 2026-05-04 05:35 | 33.41620 | 155.35890 | 40169 ft | 477 kts | 237° |
| 2026-05-04 05:35 | 33.37772 | 155.29411 | 40169 ft | 477 kts | 237° |
| 2026-05-04 05:36 | 33.33918 | 155.22934 | 40170 ft | 478 kts | 237° |
| 2026-05-04 05:36 | 33.30086 | 155.16505 | 40170 ft | 478 kts | 237° |
| 2026-05-04 05:37 | 33.26224 | 155.10038 | 40171 ft | 478 kts | 237° |
| 2026-05-04 05:37 | 33.22353 | 155.03565 | 40169 ft | 478 kts | 236° |
| 2026-05-04 05:38 | 33.16554 | 154.93892 | 40165 ft | 478 kts | 236° |
| 2026-05-04 05:38 | 33.12676 | 154.87437 | 40165 ft | 478 kts | 236° |
| 2026-05-04 05:39 | 33.06864 | 154.77784 | 40165 ft | 478 kts | 236° |
| 2026-05-04 05:40 | 33.01065 | 154.68177 | 40162 ft | 478 kts | 236° |
| 2026-05-04 05:40 | 32.97174 | 154.61746 | 40163 ft | 477 kts | 236° |
| 2026-05-04 05:41 | 32.93290 | 154.55335 | 40162 ft | 477 kts | 236° |
| 2026-05-04 05:41 | 32.89407 | 154.48939 | 40162 ft | 477 kts | 236° |
| 2026-05-04 05:42 | 32.85512 | 154.42533 | 40163 ft | 477 kts | 236° |
| 2026-05-04 05:42 | 32.81621 | 154.36145 | 40163 ft | 477 kts | 236° |
| 2026-05-04 05:43 | 32.77748 | 154.29796 | 40161 ft | 477 kts | 236° |
| 2026-05-04 05:45 | 32.62157 | 154.04353 | 40159 ft | 477 kts | 235° |
| 2026-05-04 05:47 | 32.46475 | 153.78932 | 40160 ft | 477 kts | 235° |
| 2026-05-04 05:47 | 32.42550 | 153.72596 | 40158 ft | 477 kts | 235° |
| 2026-05-04 05:48 | 32.38624 | 153.66269 | 40160 ft | 477 kts | 235° |
| 2026-05-04 05:48 | 32.34699 | 153.59956 | 40172 ft | 477 kts | 235° |
| 2026-05-04 05:49 | 32.30789 | 153.53677 | 40168 ft | 477 kts | 235° |
| 2026-05-04 05:49 | 32.26853 | 153.47366 | 40156 ft | 476 kts | 235° |
| 2026-05-04 05:51 | 32.11767 | 153.23272 | 40166 ft | 476 kts | 234° |
| 2026-05-04 05:52 | 32.07825 | 153.17002 | 40153 ft | 476 kts | 234° |
| 2026-05-04 05:52 | 32.03874 | 153.10729 | 40152 ft | 476 kts | 234° |
| 2026-05-04 05:54 | 31.88080 | 152.85749 | 40157 ft | 476 kts | 234° |
| 2026-05-04 05:55 | 31.84116 | 152.79507 | 40151 ft | 476 kts | 234° |
| 2026-05-04 05:55 | 31.80151 | 152.73272 | 40150 ft | 476 kts | 234° |
| 2026-05-04 05:56 | 31.76179 | 152.67034 | 40150 ft | 476 kts | 234° |
| 2026-05-04 05:56 | 31.72212 | 152.60816 | 40149 ft | 476 kts | 234° |
| 2026-05-04 05:57 | 31.68262 | 152.54636 | 40154 ft | 476 kts | 234° |
| 2026-05-04 05:57 | 31.64292 | 152.48432 | 40157 ft | 476 kts | 234° |
| 2026-05-04 05:58 | 31.60314 | 152.42227 | 40150 ft | 476 kts | 234° |
| 2026-05-04 05:58 | 31.56334 | 152.36029 | 40151 ft | 476 kts | 234° |
| 2026-05-04 05:59 | 31.52351 | 152.29836 | 40159 ft | 476 kts | 234° |
| 2026-05-04 05:59 | 31.48362 | 152.23642 | 40160 ft | 476 kts | 234° |
| 2026-05-04 06:00 | 31.44373 | 152.17460 | 40161 ft | 476 kts | 234° |
| 2026-05-04 06:00 | 31.40377 | 152.11276 | 40153 ft | 476 kts | 234° |
| 2026-05-04 06:01 | 31.36383 | 152.05106 | 40156 ft | 476 kts | 234° |
| 2026-05-04 06:03 | 31.20387 | 151.80489 | 40151 ft | 476 kts | 234° |
| 2026-05-04 06:05 | 31.02312 | 151.52859 | 40151 ft | 476 kts | 234° |
| 2026-05-04 06:06 | 30.98281 | 151.46725 | 40154 ft | 476 kts | 234° |
| 2026-05-04 06:06 | 30.94243 | 151.40588 | 40151 ft | 476 kts | 234° |
| 2026-05-04 06:07 | 30.90208 | 151.34466 | 40153 ft | 477 kts | 234° |
| 2026-05-04 06:07 | 30.86187 | 151.28375 | 40153 ft | 477 kts | 234° |
| 2026-05-04 06:08 | 30.82141 | 151.22254 | 40154 ft | 477 kts | 234° |
| 2026-05-04 06:08 | 30.78083 | 151.16126 | 40158 ft | 477 kts | 234° |
| 2026-05-04 06:09 | 30.74027 | 151.10010 | 40155 ft | 477 kts | 234° |
| 2026-05-04 06:11 | 30.57781 | 150.85606 | 40155 ft | 478 kts | 234° |
| 2026-05-04 06:13 | 30.41437 | 150.61209 | 40153 ft | 479 kts | 234° |
| 2026-05-04 06:14 | 30.27115 | 150.39949 | 40148 ft | 479 kts | 233° |
| 2026-05-04 06:15 | 30.23006 | 150.33871 | 40150 ft | 479 kts | 233° |
| 2026-05-04 06:15 | 30.18896 | 150.27800 | 40149 ft | 480 kts | 233° |
| 2026-05-04 06:16 | 30.14778 | 150.21727 | 40151 ft | 480 kts | 233° |
| 2026-05-04 06:16 | 30.10660 | 150.15663 | 40147 ft | 480 kts | 233° |
| 2026-05-04 06:17 | 30.06537 | 150.09601 | 40149 ft | 480 kts | 233° |
| 2026-05-04 06:17 | 30.02413 | 150.03547 | 40149 ft | 480 kts | 233° |
| 2026-05-04 06:18 | 29.98558 | 149.97275 | 40146 ft | 478 kts | 239° |
| 2026-05-04 06:20 | 29.84607 | 149.71214 | 40146 ft | 478 kts | 240° |
| 2026-05-04 06:21 | 29.75850 | 149.54930 | 40141 ft | 478 kts | 240° |
| 2026-05-04 06:22 | 29.72347 | 149.48434 | 40142 ft | 478 kts | 240° |
| 2026-05-04 06:25 | 29.47753 | 149.03111 | 40142 ft | 478 kts | 239° |
| 2026-05-04 06:26 | 29.44240 | 148.96678 | 40139 ft | 478 kts | 239° |
| 2026-05-04 06:26 | 29.40709 | 148.90222 | 40140 ft | 478 kts | 239° |
| 2026-05-04 06:27 | 29.31854 | 148.74076 | 40137 ft | 478 kts | 239° |
| 2026-05-04 06:28 | 29.28303 | 148.67621 | 40137 ft | 478 kts | 239° |
| 2026-05-04 06:28 | 29.24775 | 148.61216 | 40136 ft | 478 kts | 239° |
| 2026-05-04 06:29 | 29.21219 | 148.54770 | 40133 ft | 478 kts | 239° |
| 2026-05-04 06:29 | 29.17663 | 148.48334 | 40131 ft | 478 kts | 239° |
| 2026-05-04 06:30 | 29.14103 | 148.41902 | 40131 ft | 478 kts | 239° |
| 2026-05-04 06:30 | 29.10537 | 148.35468 | 40134 ft | 478 kts | 239° |
| 2026-05-04 06:31 | 29.06972 | 148.29047 | 40134 ft | 479 kts | 239° |
| 2026-05-04 06:31 | 29.03402 | 148.22624 | 40129 ft | 478 kts | 239° |
| 2026-05-04 06:33 | 28.89108 | 147.97016 | 40129 ft | 479 kts | 239° |
| 2026-05-04 06:34 | 28.85521 | 147.90613 | 40126 ft | 479 kts | 239° |
| 2026-05-04 06:34 | 28.81932 | 147.84218 | 40127 ft | 479 kts | 239° |
| 2026-05-04 06:36 | 28.67558 | 147.58699 | 40121 ft | 479 kts | 238° |
| 2026-05-04 06:37 | 28.64552 | 147.53384 | 40119 ft | 479 kts | 238° |
| 2026-05-04 06:37 | 28.60941 | 147.47005 | 40116 ft | 479 kts | 238° |
| 2026-05-04 06:38 | 28.57323 | 147.40624 | 40122 ft | 479 kts | 238° |
| 2026-05-04 06:40 | 28.42855 | 147.15204 | 40115 ft | 479 kts | 238° |
| 2026-05-04 06:40 | 28.39226 | 147.08851 | 40123 ft | 479 kts | 238° |
| 2026-05-04 06:41 | 28.35595 | 147.02505 | 40112 ft | 479 kts | 238° |
| 2026-05-04 06:41 | 28.31956 | 146.96155 | 40114 ft | 479 kts | 238° |
| 2026-05-04 06:42 | 28.28319 | 146.89817 | 40113 ft | 479 kts | 238° |
| 2026-05-04 06:44 | 28.13754 | 146.64529 | 40113 ft | 480 kts | 238° |
| 2026-05-04 06:44 | 28.10099 | 146.58208 | 40114 ft | 480 kts | 238° |
| 2026-05-04 06:45 | 28.06435 | 146.51880 | 40115 ft | 480 kts | 238° |
| 2026-05-04 06:45 | 28.02768 | 146.45555 | 40114 ft | 480 kts | 238° |
| 2026-05-04 06:46 | 27.99101 | 146.39240 | 40109 ft | 480 kts | 238° |
| 2026-05-04 06:46 | 27.95453 | 146.32967 | 40106 ft | 480 kts | 238° |
| 2026-05-04 06:48 | 27.80737 | 146.07753 | 40104 ft | 480 kts | 238° |
| 2026-05-04 06:50 | 27.66008 | 145.82664 | 40102 ft | 479 kts | 237° |
| 2026-05-04 06:51 | 27.62314 | 145.76393 | 40100 ft | 479 kts | 237° |
| 2026-05-04 06:51 | 27.58617 | 145.70129 | 40098 ft | 479 kts | 237° |
| 2026-05-04 06:52 | 27.54921 | 145.63872 | 40099 ft | 479 kts | 237° |
| 2026-05-04 06:52 | 27.51218 | 145.57615 | 40100 ft | 479 kts | 237° |
| 2026-05-04 06:53 | 27.47517 | 145.51369 | 40098 ft | 480 kts | 237° |
| 2026-05-04 06:53 | 27.43812 | 145.45125 | 40096 ft | 479 kts | 237° |
| 2026-05-04 06:54 | 27.40125 | 145.38922 | 40095 ft | 480 kts | 237° |
| 2026-05-04 06:54 | 27.36412 | 145.32682 | 40108 ft | 479 kts | 237° |
| 2026-05-04 06:55 | 27.32698 | 145.26449 | 40088 ft | 479 kts | 237° |
| 2026-05-04 06:55 | 27.28982 | 145.20222 | 40104 ft | 479 kts | 237° |
| 2026-05-04 06:57 | 27.14103 | 144.95377 | 40102 ft | 479 kts | 237° |
| 2026-05-04 06:58 | 27.10377 | 144.89178 | 40102 ft | 479 kts | 237° |
| 2026-05-04 06:58 | 27.06643 | 144.82973 | 40080 ft | 479 kts | 237° |
| 2026-05-04 06:59 | 27.02909 | 144.76776 | 40095 ft | 479 kts | 237° |
| 2026-05-04 06:59 | 26.99190 | 144.70615 | 40093 ft | 479 kts | 237° |
| 2026-05-04 07:01 | 26.84250 | 144.45944 | 40092 ft | 478 kts | 237° |
| 2026-05-04 07:02 | 26.80503 | 144.39778 | 40090 ft | 478 kts | 236° |
| 2026-05-04 07:02 | 26.76757 | 144.33622 | 40088 ft | 478 kts | 236° |
| 2026-05-04 07:03 | 26.73010 | 144.27472 | 40089 ft | 478 kts | 236° |
| 2026-05-04 07:03 | 26.69258 | 144.21324 | 40084 ft | 478 kts | 236° |
| 2026-05-04 07:04 | 26.65508 | 144.15187 | 40090 ft | 478 kts | 236° |
| 2026-05-04 07:04 | 26.61756 | 144.09053 | 40090 ft | 478 kts | 236° |
| 2026-05-04 07:05 | 26.57999 | 144.02921 | 40087 ft | 478 kts | 236° |
| 2026-05-04 07:05 | 26.54267 | 143.96838 | 40084 ft | 478 kts | 236° |
| 2026-05-04 07:06 | 26.48623 | 143.87654 | 40083 ft | 478 kts | 236° |
| 2026-05-04 07:07 | 26.44853 | 143.81530 | 40084 ft | 478 kts | 236° |
| 2026-05-04 07:09 | 26.29764 | 143.57100 | 40083 ft | 477 kts | 236° |
| 2026-05-04 07:09 | 26.25994 | 143.51016 | 40082 ft | 477 kts | 236° |
| 2026-05-04 07:10 | 26.22240 | 143.44967 | 40081 ft | 477 kts | 236° |
| 2026-05-04 07:12 | 26.07124 | 143.20687 | 40077 ft | 477 kts | 236° |
| 2026-05-04 07:12 | 26.03342 | 143.14632 | 40078 ft | 476 kts | 236° |
| 2026-05-04 07:13 | 25.99582 | 143.08621 | 40076 ft | 476 kts | 236° |
| 2026-05-04 07:13 | 25.95799 | 143.02580 | 40073 ft | 476 kts | 236° |
| 2026-05-04 07:14 | 25.86331 | 142.87496 | 40077 ft | 476 kts | 236° |
| 2026-05-04 07:15 | 25.82541 | 142.81473 | 40079 ft | 476 kts | 236° |
| 2026-05-04 07:15 | 25.78753 | 142.75459 | 40075 ft | 475 kts | 236° |
| 2026-05-04 07:16 | 25.74959 | 142.69444 | 40075 ft | 475 kts | 236° |
| 2026-05-04 07:16 | 25.71186 | 142.63471 | 40071 ft | 475 kts | 236° |
| 2026-05-04 07:17 | 25.67390 | 142.57466 | 40072 ft | 475 kts | 236° |
| 2026-05-04 07:17 | 25.63594 | 142.51471 | 40074 ft | 475 kts | 236° |
| 2026-05-04 07:18 | 25.59799 | 142.45486 | 40075 ft | 475 kts | 236° |
| 2026-05-04 07:18 | 25.55999 | 142.39501 | 40074 ft | 475 kts | 236° |
| 2026-05-04 07:19 | 25.52198 | 142.33520 | 40071 ft | 475 kts | 236° |
| 2026-05-04 07:19 | 25.48390 | 142.27537 | 40069 ft | 475 kts | 236° |
| 2026-05-04 07:20 | 25.44584 | 142.21564 | 40072 ft | 474 kts | 236° |
| 2026-05-04 07:20 | 25.40805 | 142.15641 | 40070 ft | 474 kts | 236° |
| 2026-05-04 07:22 | 25.25545 | 141.91798 | 40070 ft | 474 kts | 236° |
| 2026-05-04 07:23 | 25.21731 | 141.85859 | 40067 ft | 474 kts | 236° |
| 2026-05-04 07:23 | 25.18552 | 141.80914 | 40067 ft | 474 kts | 236° |
| 2026-05-04 07:24 | 25.14732 | 141.74977 | 40066 ft | 474 kts | 236° |
| 2026-05-04 07:24 | 25.10907 | 141.69041 | 40063 ft | 474 kts | 236° |
| 2026-05-04 07:26 | 24.95604 | 141.45363 | 40060 ft | 475 kts | 236° |
| 2026-05-04 07:27 | 24.91761 | 141.39436 | 40061 ft | 475 kts | 236° |
| 2026-05-04 07:27 | 24.87915 | 141.33513 | 40063 ft | 475 kts | 236° |
| 2026-05-04 07:28 | 24.84095 | 141.27635 | 40061 ft | 475 kts | 236° |
| 2026-05-04 07:28 | 24.80243 | 141.21715 | 40060 ft | 475 kts | 236° |
| 2026-05-04 07:29 | 24.76393 | 141.15805 | 40061 ft | 475 kts | 236° |
| 2026-05-04 07:29 | 24.72539 | 141.09897 | 40057 ft | 475 kts | 236° |
| 2026-05-04 07:30 | 24.68675 | 141.03981 | 40058 ft | 475 kts | 236° |
| 2026-05-04 07:30 | 24.64818 | 140.98083 | 40063 ft | 475 kts | 236° |
| 2026-05-04 07:31 | 24.60955 | 140.92182 | 40060 ft | 475 kts | 236° |
| 2026-05-04 07:33 | 24.45511 | 140.68665 | 40056 ft | 475 kts | 236° |
| 2026-05-04 07:33 | 24.41634 | 140.62779 | 40058 ft | 476 kts | 236° |
| 2026-05-04 07:34 | 24.37756 | 140.56898 | 40052 ft | 476 kts | 236° |
| 2026-05-04 07:34 | 24.33873 | 140.51016 | 40058 ft | 476 kts | 236° |
| 2026-05-04 07:35 | 24.29988 | 140.45139 | 40055 ft | 476 kts | 236° |
| 2026-05-04 07:35 | 24.26119 | 140.39293 | 40055 ft | 476 kts | 236° |
| 2026-05-04 07:36 | 24.22204 | 140.33385 | 40051 ft | 476 kts | 236° |
| 2026-05-04 07:38 | 24.06646 | 140.09975 | 40049 ft | 476 kts | 236° |
| 2026-05-04 07:38 | 24.02741 | 140.04117 | 40050 ft | 476 kts | 236° |
| 2026-05-04 07:39 | 23.98841 | 139.98244 | 40047 ft | 476 kts | 237° |
| 2026-05-04 07:39 | 23.95315 | 139.92127 | 40049 ft | 475 kts | 241° |
| 2026-05-04 07:40 | 23.91941 | 139.85908 | 40048 ft | 475 kts | 241° |
| 2026-05-04 07:40 | 23.88514 | 139.79726 | 40049 ft | 475 kts | 240° |
| 2026-05-04 07:41 | 23.85062 | 139.73621 | 40045 ft | 475 kts | 240° |
| 2026-05-04 07:41 | 23.81567 | 139.67483 | 40045 ft | 475 kts | 240° |
| 2026-05-04 07:42 | 23.78072 | 139.61348 | 40044 ft | 475 kts | 240° |
| 2026-05-04 07:42 | 23.74586 | 139.55232 | 40047 ft | 475 kts | 240° |
| 2026-05-04 07:43 | 23.71094 | 139.49112 | 40046 ft | 475 kts | 240° |
| 2026-05-04 07:43 | 23.67600 | 139.42994 | 40040 ft | 475 kts | 240° |
| 2026-05-04 07:44 | 23.64127 | 139.36921 | 40041 ft | 474 kts | 240° |
| 2026-05-04 07:44 | 23.60630 | 139.30814 | 40041 ft | 474 kts | 240° |
| 2026-05-04 07:45 | 23.57133 | 139.24712 | 40040 ft | 474 kts | 240° |
| 2026-05-04 07:45 | 23.53635 | 139.18618 | 40038 ft | 474 kts | 240° |
| 2026-05-04 07:46 | 23.50134 | 139.12527 | 40040 ft | 474 kts | 240° |
| 2026-05-04 07:46 | 23.46653 | 139.06477 | 40037 ft | 474 kts | 240° |
| 2026-05-04 07:47 | 23.43150 | 139.00396 | 40037 ft | 474 kts | 240° |
| 2026-05-04 07:49 | 23.29112 | 138.76099 | 40034 ft | 473 kts | 239° |
| 2026-05-04 07:49 | 23.25602 | 138.70043 | 40034 ft | 473 kts | 239° |
| 2026-05-04 07:50 | 23.22087 | 138.63983 | 40030 ft | 474 kts | 239° |
| 2026-05-04 07:50 | 23.18594 | 138.57971 | 40030 ft | 474 kts | 239° |
| 2026-05-04 07:51 | 23.15072 | 138.51915 | 40032 ft | 474 kts | 239° |
| 2026-05-04 07:51 | 23.11551 | 138.45868 | 40032 ft | 474 kts | 239° |
| 2026-05-04 07:52 | 23.08026 | 138.39821 | 40032 ft | 474 kts | 239° |
| 2026-05-04 07:52 | 23.04496 | 138.33772 | 40029 ft | 474 kts | 239° |
| 2026-05-04 07:54 | 22.90388 | 138.09669 | 40026 ft | 474 kts | 239° |
| 2026-05-04 07:55 | 22.86846 | 138.03637 | 40025 ft | 474 kts | 239° |
| 2026-05-04 07:55 | 22.83305 | 137.97612 | 40025 ft | 474 kts | 239° |
| 2026-05-04 07:56 | 22.79755 | 137.91578 | 40026 ft | 474 kts | 239° |
| 2026-05-04 07:56 | 22.76205 | 137.85551 | 40021 ft | 474 kts | 239° |
| 2026-05-04 07:57 | 22.72653 | 137.79530 | 40022 ft | 474 kts | 239° |
| 2026-05-04 07:57 | 22.69117 | 137.73541 | 40023 ft | 474 kts | 239° |
| 2026-05-04 07:58 | 22.65563 | 137.67528 | 40019 ft | 474 kts | 239° |
| 2026-05-04 07:58 | 22.61995 | 137.61500 | 40021 ft | 474 kts | 239° |
| 2026-05-04 07:59 | 22.58432 | 137.55486 | 40022 ft | 475 kts | 239° |
| 2026-05-04 07:59 | 22.54864 | 137.49471 | 40021 ft | 474 kts | 239° |
| 2026-05-04 08:00 | 22.51297 | 137.43465 | 40019 ft | 474 kts | 239° |
| 2026-05-04 08:02 | 22.37020 | 137.19491 | 40022 ft | 475 kts | 239° |
| 2026-05-04 08:02 | 22.33434 | 137.13487 | 40018 ft | 475 kts | 239° |
| 2026-05-04 08:03 | 22.29852 | 137.07495 | 40015 ft | 475 kts | 239° |
| 2026-05-04 08:03 | 22.26264 | 137.01502 | 40013 ft | 475 kts | 239° |
| 2026-05-04 08:04 | 22.22674 | 136.95512 | 40018 ft | 475 kts | 239° |
| 2026-05-04 08:04 | 22.19103 | 136.89559 | 40020 ft | 475 kts | 239° |
| 2026-05-04 08:05 | 22.15508 | 136.83574 | 40012 ft | 475 kts | 239° |
| 2026-05-04 08:05 | 22.11912 | 136.77592 | 40017 ft | 475 kts | 238° |
| 2026-05-04 08:06 | 22.08308 | 136.71606 | 40009 ft | 475 kts | 238° |
| 2026-05-04 08:06 | 22.04733 | 136.65673 | 40015 ft | 475 kts | 238° |
| 2026-05-04 08:08 | 21.90289 | 136.41771 | 40011 ft | 475 kts | 238° |
| 2026-05-04 08:11 | 21.74029 | 136.14989 | 40010 ft | 475 kts | 238° |
| 2026-05-04 08:11 | 21.68590 | 136.06059 | 40009 ft | 475 kts | 238° |
| 2026-05-04 08:12 | 21.65575 | 136.01116 | 40008 ft | 475 kts | 238° |
| 2026-05-04 08:12 | 21.61941 | 135.95162 | 40006 ft | 475 kts | 238° |
| 2026-05-04 08:13 | 21.58310 | 135.89222 | 40007 ft | 475 kts | 238° |
| 2026-05-04 08:13 | 21.54677 | 135.83285 | 40008 ft | 475 kts | 238° |
| 2026-05-04 08:14 | 21.51068 | 135.77392 | 40005 ft | 475 kts | 238° |
| 2026-05-04 08:16 | 21.36501 | 135.53671 | 40002 ft | 475 kts | 238° |
| 2026-05-04 08:16 | 21.32856 | 135.47751 | 40000 ft | 475 kts | 238° |
| 2026-05-04 08:17 | 21.29208 | 135.41834 | 40001 ft | 475 kts | 238° |
| 2026-05-04 08:17 | 21.25559 | 135.35921 | 40001 ft | 475 kts | 238° |
| 2026-05-04 08:19 | 21.10969 | 135.12339 | 39998 ft | 475 kts | 238° |
| 2026-05-04 08:20 | 21.07306 | 135.06434 | 39997 ft | 476 kts | 238° |
| 2026-05-04 08:20 | 21.03639 | 135.00530 | 39994 ft | 475 kts | 238° |
| 2026-05-04 08:21 | 21.00135 | 134.94583 | 39997 ft | 474 kts | 244° |
| 2026-05-04 08:21 | 20.97448 | 134.88159 | 39997 ft | 473 kts | 248° |
| 2026-05-04 08:22 | 20.94930 | 134.81635 | 39996 ft | 473 kts | 249° |
| 2026-05-04 08:24 | 20.84888 | 134.55593 | 39996 ft | 474 kts | 249° |
| 2026-05-04 08:24 | 20.82375 | 134.49127 | 39995 ft | 474 kts | 249° |
| 2026-05-04 08:25 | 20.79843 | 134.42617 | 39994 ft | 474 kts | 249° |
| 2026-05-04 08:25 | 20.77309 | 134.36111 | 39995 ft | 474 kts | 249° |
| 2026-05-04 08:27 | 20.67146 | 134.10105 | 39996 ft | 474 kts | 248° |
| 2026-05-04 08:28 | 20.64612 | 134.03640 | 39995 ft | 474 kts | 248° |
| 2026-05-04 08:28 | 20.62063 | 133.97144 | 39993 ft | 474 kts | 248° |
| 2026-05-04 08:29 | 20.59509 | 133.90649 | 39993 ft | 475 kts | 248° |
| 2026-05-04 08:31 | 20.49276 | 133.64695 | 39993 ft | 475 kts | 248° |
| 2026-05-04 08:33 | 20.38984 | 133.38726 | 39992 ft | 475 kts | 248° |
| 2026-05-04 08:35 | 20.28663 | 133.12814 | 39990 ft | 475 kts | 248° |
| 2026-05-04 08:35 | 20.26072 | 133.06330 | 39989 ft | 475 kts | 248° |
| 2026-05-04 08:37 | 20.17000 | 132.83690 | 39988 ft | 475 kts | 248° |
| 2026-05-04 08:38 | 20.14400 | 132.77219 | 39986 ft | 475 kts | 248° |
| 2026-05-04 08:38 | 20.11800 | 132.70756 | 39985 ft | 475 kts | 248° |
| 2026-05-04 08:40 | 20.01379 | 132.44934 | 39989 ft | 474 kts | 248° |
| 2026-05-04 08:41 | 19.98787 | 132.38530 | 39987 ft | 474 kts | 248° |
| 2026-05-04 08:41 | 19.96173 | 132.32082 | 39986 ft | 474 kts | 248° |
| 2026-05-04 08:42 | 19.93565 | 132.25655 | 39984 ft | 474 kts | 248° |
| 2026-05-04 08:42 | 19.90951 | 132.19221 | 39985 ft | 473 kts | 248° |
| 2026-05-04 08:43 | 19.88341 | 132.12804 | 39983 ft | 473 kts | 248° |
| 2026-05-04 08:43 | 19.85725 | 132.06380 | 39984 ft | 473 kts | 248° |
| 2026-05-04 08:44 | 19.83127 | 132.00010 | 39983 ft | 473 kts | 248° |
| 2026-05-04 08:46 | 19.72648 | 131.74387 | 39982 ft | 472 kts | 248° |
| 2026-05-04 08:46 | 19.70026 | 131.67995 | 39980 ft | 472 kts | 247° |
| 2026-05-04 08:47 | 19.67419 | 131.61648 | 39983 ft | 472 kts | 247° |
| 2026-05-04 08:47 | 19.64793 | 131.55262 | 39983 ft | 472 kts | 247° |
| 2026-05-04 08:48 | 19.62160 | 131.48866 | 39977 ft | 472 kts | 247° |
| 2026-05-04 08:48 | 19.59528 | 131.42480 | 39980 ft | 472 kts | 247° |
| 2026-05-04 08:49 | 19.56893 | 131.36097 | 39978 ft | 472 kts | 247° |
| 2026-05-04 08:50 | 19.47679 | 131.13828 | 39974 ft | 472 kts | 247° |
| 2026-05-04 08:51 | 19.45038 | 131.07460 | 39972 ft | 472 kts | 247° |
| 2026-05-04 08:51 | 19.42396 | 131.01098 | 39991 ft | 471 kts | 247° |
| 2026-05-04 08:52 | 19.39753 | 130.94743 | 39973 ft | 471 kts | 247° |
| 2026-05-04 08:52 | 19.37109 | 130.88391 | 39966 ft | 471 kts | 247° |
| 2026-05-04 08:54 | 19.26543 | 130.63084 | 39965 ft | 470 kts | 247° |
| 2026-05-04 08:55 | 19.23894 | 130.56756 | 39965 ft | 470 kts | 247° |
| 2026-05-04 08:55 | 19.21244 | 130.50434 | 39985 ft | 470 kts | 247° |
| 2026-05-04 09:01 | 18.92105 | 129.85130 | 39961 ft | 468 kts | 242° |
| 2026-05-04 09:01 | 18.89445 | 129.80149 | 39967 ft | 467 kts | 242° |
| 2026-05-04 09:02 | 18.86250 | 129.74161 | 39968 ft | 467 kts | 242° |
| 2026-05-04 09:02 | 18.83066 | 129.68189 | 39966 ft | 467 kts | 242° |
| 2026-05-04 09:03 | 18.79878 | 129.62215 | 39964 ft | 467 kts | 242° |
| 2026-05-04 09:03 | 18.76690 | 129.56249 | 39966 ft | 466 kts | 242° |
| 2026-05-04 09:04 | 18.73500 | 129.50284 | 39968 ft | 466 kts | 242° |
| 2026-05-04 09:04 | 18.70315 | 129.44335 | 39964 ft | 466 kts | 242° |
| 2026-05-04 09:05 | 18.67148 | 129.38424 | 39968 ft | 465 kts | 242° |
| 2026-05-04 09:05 | 18.63959 | 129.32478 | 39964 ft | 465 kts | 242° |
| 2026-05-04 09:06 | 18.60769 | 129.26536 | 39954 ft | 465 kts | 242° |
| 2026-05-04 09:08 | 18.48007 | 129.02822 | 39958 ft | 464 kts | 242° |
| 2026-05-04 09:08 | 18.44816 | 128.96908 | 39958 ft | 464 kts | 242° |
| 2026-05-04 09:09 | 18.41628 | 128.91003 | 39955 ft | 464 kts | 242° |
| 2026-05-04 09:09 | 18.38437 | 128.85100 | 39959 ft | 464 kts | 242° |
| 2026-05-04 09:10 | 18.35266 | 128.79237 | 39956 ft | 463 kts | 242° |
| 2026-05-04 09:10 | 18.32074 | 128.73342 | 39960 ft | 463 kts | 242° |
| 2026-05-04 09:11 | 18.28883 | 128.67455 | 39957 ft | 463 kts | 242° |
| 2026-05-04 09:11 | 18.25697 | 128.61582 | 39957 ft | 462 kts | 242° |
| 2026-05-04 09:12 | 18.22506 | 128.55705 | 39956 ft | 462 kts | 242° |
| 2026-05-04 09:14 | 18.09752 | 128.32272 | 39957 ft | 461 kts | 242° |
| 2026-05-04 09:14 | 18.06583 | 128.26462 | 39957 ft | 461 kts | 242° |
| 2026-05-04 09:15 | 18.03393 | 128.20620 | 39955 ft | 460 kts | 242° |
| 2026-05-04 09:15 | 18.00204 | 128.14783 | 39957 ft | 460 kts | 242° |
| 2026-05-04 09:17 | 17.85857 | 127.88596 | 39951 ft | 460 kts | 242° |
| 2026-05-04 09:18 | 17.82666 | 127.82786 | 39951 ft | 459 kts | 242° |
| 2026-05-04 09:18 | 17.79471 | 127.76974 | 39952 ft | 459 kts | 242° |
| 2026-05-04 09:19 | 17.76279 | 127.71171 | 39952 ft | 459 kts | 242° |
| 2026-05-04 09:19 | 17.73079 | 127.65361 | 39953 ft | 459 kts | 242° |
| 2026-05-04 09:20 | 17.69879 | 127.59556 | 39948 ft | 459 kts | 242° |
| 2026-05-04 09:20 | 17.66680 | 127.53758 | 39951 ft | 459 kts | 242° |
| 2026-05-04 09:21 | 17.63479 | 127.47960 | 39949 ft | 459 kts | 242° |
| 2026-05-04 09:21 | 17.60278 | 127.42169 | 39950 ft | 459 kts | 242° |
| 2026-05-04 09:22 | 17.57098 | 127.36419 | 39954 ft | 459 kts | 242° |
| 2026-05-04 09:22 | 17.53897 | 127.30637 | 39950 ft | 459 kts | 242° |
| 2026-05-04 09:23 | 17.50693 | 127.24855 | 39948 ft | 458 kts | 242° |
| 2026-05-04 09:23 | 17.47488 | 127.19075 | 39948 ft | 458 kts | 242° |
| 2026-05-04 09:25 | 17.34667 | 126.96009 | 39953 ft | 458 kts | 242° |
| 2026-05-04 09:26 | 17.31478 | 126.90283 | 39945 ft | 458 kts | 242° |
| 2026-05-04 09:26 | 17.28268 | 126.84524 | 39943 ft | 458 kts | 241° |
| 2026-05-04 09:27 | 17.25059 | 126.78773 | 39948 ft | 458 kts | 241° |
| 2026-05-04 09:27 | 17.21850 | 126.73027 | 39947 ft | 457 kts | 241° |
| 2026-05-04 09:28 | 17.18636 | 126.67276 | 39948 ft | 457 kts | 241° |
| 2026-05-04 09:28 | 17.15421 | 126.61529 | 39946 ft | 457 kts | 241° |
| 2026-05-04 09:29 | 17.12227 | 126.55825 | 39948 ft | 457 kts | 241° |
| 2026-05-04 09:29 | 17.09020 | 126.50078 | 39946 ft | 457 kts | 242° |
| 2026-05-04 09:30 | 17.05833 | 126.44329 | 39946 ft | 457 kts | 242° |
| 2026-05-04 09:30 | 17.02637 | 126.38571 | 39950 ft | 457 kts | 242° |
| 2026-05-04 09:31 | 16.99447 | 126.32836 | 39949 ft | 457 kts | 241° |
| 2026-05-04 09:31 | 16.96267 | 126.27127 | 39947 ft | 457 kts | 241° |
| 2026-05-04 09:32 | 16.93069 | 126.21390 | 39944 ft | 456 kts | 241° |
| 2026-05-04 09:34 | 16.80266 | 125.98470 | 39945 ft | 457 kts | 241° |
| 2026-05-04 09:34 | 16.77062 | 125.92747 | 39943 ft | 457 kts | 241° |
| 2026-05-04 09:35 | 16.73877 | 125.87062 | 39946 ft | 457 kts | 241° |
| 2026-05-04 09:35 | 16.70664 | 125.81330 | 39941 ft | 456 kts | 241° |
| 2026-05-04 09:37 | 16.57833 | 125.58494 | 39944 ft | 457 kts | 241° |
| 2026-05-04 09:38 | 16.54616 | 125.52779 | 39945 ft | 457 kts | 241° |
| 2026-05-04 09:38 | 16.51397 | 125.47067 | 39945 ft | 457 kts | 241° |
| 2026-05-04 09:39 | 16.48176 | 125.41356 | 39945 ft | 457 kts | 240° |
| 2026-05-04 09:39 | 16.44952 | 125.35642 | 39944 ft | 457 kts | 240° |
| 2026-05-04 09:40 | 16.41747 | 125.29968 | 39942 ft | 457 kts | 240° |
| 2026-05-04 09:40 | 16.38522 | 125.24263 | 39943 ft | 458 kts | 240° |
| 2026-05-04 09:42 | 16.25574 | 125.01404 | 39941 ft | 458 kts | 240° |
| 2026-05-04 09:43 | 16.22331 | 124.95691 | 39941 ft | 458 kts | 240° |
| 2026-05-04 09:43 | 16.19087 | 124.89981 | 39938 ft | 459 kts | 240° |
| 2026-05-04 09:44 | 16.15859 | 124.84301 | 39939 ft | 459 kts | 240° |
| 2026-05-04 09:46 | 16.02846 | 124.61456 | 39939 ft | 460 kts | 240° |
| 2026-05-04 09:46 | 15.99581 | 124.55736 | 39939 ft | 460 kts | 240° |
| 2026-05-04 09:47 | 15.96316 | 124.50019 | 39938 ft | 460 kts | 240° |
| 2026-05-04 09:49 | 15.83213 | 124.27126 | 39935 ft | 461 kts | 240° |
| 2026-05-04 09:51 | 15.72271 | 124.08062 | 39935 ft | 461 kts | 240° |
| 2026-05-04 09:51 | 15.68980 | 124.02338 | 39935 ft | 461 kts | 240° |
| 2026-05-04 09:52 | 15.65712 | 123.96659 | 39930 ft | 461 kts | 240° |
| 2026-05-04 09:52 | 15.62421 | 123.90942 | 39936 ft | 461 kts | 240° |
| 2026-05-04 09:53 | 15.59122 | 123.85218 | 39936 ft | 461 kts | 240° |
| 2026-05-04 09:53 | 15.55831 | 123.79512 | 39935 ft | 461 kts | 240° |
| 2026-05-04 09:54 | 15.52538 | 123.73806 | 39933 ft | 461 kts | 240° |
| 2026-05-04 09:54 | 15.49243 | 123.68102 | 39933 ft | 460 kts | 240° |
| 2026-05-04 09:55 | 15.45951 | 123.62407 | 39930 ft | 460 kts | 240° |
| 2026-05-04 09:55 | 15.42659 | 123.56716 | 39931 ft | 461 kts | 240° |
| 2026-05-04 09:56 | 15.39362 | 123.51020 | 39934 ft | 461 kts | 240° |
| 2026-05-04 09:56 | 15.36062 | 123.45324 | 39935 ft | 461 kts | 240° |
| 2026-05-04 09:57 | 15.32760 | 123.39629 | 39932 ft | 461 kts | 240° |
| 2026-05-04 09:57 | 15.29482 | 123.33979 | 39933 ft | 460 kts | 240° |
| 2026-05-04 09:58 | 15.26178 | 123.28290 | 39935 ft | 461 kts | 240° |
| 2026-05-04 09:58 | 15.22875 | 123.22605 | 39935 ft | 460 kts | 240° |
| 2026-05-04 10:00 | 15.09629 | 122.99853 | 39928 ft | 462 kts | 240° |
| 2026-05-04 10:04 | 14.86357 | 122.60040 | 39930 ft | 463 kts | 240° |
| 2026-05-04 10:04 | 14.83042 | 122.54385 | 39928 ft | 463 kts | 240° |
| 2026-05-04 10:05 | 14.79702 | 122.48693 | 39918 ft | 463 kts | 240° |
| 2026-05-04 10:05 | 14.76356 | 122.42994 | 39916 ft | 463 kts | 240° |
| 2026-05-04 10:06 | 14.73011 | 122.37302 | 39920 ft | 464 kts | 240° |
| 2026-05-04 10:06 | 14.69147 | 122.31955 | 39915 ft | 466 kts | 226° |
| 2026-05-04 10:08 | 14.52051 | 122.16439 | 39914 ft | 469 kts | 222° |
| 2026-05-04 10:08 | 14.47105 | 122.12009 | 39916 ft | 470 kts | 223° |
| 2026-05-04 10:09 | 14.42175 | 122.07588 | 39929 ft | 470 kts | 222° |
| 2026-05-04 10:09 | 14.37237 | 122.03162 | 39927 ft | 470 kts | 222° |
| 2026-05-04 10:10 | 14.32303 | 121.98742 | 39929 ft | 470 kts | 222° |
| 2026-05-04 10:10 | 14.27392 | 121.94347 | 39912 ft | 470 kts | 222° |
| 2026-05-04 10:11 | 14.22447 | 121.89925 | 39913 ft | 470 kts | 222° |
| 2026-05-04 10:11 | 14.17499 | 121.85503 | 39926 ft | 471 kts | 222° |
| 2026-05-04 10:12 | 14.12548 | 121.81079 | 39924 ft | 471 kts | 222° |
| 2026-05-04 10:12 | 14.07593 | 121.76656 | 39930 ft | 471 kts | 222° |
| 2026-05-04 10:13 | 14.02636 | 121.72233 | 39921 ft | 470 kts | 222° |
| 2026-05-04 10:13 | 13.97717 | 121.67846 | 39906 ft | 470 kts | 222° |
| 2026-05-04 10:14 | 13.92774 | 121.63442 | 39920 ft | 469 kts | 222° |
| 2026-05-04 10:16 | 13.73108 | 121.45940 | 39904 ft | 468 kts | 222° |
| 2026-05-04 10:16 | 13.68181 | 121.41562 | 39908 ft | 468 kts | 222° |
| 2026-05-04 10:17 | 13.63246 | 121.37179 | 39909 ft | 469 kts | 221° |
| 2026-05-04 10:19 | 13.43498 | 121.19670 | 39914 ft | 469 kts | 221° |
| 2026-05-04 10:19 | 13.38553 | 121.15287 | 39917 ft | 470 kts | 221° |
| 2026-05-04 10:20 | 13.33596 | 121.10898 | 39922 ft | 470 kts | 221° |
| 2026-05-04 10:20 | 13.28706 | 121.06573 | 39921 ft | 470 kts | 221° |
| 2026-05-04 10:21 | 13.23741 | 121.02187 | 39934 ft | 470 kts | 221° |
| 2026-05-04 10:21 | 13.18785 | 120.97812 | 39931 ft | 470 kts | 221° |
| 2026-05-04 10:22 | 13.11341 | 120.91232 | 39928 ft | 471 kts | 221° |
| 2026-05-04 10:23 | 13.06379 | 120.86853 | 39926 ft | 471 kts | 221° |
| 2026-05-04 10:25 | 12.86500 | 120.69341 | 39902 ft | 472 kts | 221° |
| 2026-05-04 10:25 | 12.81512 | 120.64952 | 39895 ft | 472 kts | 221° |
| 2026-05-04 10:26 | 12.76532 | 120.60570 | 39889 ft | 472 kts | 221° |
| 2026-05-04 10:26 | 12.71543 | 120.56184 | 39886 ft | 472 kts | 221° |
| 2026-05-04 10:27 | 12.66555 | 120.51801 | 39893 ft | 473 kts | 220° |
| 2026-05-04 10:27 | 12.61558 | 120.47414 | 39885 ft | 473 kts | 220° |
| 2026-05-04 10:28 | 12.56561 | 120.43030 | 39890 ft | 473 kts | 220° |
| 2026-05-04 10:28 | 12.51588 | 120.38668 | 39893 ft | 474 kts | 220° |
| 2026-05-04 10:29 | 12.46584 | 120.34281 | 39892 ft | 474 kts | 220° |
| 2026-05-04 10:29 | 12.41576 | 120.29893 | 39889 ft | 474 kts | 220° |
| 2026-05-04 10:30 | 12.36559 | 120.25500 | 39877 ft | 474 kts | 220° |
| 2026-05-04 10:30 | 12.31547 | 120.21114 | 39889 ft | 474 kts | 220° |
| 2026-05-04 10:31 | 12.26531 | 120.16725 | 39897 ft | 474 kts | 220° |
| 2026-05-04 10:32 | 12.09003 | 120.01411 | 39883 ft | 475 kts | 220° |
| 2026-05-04 10:33 | 12.03981 | 119.97028 | 39882 ft | 475 kts | 220° |
| 2026-05-04 10:33 | 11.98954 | 119.92643 | 39901 ft | 475 kts | 220° |
| 2026-05-04 10:34 | 11.93923 | 119.88257 | 39898 ft | 475 kts | 220° |
| 2026-05-04 10:34 | 11.88888 | 119.83869 | 39898 ft | 475 kts | 220° |
| 2026-05-04 10:35 | 11.83852 | 119.79483 | 39893 ft | 476 kts | 220° |
| 2026-05-04 10:35 | 11.78809 | 119.75093 | 39895 ft | 476 kts | 220° |
| 2026-05-04 10:36 | 11.73758 | 119.70700 | 39883 ft | 477 kts | 220° |
| 2026-05-04 10:36 | 11.69071 | 119.65975 | 39902 ft | 477 kts | 231° |
| 2026-05-04 10:37 | 11.65055 | 119.60575 | 39883 ft | 478 kts | 233° |
| 2026-05-04 10:37 | 11.61145 | 119.55071 | 39881 ft | 479 kts | 233° |
| 2026-05-04 10:39 | 11.48060 | 119.36717 | 39899 ft | 480 kts | 233° |
| 2026-05-04 10:40 | 11.44113 | 119.31208 | 39900 ft | 481 kts | 233° |
| 2026-05-04 10:40 | 11.40186 | 119.25730 | 39900 ft | 481 kts | 233° |
| 2026-05-04 10:41 | 11.36237 | 119.20222 | 39884 ft | 481 kts | 233° |
| 2026-05-04 10:41 | 11.32286 | 119.14716 | 39891 ft | 481 kts | 233° |
| 2026-05-04 10:42 | 11.28328 | 119.09202 | 39891 ft | 481 kts | 233° |
| 2026-05-04 10:42 | 11.24373 | 119.03695 | 39887 ft | 482 kts | 233° |
| 2026-05-04 10:43 | 11.20413 | 118.98185 | 39885 ft | 482 kts | 233° |
| 2026-05-04 10:45 | 11.04590 | 118.76202 | 39903 ft | 482 kts | 233° |
| 2026-05-04 10:45 | 11.00616 | 118.70683 | 39887 ft | 483 kts | 233° |
| 2026-05-04 10:46 | 10.96647 | 118.65176 | 39885 ft | 483 kts | 233° |
| 2026-05-04 10:46 | 10.92696 | 118.59699 | 39889 ft | 483 kts | 233° |
| 2026-05-04 10:47 | 10.88712 | 118.54179 | 39886 ft | 483 kts | 233° |
| 2026-05-04 10:47 | 10.84730 | 118.48665 | 39886 ft | 483 kts | 232° |
| 2026-05-04 10:49 | 10.68784 | 118.26609 | 39886 ft | 484 kts | 232° |
| 2026-05-04 10:50 | 10.64821 | 118.21137 | 39887 ft | 484 kts | 232° |
| 2026-05-04 10:52 | 10.48874 | 117.99133 | 39895 ft | 483 kts | 232° |
| 2026-05-04 10:52 | 10.44884 | 117.93637 | 39895 ft | 483 kts | 232° |
| 2026-05-04 10:54 | 10.29005 | 117.71677 | 39890 ft | 483 kts | 233° |
| 2026-05-04 10:56 | 10.13186 | 117.49582 | 39891 ft | 484 kts | 232° |
| 2026-05-04 10:57 | 10.09228 | 117.44068 | 39894 ft | 483 kts | 232° |
| 2026-05-04 10:57 | 10.05270 | 117.38561 | 39893 ft | 483 kts | 232° |
| 2026-05-04 10:58 | 10.01310 | 117.33051 | 39893 ft | 483 kts | 232° |
| 2026-05-04 10:58 | 9.97357 | 117.27550 | 39890 ft | 482 kts | 232° |
| 2026-05-04 10:59 | 9.93402 | 117.22052 | 39887 ft | 482 kts | 232° |
| 2026-05-04 10:59 | 9.89450 | 117.16557 | 39890 ft | 482 kts | 232° |
| 2026-05-04 11:00 | 9.85525 | 117.11102 | 39894 ft | 481 kts | 232° |
| 2026-05-04 11:02 | 9.69721 | 116.89179 | 39883 ft | 483 kts | 232° |
| 2026-05-04 11:05 | 9.39761 | 116.47720 | 39889 ft | 490 kts | 232° |
| 2026-05-04 11:06 | 9.35723 | 116.42142 | 39888 ft | 492 kts | 232° |
| 2026-05-04 11:06 | 9.31675 | 116.36555 | 39890 ft | 492 kts | 232° |
| 2026-05-04 11:10 | 9.03370 | 115.97787 | 39890 ft | 487 kts | 233° |
| 2026-05-04 11:12 | 8.87315 | 115.75872 | 39893 ft | 486 kts | 232° |
| 2026-05-04 11:12 | 8.83296 | 115.70387 | 40115 ft | 485 kts | 232° |
| 2026-05-04 11:13 | 8.81312 | 115.67680 | 40355 ft | 485 kts | 232° |
| 2026-05-04 11:13 | 8.79305 | 115.64944 | 40602 ft | 484 kts | 232° |
| 2026-05-04 11:13 | 8.77293 | 115.62202 | 40833 ft | 484 kts | 232° |
| 2026-05-04 11:13 | 8.75292 | 115.59475 | 41041 ft | 484 kts | 232° |
| 2026-05-04 11:14 | 8.73285 | 115.56741 | 41276 ft | 483 kts | 232° |
| 2026-05-04 11:14 | 8.71285 | 115.54018 | 41495 ft | 483 kts | 232° |
| 2026-05-04 11:14 | 8.69286 | 115.51295 | 41687 ft | 483 kts | 232° |
| 2026-05-04 11:16 | 8.55293 | 115.32254 | 42895 ft | 483 kts | 232° |
| 2026-05-04 11:16 | 8.51250 | 115.26760 | 42895 ft | 489 kts | 232° |
| 2026-05-04 11:17 | 8.47181 | 115.21231 | 42892 ft | 490 kts | 233° |
| 2026-05-04 11:19 | 8.30920 | 114.99153 | 42894 ft | 491 kts | 233° |
| 2026-05-04 11:19 | 8.26854 | 114.93638 | 42891 ft | 491 kts | 233° |
| 2026-05-04 11:20 | 8.22767 | 114.88098 | 42893 ft | 491 kts | 233° |
| 2026-05-04 11:20 | 8.18684 | 114.82565 | 42890 ft | 491 kts | 233° |
| 2026-05-04 11:22 | 8.02336 | 114.60432 | 42894 ft | 492 kts | 233° |
| 2026-05-04 11:23 | 7.98247 | 114.54901 | 42892 ft | 492 kts | 233° |
| 2026-05-04 11:25 | 7.84613 | 114.36475 | 42889 ft | 492 kts | 233° |
| 2026-05-04 11:25 | 7.80521 | 114.30949 | 42890 ft | 492 kts | 233° |
| 2026-05-04 11:27 | 7.62112 | 114.06115 | 42889 ft | 491 kts | 233° |
| 2026-05-04 11:28 | 7.58017 | 114.00597 | 42889 ft | 491 kts | 233° |
| 2026-05-04 11:28 | 7.53918 | 113.95075 | 42886 ft | 491 kts | 233° |
| 2026-05-04 11:29 | 7.49824 | 113.89562 | 42887 ft | 491 kts | 233° |
| 2026-05-04 11:29 | 7.45749 | 113.84076 | 42892 ft | 491 kts | 233° |
| 2026-05-04 11:33 | 7.17071 | 113.45523 | 42887 ft | 491 kts | 233° |
| 2026-05-04 11:33 | 7.12965 | 113.40011 | 42890 ft | 491 kts | 233° |
| 2026-05-04 11:34 | 7.08864 | 113.34507 | 42889 ft | 491 kts | 233° |
| 2026-05-04 11:34 | 7.04758 | 113.28999 | 42891 ft | 491 kts | 233° |
| 2026-05-04 11:35 | 7.00653 | 113.23494 | 42890 ft | 491 kts | 233° |
| 2026-05-04 11:35 | 6.96574 | 113.18025 | 42890 ft | 491 kts | 233° |
| 2026-05-04 11:36 | 6.92467 | 113.12520 | 42891 ft | 491 kts | 233° |
| 2026-05-04 11:36 | 6.88361 | 113.07019 | 42887 ft | 491 kts | 233° |
| 2026-05-04 11:37 | 6.84258 | 113.01523 | 42889 ft | 491 kts | 233° |
| 2026-05-04 11:37 | 6.80152 | 112.96026 | 42885 ft | 491 kts | 233° |
| 2026-05-04 11:38 | 6.76047 | 112.90531 | 42885 ft | 491 kts | 233° |
| 2026-05-04 11:38 | 6.71932 | 112.85025 | 42887 ft | 491 kts | 233° |
| 2026-05-04 11:39 | 6.67826 | 112.79532 | 42889 ft | 491 kts | 233° |
| 2026-05-04 11:41 | 6.53459 | 112.60327 | 42888 ft | 492 kts | 233° |
| 2026-05-04 11:41 | 6.49342 | 112.54832 | 42889 ft | 492 kts | 233° |
| 2026-05-04 11:42 | 6.45226 | 112.49335 | 42889 ft | 492 kts | 233° |
| 2026-05-04 11:42 | 6.41107 | 112.43835 | 42891 ft | 492 kts | 233° |
| 2026-05-04 11:43 | 6.36986 | 112.38337 | 42890 ft | 492 kts | 233° |
| 2026-05-04 11:43 | 6.32870 | 112.32846 | 42887 ft | 492 kts | 233° |
| 2026-05-04 11:44 | 6.28747 | 112.27348 | 42888 ft | 492 kts | 233° |
| 2026-05-04 11:44 | 6.24620 | 112.21846 | 42891 ft | 492 kts | 233° |
| 2026-05-04 11:45 | 6.20525 | 112.16389 | 42887 ft | 492 kts | 233° |
| 2026-05-04 11:45 | 6.16394 | 112.10886 | 42889 ft | 492 kts | 233° |
| 2026-05-04 11:46 | 6.12268 | 112.05390 | 42887 ft | 492 kts | 233° |
| 2026-05-04 11:46 | 6.08142 | 111.99896 | 42889 ft | 492 kts | 233° |
| 2026-05-04 11:47 | 6.04007 | 111.94392 | 42894 ft | 493 kts | 233° |
| 2026-05-04 11:47 | 5.99873 | 111.88890 | 42894 ft | 493 kts | 233° |
| 2026-05-04 11:48 | 5.95760 | 111.83418 | 42889 ft | 493 kts | 233° |
| 2026-05-04 11:48 | 5.91625 | 111.77919 | 42892 ft | 494 kts | 233° |
| 2026-05-04 11:49 | 5.87474 | 111.72400 | 42889 ft | 494 kts | 233° |
| 2026-05-04 11:49 | 5.83328 | 111.66888 | 42889 ft | 495 kts | 233° |
| 2026-05-04 11:50 | 5.79204 | 111.61408 | 42889 ft | 495 kts | 233° |
| 2026-05-04 11:50 | 5.75053 | 111.55893 | 42892 ft | 495 kts | 233° |
| 2026-05-04 11:51 | 5.70902 | 111.50381 | 42891 ft | 495 kts | 233° |
| 2026-05-04 11:51 | 5.66743 | 111.44858 | 42892 ft | 495 kts | 233° |
| 2026-05-04 11:52 | 5.62575 | 111.39325 | 42885 ft | 496 kts | 233° |
| 2026-05-04 11:52 | 5.58416 | 111.33805 | 42885 ft | 496 kts | 233° |
| 2026-05-04 11:53 | 5.54252 | 111.28281 | 42887 ft | 496 kts | 233° |
| 2026-05-04 11:53 | 5.50118 | 111.22797 | 42887 ft | 496 kts | 233° |
| 2026-05-04 11:55 | 5.33452 | 111.00707 | 42890 ft | 496 kts | 233° |
| 2026-05-04 11:56 | 5.29310 | 110.95220 | 42891 ft | 496 kts | 233° |
| 2026-05-04 11:56 | 5.25145 | 110.89703 | 42886 ft | 496 kts | 233° |
| 2026-05-04 11:57 | 5.20983 | 110.84193 | 42883 ft | 496 kts | 233° |
| 2026-05-04 11:57 | 5.16809 | 110.78668 | 42883 ft | 496 kts | 233° |
| 2026-05-04 11:58 | 5.12637 | 110.73147 | 42885 ft | 496 kts | 232° |
| 2026-05-04 11:58 | 5.08493 | 110.67664 | 42883 ft | 496 kts | 232° |
| 2026-05-04 11:59 | 5.04325 | 110.62151 | 42883 ft | 496 kts | 232° |
| 2026-05-04 11:59 | 5.00158 | 110.56640 | 42885 ft | 496 kts | 232° |
| 2026-05-04 12:00 | 4.95986 | 110.51124 | 42884 ft | 496 kts | 232° |
| 2026-05-04 12:00 | 4.91810 | 110.45605 | 42882 ft | 496 kts | 232° |
| 2026-05-04 12:01 | 4.87638 | 110.40092 | 42881 ft | 496 kts | 232° |
| 2026-05-04 12:02 | 4.73014 | 110.20776 | 42883 ft | 497 kts | 232° |
| 2026-05-04 12:03 | 4.68831 | 110.15254 | 42882 ft | 497 kts | 232° |
| 2026-05-04 12:03 | 4.64673 | 110.09765 | 42879 ft | 497 kts | 232° |
| 2026-05-04 12:04 | 4.60486 | 110.04241 | 42884 ft | 498 kts | 232° |
| 2026-05-04 12:04 | 4.56301 | 109.98720 | 42887 ft | 498 kts | 232° |
| 2026-05-04 12:05 | 4.52106 | 109.93187 | 42885 ft | 498 kts | 232° |
| 2026-05-04 12:05 | 4.47917 | 109.87663 | 42883 ft | 498 kts | 232° |
| 2026-05-04 12:06 | 4.43722 | 109.82132 | 42887 ft | 498 kts | 232° |
| 2026-05-04 12:06 | 4.39530 | 109.76607 | 42887 ft | 498 kts | 232° |
| 2026-05-04 12:07 | 4.35339 | 109.71083 | 42887 ft | 498 kts | 232° |
| 2026-05-04 12:07 | 4.31161 | 109.65580 | 42883 ft | 498 kts | 232° |
| 2026-05-04 12:08 | 4.26957 | 109.60041 | 42885 ft | 499 kts | 232° |
| 2026-05-04 12:08 | 4.22754 | 109.54509 | 42887 ft | 499 kts | 232° |
| 2026-05-04 12:09 | 4.18554 | 109.48978 | 42888 ft | 499 kts | 233° |
| 2026-05-04 12:09 | 4.14339 | 109.43429 | 42886 ft | 499 kts | 233° |
| 2026-05-04 12:10 | 4.10130 | 109.37889 | 42886 ft | 500 kts | 233° |
| 2026-05-04 12:10 | 4.05919 | 109.32349 | 42886 ft | 500 kts | 233° |
| 2026-05-04 12:11 | 4.01728 | 109.26835 | 42884 ft | 500 kts | 233° |
| 2026-05-04 12:11 | 3.97510 | 109.21287 | 42885 ft | 500 kts | 233° |
| 2026-05-04 12:12 | 3.93291 | 109.15739 | 42883 ft | 501 kts | 233° |
| 2026-05-04 12:12 | 3.89780 | 109.11123 | 42885 ft | 500 kts | 233° |
| 2026-05-04 12:14 | 3.72920 | 108.88966 | 42886 ft | 501 kts | 233° |
| 2026-05-04 12:15 | 3.68696 | 108.83416 | 42886 ft | 501 kts | 233° |
| 2026-05-04 12:15 | 3.64482 | 108.77858 | 42886 ft | 501 kts | 233° |
| 2026-05-04 12:16 | 3.60267 | 108.72296 | 42885 ft | 501 kts | 233° |
| 2026-05-04 12:16 | 3.56049 | 108.66733 | 42886 ft | 501 kts | 233° |
| 2026-05-04 12:17 | 3.51862 | 108.61215 | 42889 ft | 501 kts | 233° |
| 2026-05-04 12:17 | 3.47646 | 108.55660 | 42887 ft | 501 kts | 233° |
| 2026-05-04 12:18 | 3.43428 | 108.50104 | 42885 ft | 501 kts | 233° |
| 2026-05-04 12:18 | 3.39210 | 108.44548 | 42889 ft | 501 kts | 233° |
| 2026-05-04 12:19 | 3.34996 | 108.38999 | 42887 ft | 501 kts | 233° |
| 2026-05-04 12:19 | 3.30802 | 108.33476 | 42887 ft | 501 kts | 233° |
| 2026-05-04 12:20 | 3.26581 | 108.27919 | 42885 ft | 501 kts | 233° |
| 2026-05-04 12:20 | 3.22363 | 108.22366 | 42887 ft | 501 kts | 233° |
| 2026-05-04 12:21 | 3.18139 | 108.16807 | 42887 ft | 501 kts | 233° |
| 2026-05-04 12:21 | 3.13911 | 108.11244 | 42890 ft | 502 kts | 233° |
| 2026-05-04 12:22 | 3.09685 | 108.05684 | 42890 ft | 502 kts | 233° |
| 2026-05-04 12:22 | 3.05481 | 108.00153 | 42888 ft | 502 kts | 233° |
| 2026-05-04 12:23 | 3.01249 | 107.94587 | 42888 ft | 502 kts | 233° |
| 2026-05-04 12:23 | 2.97021 | 107.89027 | 42887 ft | 502 kts | 233° |
| 2026-05-04 12:24 | 2.92791 | 107.83465 | 42886 ft | 502 kts | 233° |
| 2026-05-04 12:24 | 2.88557 | 107.77898 | 42889 ft | 502 kts | 233° |
| 2026-05-04 12:25 | 2.84327 | 107.72337 | 42889 ft | 502 kts | 233° |
| 2026-05-04 12:25 | 2.80097 | 107.66778 | 42884 ft | 503 kts | 233° |
| 2026-05-04 12:26 | 2.75856 | 107.61204 | 42887 ft | 502 kts | 233° |
| 2026-05-04 12:26 | 2.71622 | 107.55641 | 42889 ft | 502 kts | 233° |
| 2026-05-04 12:27 | 2.67423 | 107.50124 | 42888 ft | 502 kts | 233° |
| 2026-05-04 12:27 | 2.63185 | 107.44557 | 42888 ft | 502 kts | 233° |
| 2026-05-04 12:28 | 2.58957 | 107.39004 | 42890 ft | 502 kts | 233° |
| 2026-05-04 12:28 | 2.54726 | 107.33446 | 42889 ft | 501 kts | 233° |
| 2026-05-04 12:29 | 2.50504 | 107.27902 | 42888 ft | 501 kts | 233° |
| 2026-05-04 12:29 | 2.46275 | 107.22349 | 42889 ft | 501 kts | 233° |
| 2026-05-04 12:30 | 2.42054 | 107.16809 | 42888 ft | 501 kts | 233° |
| 2026-05-04 12:30 | 2.37826 | 107.11258 | 42886 ft | 500 kts | 233° |
| 2026-05-04 12:31 | 2.33627 | 107.05759 | 42887 ft | 500 kts | 233° |
| 2026-05-04 12:31 | 2.29397 | 107.00240 | 42887 ft | 500 kts | 233° |
| 2026-05-04 12:32 | 2.23055 | 106.91965 | 42886 ft | 500 kts | 233° |
| 2026-05-04 12:33 | 2.18828 | 106.86448 | 42888 ft | 499 kts | 233° |
| 2026-05-04 12:33 | 2.14594 | 106.80921 | 42887 ft | 499 kts | 233° |
| 2026-05-04 12:34 | 2.10387 | 106.75432 | 42890 ft | 499 kts | 233° |
| 2026-05-04 12:34 | 2.06165 | 106.69922 | 42889 ft | 499 kts | 233° |
| 2026-05-04 12:35 | 2.01947 | 106.64419 | 42886 ft | 498 kts | 233° |
| 2026-05-04 12:35 | 1.97733 | 106.58920 | 42887 ft | 498 kts | 233° |
| 2026-05-04 12:36 | 1.93520 | 106.53425 | 42888 ft | 498 kts | 233° |
| 2026-05-04 12:36 | 1.89309 | 106.47931 | 42890 ft | 498 kts | 233° |
| 2026-05-04 12:37 | 1.85122 | 106.42469 | 42888 ft | 497 kts | 233° |
| 2026-05-04 12:37 | 1.80913 | 106.36981 | 42891 ft | 497 kts | 233° |
| 2026-05-04 12:38 | 1.76708 | 106.31497 | 42889 ft | 497 kts | 233° |
| 2026-05-04 12:38 | 1.72508 | 106.26020 | 42889 ft | 496 kts | 233° |
| 2026-05-04 12:39 | 1.68303 | 106.20537 | 42892 ft | 496 kts | 233° |
| 2026-05-04 12:39 | 1.64128 | 106.15101 | 42889 ft | 496 kts | 233° |
| 2026-05-04 12:40 | 1.59930 | 106.09622 | 42893 ft | 496 kts | 233° |
| 2026-05-04 12:40 | 1.55732 | 106.04146 | 42891 ft | 496 kts | 233° |
| 2026-05-04 12:41 | 1.51542 | 105.98681 | 42408 ft | 492 kts | 233° |
| 2026-05-04 12:41 | 1.49456 | 105.95961 | 41691 ft | 493 kts | 233° |
| 2026-05-04 12:41 | 1.47364 | 105.93233 | 40995 ft | 494 kts | 233° |
| 2026-05-04 12:41 | 1.45274 | 105.90506 | 40331 ft | 495 kts | 233° |
| 2026-05-04 12:42 | 1.43180 | 105.87776 | 39656 ft | 496 kts | 232° |
| 2026-05-04 12:42 | 1.41079 | 105.85037 | 38976 ft | 497 kts | 232° |
| 2026-05-04 12:42 | 1.38992 | 105.82317 | 38271 ft | 498 kts | 232° |
| 2026-05-04 12:42 | 1.36883 | 105.79567 | 37451 ft | 500 kts | 232° |
| 2026-05-04 12:43 | 1.34759 | 105.76803 | 36586 ft | 503 kts | 232° |
| 2026-05-04 12:43 | 1.32624 | 105.74015 | 35753 ft | 505 kts | 231° |
| 2026-05-04 12:43 | 1.30487 | 105.71217 | 34932 ft | 508 kts | 231° |
| 2026-05-04 12:43 | 1.28336 | 105.68404 | 34130 ft | 510 kts | 231° |
| 2026-05-04 12:44 | 1.26187 | 105.65595 | 33171 ft | 502 kts | 231° |
| 2026-05-04 12:44 | 1.24085 | 105.62848 | 31669 ft | 496 kts | 231° |
| 2026-05-04 12:44 | 1.21986 | 105.60108 | 30150 ft | 495 kts | 231° |
| 2026-05-04 12:44 | 1.20063 | 105.57283 | 28442 ft | 492 kts | 241° |
| 2026-05-04 12:45 | 1.18875 | 105.54107 | 26938 ft | 486 kts | 257° |
| 2026-05-04 12:45 | 1.18555 | 105.50792 | 25829 ft | 473 kts | 270° |
| 2026-05-04 12:45 | 1.18586 | 105.47589 | 25369 ft | 448 kts | 270° |
| 2026-05-04 12:45 | 1.18593 | 105.44497 | 24905 ft | 444 kts | 269° |
| 2026-05-04 12:46 | 1.18564 | 105.41414 | 24372 ft | 442 kts | 269° |
| 2026-05-04 12:46 | 1.18513 | 105.38389 | 23842 ft | 440 kts | 269° |
| 2026-05-04 12:46 | 1.18450 | 105.35336 | 23257 ft | 439 kts | 268° |
| 2026-05-04 12:46 | 1.18380 | 105.32287 | 22659 ft | 436 kts | 268° |
| 2026-05-04 12:47 | 1.18308 | 105.29271 | 22104 ft | 432 kts | 268° |
| 2026-05-04 12:47 | 1.18234 | 105.26283 | 21554 ft | 429 kts | 268° |
| 2026-05-04 12:47 | 1.18159 | 105.23311 | 21004 ft | 425 kts | 268° |
| 2026-05-04 12:47 | 1.18085 | 105.20388 | 20721 ft | 415 kts | 268° |
| 2026-05-04 12:48 | 1.18013 | 105.17552 | 20592 ft | 401 kts | 268° |
| 2026-05-04 12:48 | 1.17943 | 105.14812 | 20456 ft | 388 kts | 268° |
| 2026-05-04 12:48 | 1.17875 | 105.12151 | 20287 ft | 377 kts | 268° |
| 2026-05-04 12:48 | 1.17808 | 105.09547 | 19976 ft | 372 kts | 268° |
| 2026-05-04 12:49 | 1.17748 | 105.06974 | 19590 ft | 368 kts | 269° |
| 2026-05-04 12:49 | 1.17697 | 105.04423 | 19212 ft | 366 kts | 269° |
| 2026-05-04 12:49 | 1.17646 | 105.01891 | 18831 ft | 363 kts | 269° |
| 2026-05-04 12:49 | 1.17594 | 104.99378 | 18449 ft | 361 kts | 269° |
| 2026-05-04 12:50 | 1.17543 | 104.96912 | 18054 ft | 359 kts | 269° |
| 2026-05-04 12:50 | 1.17490 | 104.94420 | 17624 ft | 356 kts | 269° |
| 2026-05-04 12:50 | 1.17438 | 104.91959 | 17306 ft | 350 kts | 269° |
| 2026-05-04 12:50 | 1.17387 | 104.89554 | 17117 ft | 341 kts | 269° |
| 2026-05-04 12:51 | 1.17337 | 104.87216 | 16935 ft | 331 kts | 269° |
| 2026-05-04 12:51 | 1.17289 | 104.84948 | 16764 ft | 322 kts | 269° |
| 2026-05-04 12:51 | 1.17242 | 104.82739 | 16572 ft | 314 kts | 269° |
| 2026-05-04 12:51 | 1.17196 | 104.80575 | 16295 ft | 310 kts | 269° |
| 2026-05-04 12:52 | 1.17144 | 104.78428 | 15998 ft | 306 kts | 268° |
| 2026-05-04 12:52 | 1.17090 | 104.76321 | 15505 ft | 301 kts | 268° |
| 2026-05-04 12:52 | 1.17037 | 104.74236 | 15134 ft | 300 kts | 268° |
| 2026-05-04 12:52 | 1.16984 | 104.72167 | 14864 ft | 296 kts | 268° |
| 2026-05-04 12:53 | 1.16933 | 104.70121 | 14610 ft | 292 kts | 268° |
| 2026-05-04 12:53 | 1.16882 | 104.68125 | 14368 ft | 289 kts | 268° |
| 2026-05-04 12:53 | 1.16831 | 104.66098 | 14186 ft | 288 kts | 268° |
| 2026-05-04 12:53 | 1.16781 | 104.64104 | 13980 ft | 287 kts | 268° |
| 2026-05-04 12:54 | 1.16730 | 104.62114 | 13746 ft | 285 kts | 268° |
| 2026-05-04 12:54 | 1.16681 | 104.60166 | 13459 ft | 283 kts | 268° |
| 2026-05-04 12:54 | 1.16632 | 104.58205 | 13129 ft | 281 kts | 268° |
| 2026-05-04 12:54 | 1.16582 | 104.56258 | 12800 ft | 279 kts | 268° |
| 2026-05-04 12:55 | 1.16534 | 104.54330 | 12477 ft | 277 kts | 268° |
| 2026-05-04 12:55 | 1.16485 | 104.52403 | 12162 ft | 276 kts | 268° |
| 2026-05-04 12:55 | 1.16437 | 104.50492 | 11847 ft | 274 kts | 268° |
| 2026-05-04 12:55 | 1.16389 | 104.48598 | 11540 ft | 272 kts | 268° |
| 2026-05-04 12:56 | 1.16341 | 104.46710 | 11220 ft | 270 kts | 268° |
| 2026-05-04 12:56 | 1.16294 | 104.44843 | 10925 ft | 269 kts | 268° |
| 2026-05-04 12:56 | 1.16247 | 104.42999 | 10624 ft | 267 kts | 268° |
| 2026-05-04 12:56 | 1.16200 | 104.41127 | 10322 ft | 266 kts | 268° |
| 2026-05-04 12:57 | 1.16153 | 104.39312 | 10039 ft | 264 kts | 268° |
| 2026-05-04 12:57 | 1.16033 | 104.37489 | 9804 ft | 262 kts | 264° |
| 2026-05-04 12:57 | 1.15860 | 104.35675 | 9548 ft | 261 kts | 264° |
| 2026-05-04 12:57 | 1.15691 | 104.33870 | 9308 ft | 260 kts | 265° |
| 2026-05-04 12:58 | 1.15530 | 104.32074 | 9050 ft | 259 kts | 265° |
| 2026-05-04 12:58 | 1.15374 | 104.30283 | 8803 ft | 257 kts | 265° |
| 2026-05-04 12:58 | 1.15222 | 104.28506 | 8558 ft | 256 kts | 265° |
| 2026-05-04 12:58 | 1.15072 | 104.26734 | 8312 ft | 255 kts | 265° |
| 2026-05-04 12:59 | 1.14922 | 104.24965 | 8069 ft | 254 kts | 265° |
| 2026-05-04 12:59 | 1.14775 | 104.23211 | 7826 ft | 253 kts | 265° |
| 2026-05-04 12:59 | 1.14628 | 104.21470 | 7591 ft | 252 kts | 265° |
| 2026-05-04 12:59 | 1.14491 | 104.19753 | 7357 ft | 250 kts | 266° |
| 2026-05-04 13:00 | 1.14370 | 104.18022 | 7128 ft | 249 kts | 266° |
| 2026-05-04 13:00 | 1.14251 | 104.16293 | 6842 ft | 249 kts | 266° |
| 2026-05-04 13:00 | 1.14130 | 104.14565 | 6499 ft | 250 kts | 266° |
| 2026-05-04 13:00 | 1.14007 | 104.12829 | 6150 ft | 250 kts | 266° |
| 2026-05-04 13:01 | 1.13883 | 104.11092 | 5780 ft | 251 kts | 266° |
| 2026-05-04 13:01 | 1.13758 | 104.09353 | 5419 ft | 251 kts | 266° |
| 2026-05-04 13:01 | 1.13634 | 104.07613 | 5059 ft | 251 kts | 266° |
| 2026-05-04 13:01 | 1.13637 | 104.05877 | 4697 ft | 250 kts | 276° |
| 2026-05-04 13:02 | 1.13890 | 104.04155 | 4338 ft | 250 kts | 279° |
| 2026-05-04 13:02 | 1.14087 | 104.03024 | 4091 ft | 249 kts | 280° |
| 2026-05-04 13:02 | 1.14389 | 104.01336 | 3803 ft | 241 kts | 280° |
| 2026-05-04 13:02 | 1.14676 | 103.99737 | 3549 ft | 227 kts | 280° |
| 2026-05-04 13:03 | 1.14949 | 103.98219 | 3310 ft | 219 kts | 280° |
| 2026-05-04 13:03 | 1.15217 | 103.96736 | 3113 ft | 214 kts | 280° |
| 2026-05-04 13:03 | 1.15478 | 103.95288 | 2907 ft | 209 kts | 280° |
| 2026-05-04 13:03 | 1.15750 | 103.93871 | 2700 ft | 204 kts | 283° |
| 2026-05-04 13:04 | 1.16441 | 103.92680 | 2569 ft | 200 kts | 317° |
| 2026-05-04 13:04 | 1.17684 | 103.92072 | 2533 ft | 201 kts | 345° |
| 2026-05-04 13:04 | 1.19045 | 103.91795 | 2520 ft | 195 kts | 349° |
| 2026-05-04 13:04 | 1.20334 | 103.91717 | 2517 ft | 178 kts | 7° |
| 2026-05-04 13:05 | 1.21455 | 103.92049 | 2521 ft | 159 kts | 21° |
| 2026-05-04 13:05 | 1.22437 | 103.92467 | 2516 ft | 149 kts | 22° |
| 2026-05-04 13:05 | 1.23382 | 103.92868 | 2374 ft | 145 kts | 22° |
| 2026-05-04 13:05 | 1.24284 | 103.93247 | 2202 ft | 141 kts | 22° |
| 2026-05-04 13:06 | 1.25185 | 103.93628 | 2007 ft | 140 kts | 22° |
| 2026-05-04 13:06 | 1.26077 | 103.94006 | 1816 ft | 139 kts | 23° |
| 2026-05-04 13:06 | 1.26969 | 103.94384 | 1649 ft | 139 kts | 23° |
| 2026-05-04 13:06 | 1.27860 | 103.94762 | 1457 ft | 138 kts | 23° |
| 2026-05-04 13:07 | 1.28745 | 103.95138 | 1286 ft | 138 kts | 23° |
| 2026-05-04 13:07 | 1.29628 | 103.95505 | 1086 ft | 137 kts | 23° |
| 2026-05-04 13:07 | 1.30502 | 103.95880 | 901 ft | 136 kts | 25° |
| 2026-05-04 13:07 | 1.31362 | 103.96280 | 747 ft | 135 kts | 24° |
| 2026-05-04 13:08 | 1.32220 | 103.96634 | 616 ft | 135 kts | 20° |
| 2026-05-04 13:08 | 1.33096 | 103.96994 | 409 ft | 134 kts | 23° |
| 2026-05-04 13:08 | 1.33935 | 103.97351 | 274 ft | 133 kts | 22° |
| 2026-05-04 13:08 | 1.34792 | 103.97707 | 104 ft | 134 kts | 21° |
| 2026-05-04 13:09 | 1.35615 | 103.98048 | 37 ft | 110 kts | 22° |
| 2026-05-04 13:09 | 1.36054 | 103.98236 | 32 ft | 35 kts | 23° |
| 2026-05-04 13:09 | 1.36356 | 103.98364 | 33 ft | 59 kts | 23° |
| 2026-05-04 13:09 | 1.36672 | 103.98533 | 32 ft | 44 kts | 43° |
| 2026-05-04 13:10 | 1.36749 | 103.98636 | 31 ft | 8 kts | 73° |
| 2026-05-04 13:10 | 1.36734 | 103.98681 | 31 ft | 7 kts | 138° |
| 2026-05-04 13:10 | 1.36678 | 103.98686 | 31 ft | 10 kts | 190° |
| 2026-05-04 13:10 | 1.36604 | 103.98660 | 32 ft | 13 kts | 204° |
| 2026-05-04 13:11 | 1.36513 | 103.98621 | 32 ft | 16 kts | 203° |
| 2026-05-04 13:11 | 1.36417 | 103.98580 | 32 ft | 16 kts | 203° |
| 2026-05-04 13:11 | 1.36306 | 103.98533 | 33 ft | 19 kts | 202° |
| 2026-05-04 13:11 | 1.36191 | 103.98486 | 33 ft | 17 kts | 202° |
| 2026-05-04 13:12 | 1.36079 | 103.98439 | 34 ft | 17 kts | 203° |
| 2026-05-04 13:12 | 1.35966 | 103.98390 | 34 ft | 19 kts | 203° |
| 2026-05-04 13:12 | 1.35839 | 103.98336 | 34 ft | 21 kts | 203° |
| 2026-05-04 13:12 | 1.35697 | 103.98276 | 35 ft | 23 kts | 203° |
| 2026-05-04 13:13 | 1.35540 | 103.98210 | 36 ft | 25 kts | 203° |
| 2026-05-04 13:13 | 1.35383 | 103.98147 | 37 ft | 18 kts | 195° |
| 2026-05-04 13:13 | 1.35363 | 103.98144 | 37 ft | 0 kts | 185° |
| 2026-05-04 13:15 | 1.35351 | 103.98144 | 37 ft | 4 kts | 177° |
| 2026-05-04 13:15 | 1.35318 | 103.98162 | 37 ft | 6 kts | 129° |
| 2026-05-04 13:16 | 1.35324 | 103.98202 | 36 ft | 7 kts | 60° |
| 2026-05-04 13:16 | 1.35363 | 103.98251 | 36 ft | 11 kts | 60° |
| 2026-05-04 13:16 | 1.35340 | 103.98306 | 35 ft | 9 kts | 156° |
| 2026-05-04 13:16 | 1.35274 | 103.98296 | 36 ft | 10 kts | 201° |
| 2026-05-04 13:17 | 1.35206 | 103.98279 | 36 ft | 6 kts | 164° |
| 2026-05-04 13:17 | 1.35176 | 103.98312 | 35 ft | 8 kts | 117° |
| 2026-05-04 13:17 | 1.35163 | 103.98341 | 35 ft | 0 kts | 114° |